Darstellungsparameter: Aktuell verwendete Einstellungen:
Skalierung der Graphiken ... ?
xyx+y,   Skalierungsfaktor:      Skalierung: Modus: x, Faktor: 1
Darstellungszeitraum ... ?
Vom - - bis: - -   Zeitraum: 04.02.2014 - 03.08.2014
Min/Max/Avg-Anzeige ... ?
Zeige MMA aktuell
Zeige MMA Monat
Zeige MMA alles
Zeige --A aktuell
Zeige --A Monat
Zeige --A alles
Keine MMA-Anzeige
MMA:
Minimum Maximum Average (ber die Originaldaten)
MMA-Basis: 04.02.2014 - 03.08.2014
Quicknavigation für Darstellung... ?
Tage:      1T, 2T, 3T, 5T -1T -2T -3T -5T +1T +2T +3T +5T
Wochen: 1W, 2W, 3W -1W -2W -3W +1W +2W +3W
Monate: 1M, 3M, 6M -1M -3M -6M +1M +3M +6M
Jahre:    1J, 3J, 5J, 10J -1J -3J -5J -10J +1J +3J +5J +10J
Nutze für die Darstellung ... ?
Originaldaten oder Mittelwerte auf ...
Stundenbasis Tagesbasis Wochenbasis
Monatsbasis Jahresbasis      Datenbasis: Original-Daten
Darstellen als:
Statistik (Auto) Statistik J:M      Darstellung:
Zur Graphik,    zurück zur Übersicht aller Sensoren.
 
Tabellarische Datenbersicht: ?
 
Sensor: Nr:Datum:Temp:Feuchte:Taupunkt:
Aussen-T/F 1 04-02-2014 00:00:00 2.4 C 93 % 1.39 C
2 04-02-2014 00:05:00 2.4 C 93 % 1.39 C
3 04-02-2014 00:10:00 2.6 C 94 % 1.73 C
4 04-02-2014 00:15:00 2.7 C 93 % 1.68 C
5 04-02-2014 00:20:00 2.8 C 93 % 1.78 C
6 04-02-2014 00:25:00 3 C 93 % 1.98 C
7 04-02-2014 00:30:00 3 C 92 % 1.83 C
8 04-02-2014 00:35:00 3.1 C 92 % 1.93 C
9 04-02-2014 00:40:00 2.9 C 91 % 1.58 C
10 04-02-2014 00:45:00 2.8 C 91 % 1.48 C
11 04-02-2014 00:50:00 2.6 C 92 % 1.43 C
12 04-02-2014 00:55:00 2.5 C 92 % 1.34 C
13 04-02-2014 01:00:00 2.4 C 92 % 1.24 C
14 04-02-2014 01:05:00 2.4 C 93 % 1.39 C
15 04-02-2014 01:10:00 2.3 C 93 % 1.29 C
16 04-02-2014 01:15:00 2.4 C 93 % 1.39 C
17 04-02-2014 01:20:00 2.6 C 93 % 1.59 C
18 04-02-2014 01:25:00 2.8 C 93 % 1.78 C
19 04-02-2014 01:30:00 2.8 C 92 % 1.63 C
20 04-02-2014 01:35:00 2.8 C 92 % 1.63 C
21 04-02-2014 01:40:00 2.8 C 92 % 1.63 C
22 04-02-2014 01:45:00 2.7 C 92 % 1.53 C
23 04-02-2014 01:50:00 2.5 C 92 % 1.34 C
24 04-02-2014 01:55:00 2.4 C 93 % 1.39 C
25 04-02-2014 02:00:00 2.3 C 93 % 1.29 C
Sensor: Nr:Datum:Temp:Feuchte:Taupunkt:
Aussen-T/F 26 04-02-2014 02:05:00 2.3 C 93 % 1.29 C
27 04-02-2014 02:10:00 2.3 C 94 % 1.44 C
28 04-02-2014 02:15:00 2.4 C 94 % 1.54 C
29 04-02-2014 02:20:00 2.4 C 94 % 1.54 C
30 04-02-2014 02:25:00 2.4 C 93 % 1.39 C
31 04-02-2014 02:30:00 2.4 C 93 % 1.39 C
32 04-02-2014 02:35:00 2.4 C 93 % 1.39 C
33 04-02-2014 02:40:00 2.4 C 94 % 1.54 C
34 04-02-2014 02:45:00 2.4 C 94 % 1.54 C
35 04-02-2014 02:50:00 2.5 C 94 % 1.63 C
36 04-02-2014 02:55:00 2.6 C 94 % 1.73 C
37 04-02-2014 03:00:00 2.6 C 94 % 1.73 C
38 04-02-2014 03:05:00 2.6 C 93 % 1.59 C
39 04-02-2014 03:10:00 2.6 C 94 % 1.73 C
40 04-02-2014 03:15:00 2.7 C 93 % 1.68 C
41 04-02-2014 03:20:00 2.7 C 93 % 1.68 C
42 04-02-2014 03:25:00 2.6 C 93 % 1.59 C
43 04-02-2014 03:30:00 2.5 C 93 % 1.49 C
44 04-02-2014 03:35:00 2.4 C 93 % 1.39 C
45 04-02-2014 03:40:00 2.3 C 93 % 1.29 C
46 04-02-2014 03:45:00 2.2 C 94 % 1.34 C
47 04-02-2014 03:50:00 2.1 C 93 % 1.09 C
48 04-02-2014 03:55:00 2 C 94 % 1.14 C
49 04-02-2014 04:00:00 1.9 C 94 % 1.04 C
50 04-02-2014 04:05:00 2 C 94 % 1.14 C
Sensor: Nr:Datum:Temp:Feuchte:Taupunkt:
Aussen-T/F 51 04-02-2014 04:10:00 2 C 94 % 1.14 C
52 04-02-2014 04:15:00 2.1 C 94 % 1.24 C
53 04-02-2014 04:20:00 2.2 C 95 % 1.48 C
54 04-02-2014 04:25:00 2.1 C 94 % 1.24 C
55 04-02-2014 04:30:00 2.1 C 94 % 1.24 C
56 04-02-2014 04:35:00 2 C 94 % 1.14 C
57 04-02-2014 04:40:00 1.9 C 94 % 1.04 C
58 04-02-2014 04:45:00 1.8 C 94 % 0.94 C
59 04-02-2014 04:50:00 1.8 C 94 % 0.94 C
60 04-02-2014 04:55:00 1.7 C 94 % 0.84 C
61 04-02-2014 05:00:00 1.6 C 94 % 0.74 C
62 04-02-2014 05:05:00 1.6 C 95 % 0.89 C
63 04-02-2014 05:10:00 1.5 C 95 % 0.79 C
64 04-02-2014 05:15:00 1.5 C 95 % 0.79 C
65 04-02-2014 05:20:00 1.6 C 95 % 0.89 C
66 04-02-2014 05:25:00 1.6 C 95 % 0.89 C
67 04-02-2014 05:30:00 1.6 C 95 % 0.89 C
68 04-02-2014 05:35:00 1.7 C 95 % 0.99 C
69 04-02-2014 05:40:00 1.8 C 95 % 1.09 C
70 04-02-2014 05:45:00 1.8 C 95 % 1.09 C
71 04-02-2014 05:50:00 1.9 C 96 % 1.33 C
72 04-02-2014 05:55:00 1.9 C 96 % 1.33 C
73 04-02-2014 06:00:00 1.9 C 96 % 1.33 C
74 04-02-2014 06:05:00 2.2 C 96 % 1.63 C
75 04-02-2014 06:10:00 2.3 C 96 % 1.73 C
Sensor: Nr:Datum:Temp:Feuchte:Taupunkt:
Aussen-T/F 76 04-02-2014 06:15:00 2.3 C 95 % 1.58 C
77 04-02-2014 06:20:00 2.5 C 95 % 1.78 C
78 04-02-2014 06:25:00 2.5 C 95 % 1.78 C
79 04-02-2014 06:30:00 2.5 C 95 % 1.78 C
80 04-02-2014 06:35:00 2.4 C 95 % 1.68 C
81 04-02-2014 06:40:00 2.4 C 95 % 1.68 C
82 04-02-2014 06:45:00 2.4 C 95 % 1.68 C
83 04-02-2014 06:50:00 2.5 C 95 % 1.78 C
84 04-02-2014 06:55:00 2.5 C 95 % 1.78 C
85 04-02-2014 07:00:00 2.6 C 95 % 1.88 C
86 04-02-2014 07:05:00 2.6 C 95 % 1.88 C
87 04-02-2014 07:10:00 2.7 C 95 % 1.98 C
88 04-02-2014 07:15:00 2.7 C 95 % 1.98 C
89 04-02-2014 07:20:00 2.7 C 95 % 1.98 C
90 04-02-2014 07:25:00 2.8 C 95 % 2.08 C
91 04-02-2014 07:30:00 2.9 C 95 % 2.18 C
92 04-02-2014 07:35:00 2.9 C 95 % 2.18 C
93 04-02-2014 07:40:00 2.9 C 95 % 2.18 C
94 04-02-2014 07:45:00 3 C 95 % 2.28 C
95 04-02-2014 07:50:00 3 C 95 % 2.28 C
96 04-02-2014 07:55:00 3.1 C 95 % 2.38 C
97 04-02-2014 08:00:00 3.1 C 95 % 2.38 C
98 04-02-2014 08:05:00 3.2 C 95 % 2.48 C
99 04-02-2014 08:10:00 3.2 C 94 % 2.33 C
100 04-02-2014 08:15:00 3.2 C 94 % 2.33 C
Sensor: Nr:Datum:Temp:Feuchte:Taupunkt:
Aussen-T/F 101 04-02-2014 08:20:00 3.2 C 94 % 2.33 C
102 04-02-2014 08:25:00 3.2 C 94 % 2.33 C
103 04-02-2014 08:30:00 3.2 C 94 % 2.33 C
104 04-02-2014 08:35:00 3.3 C 94 % 2.43 C
105 04-02-2014 08:40:00 3.3 C 94 % 2.43 C
106 04-02-2014 08:45:00 3.4 C 94 % 2.53 C
107 04-02-2014 08:50:00 3.5 C 94 % 2.63 C
108 04-02-2014 08:55:00 3.8 C 92 % 2.62 C
109 04-02-2014 09:00:00 4 C 91 % 2.67 C
110 04-02-2014 09:05:00 4.2 C 90 % 2.71 C
111 04-02-2014 09:10:00 4.5 C 89 % 2.85 C
112 04-02-2014 09:15:00 4.7 C 88 % 2.89 C
113 04-02-2014 09:20:00 4.9 C 86 % 2.76 C
114 04-02-2014 09:25:00 5.2 C 86 % 3.05 C
115 04-02-2014 09:30:00 5.2 C 85 % 2.89 C
116 04-02-2014 09:35:00 5.2 C 85 % 2.89 C
117 04-02-2014 09:40:00 5.3 C 85 % 2.99 C
118 04-02-2014 09:45:00 5.4 C 85 % 3.09 C
119 04-02-2014 09:50:00 5.4 C 85 % 3.09 C
120 04-02-2014 09:55:00 5.4 C 85 % 3.09 C
121 04-02-2014 10:00:00 5.5 C 85 % 3.18 C
122 04-02-2014 10:05:00 5.6 C 84 % 3.12 C
123 04-02-2014 10:10:00 5.7 C 84 % 3.21 C
124 04-02-2014 10:15:00 5.7 C 84 % 3.21 C
125 04-02-2014 10:20:00 5.8 C 84 % 3.31 C
Sensor: Nr:Datum:Temp:Feuchte:Taupunkt:
Aussen-T/F 126 04-02-2014 10:25:00 6 C 83 % 3.34 C
127 04-02-2014 10:30:00 6.1 C 83 % 3.44 C
128 04-02-2014 10:35:00 6.2 C 82 % 3.36 C
129 04-02-2014 10:40:00 6.2 C 82 % 3.36 C
130 04-02-2014 10:45:00 6.2 C 82 % 3.36 C
131 04-02-2014 10:50:00 6.2 C 82 % 3.36 C
132 04-02-2014 10:55:00 6.3 C 82 % 3.46 C
133 04-02-2014 11:00:00 6.3 C 82 % 3.46 C
134 04-02-2014 11:05:00 6.2 C 82 % 3.36 C
135 04-02-2014 11:10:00 6.2 C 82 % 3.36 C
136 04-02-2014 11:15:00 6.2 C 82 % 3.36 C
137 04-02-2014 11:20:00 6.2 C 82 % 3.36 C
138 04-02-2014 11:25:00 6.2 C 82 % 3.36 C
139 04-02-2014 11:30:00 6.2 C 83 % 3.53 C
140 04-02-2014 11:35:00 6.2 C 83 % 3.53 C
141 04-02-2014 11:40:00 6.2 C 83 % 3.53 C
142 04-02-2014 11:45:00 6.3 C 83 % 3.63 C
143 04-02-2014 11:50:00 6.3 C 83 % 3.63 C
144 04-02-2014 11:55:00 6.4 C 82 % 3.56 C
145 04-02-2014 12:00:00 6.5 C 82 % 3.66 C
146 04-02-2014 12:05:00 6.6 C 82 % 3.75 C
147 04-02-2014 12:10:00 6.6 C 82 % 3.75 C
148 04-02-2014 12:15:00 6.6 C 82 % 3.75 C
149 04-02-2014 12:20:00 6.7 C 82 % 3.85 C
150 04-02-2014 12:25:00 6.7 C 81 % 3.68 C
Sensor: Nr:Datum:Temp:Feuchte:Taupunkt:
Aussen-T/F 151 04-02-2014 12:30:00 6.8 C 81 % 3.77 C
152 04-02-2014 12:35:00 6.9 C 81 % 3.87 C
153 04-02-2014 12:40:00 7.1 C 81 % 4.07 C
154 04-02-2014 12:45:00 7.1 C 80 % 3.89 C
155 04-02-2014 12:50:00 7.2 C 80 % 3.99 C
156 04-02-2014 12:55:00 7.3 C 80 % 4.09 C
157 04-02-2014 13:00:00 7.3 C 79 % 3.91 C
158 04-02-2014 13:05:00 7.3 C 80 % 4.09 C
159 04-02-2014 13:10:00 7.3 C 81 % 4.26 C
160 04-02-2014 13:15:00 7.3 C 80 % 4.09 C
161 04-02-2014 13:20:00 7.3 C 80 % 4.09 C
162 04-02-2014 13:25:00 7.4 C 79 % 4 C
163 04-02-2014 13:30:00 7.5 C 78 % 3.92 C
164 04-02-2014 13:35:00 7.6 C 80 % 4.38 C
165 04-02-2014 13:40:00 7.7 C 80 % 4.47 C
166 04-02-2014 13:45:00 7.7 C 79 % 4.3 C
167 04-02-2014 13:50:00 7.8 C 78 % 4.21 C
168 04-02-2014 13:55:00 7.8 C 79 % 4.39 C
169 04-02-2014 14:00:00 7.8 C 80 % 4.57 C
170 04-02-2014 14:05:00 7.9 C 79 % 4.49 C
171 04-02-2014 14:10:00 8.1 C 79 % 4.68 C
172 04-02-2014 14:15:00 8.2 C 79 % 4.78 C
173 04-02-2014 14:20:00 8.2 C 77 % 4.42 C
174 04-02-2014 14:25:00 8.2 C 79 % 4.78 C
175 04-02-2014 14:30:00 8.2 C 78 % 4.6 C
Sensor: Nr:Datum:Temp:Feuchte:Taupunkt:
Aussen-T/F 176 04-02-2014 14:35:00 8.3 C 78 % 4.7 C
177 04-02-2014 14:40:00 8.4 C 76 % 4.42 C
178 04-02-2014 14:45:00 8.4 C 78 % 4.79 C
179 04-02-2014 14:50:00 8.3 C 79 % 4.88 C
180 04-02-2014 14:55:00 7.7 C 81 % 4.65 C
181 04-02-2014 15:00:00 7.3 C 82 % 4.44 C
182 04-02-2014 15:05:00 7.1 C 85 % 4.75 C
183 04-02-2014 15:10:00 7.1 C 86 % 4.92 C
184 04-02-2014 15:15:00 7.1 C 85 % 4.75 C
185 04-02-2014 15:20:00 7 C 86 % 4.82 C
186 04-02-2014 15:25:00 7.1 C 86 % 4.92 C
187 04-02-2014 15:30:00 7.1 C 86 % 4.92 C
188 04-02-2014 15:35:00 7.2 C 87 % 5.19 C
189 04-02-2014 15:40:00 7.3 C 86 % 5.12 C
190 04-02-2014 15:45:00 7.5 C 86 % 5.31 C
191 04-02-2014 15:50:00 7.7 C 85 % 5.34 C
192 04-02-2014 15:55:00 7.7 C 84 % 5.17 C
193 04-02-2014 16:00:00 7.6 C 83 % 4.9 C
194 04-02-2014 16:05:00 7.5 C 83 % 4.81 C
195 04-02-2014 16:10:00 7.3 C 84 % 4.78 C
196 04-02-2014 16:15:00 7.2 C 84 % 4.68 C
197 04-02-2014 16:20:00 7.2 C 83 % 4.51 C
198 04-02-2014 16:25:00 7.2 C 83 % 4.51 C
199 04-02-2014 16:30:00 7.2 C 85 % 4.85 C
200 04-02-2014 16:35:00 7.1 C 85 % 4.75 C
Sensor: Nr:Datum:Temp:Feuchte:Taupunkt:
Aussen-T/F 201 04-02-2014 16:40:00 7.1 C 86 % 4.92 C
202 04-02-2014 16:45:00 7 C 86 % 4.82 C
203 04-02-2014 16:50:00 6.9 C 86 % 4.72 C
204 04-02-2014 16:55:00 6.8 C 87 % 4.79 C
205 04-02-2014 17:00:00 6.5 C 86 % 4.33 C
206 04-02-2014 17:05:00 6.2 C 87 % 4.2 C
207 04-02-2014 17:10:00 6 C 87 % 4 C
208 04-02-2014 17:15:00 5.9 C 88 % 4.07 C
209 04-02-2014 17:20:00 5.7 C 88 % 3.87 C
210 04-02-2014 17:25:00 5.7 C 88 % 3.87 C
211 04-02-2014 17:30:00 5.6 C 89 % 3.93 C
212 04-02-2014 17:35:00 5.6 C 89 % 3.93 C
213 04-02-2014 17:40:00 5.7 C 88 % 3.87 C
214 04-02-2014 17:45:00 5.7 C 87 % 3.71 C
215 04-02-2014 17:50:00 5.6 C 87 % 3.61 C
216 04-02-2014 17:55:00 5.4 C 88 % 3.58 C
217 04-02-2014 18:00:00 5.4 C 88 % 3.58 C
218 04-02-2014 18:05:00 5.3 C 89 % 3.64 C
219 04-02-2014 18:10:00 5.4 C 89 % 3.74 C
220 04-02-2014 18:15:00 5.3 C 90 % 3.8 C
221 04-02-2014 18:20:00 5.3 C 90 % 3.8 C
222 04-02-2014 18:25:00 5.3 C 90 % 3.8 C
223 04-02-2014 18:30:00 5.3 C 90 % 3.8 C
224 04-02-2014 18:35:00 5.3 C 90 % 3.8 C
225 04-02-2014 18:40:00 5.2 C 91 % 3.85 C
Sensor: Nr:Datum:Temp:Feuchte:Taupunkt:
Aussen-T/F 226 04-02-2014 18:45:00 5.2 C 91 % 3.85 C
227 04-02-2014 18:50:00 5.1 C 90 % 3.6 C
228 04-02-2014 18:55:00 5.1 C 90 % 3.6 C
229 04-02-2014 19:00:00 5 C 90 % 3.5 C
230 04-02-2014 19:05:00 4.9 C 90 % 3.4 C
231 04-02-2014 19:10:00 4.7 C 89 % 3.05 C
232 04-02-2014 19:15:00 4.5 C 90 % 3.01 C
233 04-02-2014 19:20:00 4.2 C 90 % 2.71 C
234 04-02-2014 19:25:00 4.1 C 91 % 2.77 C
235 04-02-2014 19:30:00 4.2 C 92 % 3.02 C
236 04-02-2014 19:35:00 4.3 C 91 % 2.96 C
237 04-02-2014 19:40:00 4.1 C 91 % 2.77 C
238 04-02-2014 19:45:00 3.9 C 91 % 2.57 C
239 04-02-2014 19:50:00 3.8 C 92 % 2.62 C
240 04-02-2014 19:55:00 3.7 C 92 % 2.52 C
241 04-02-2014 20:00:00 3.6 C 92 % 2.42 C
242 04-02-2014 20:05:00 3.5 C 93 % 2.48 C
243 04-02-2014 20:10:00 3.6 C 94 % 2.73 C
244 04-02-2014 20:15:00 3.7 C 94 % 2.83 C
245 04-02-2014 20:20:00 3.7 C 93 % 2.68 C
246 04-02-2014 20:25:00 3.6 C 93 % 2.58 C
247 04-02-2014 20:30:00 3.5 C 93 % 2.48 C
248 04-02-2014 20:35:00 3.4 C 93 % 2.38 C
249 04-02-2014 20:40:00 3.4 C 93 % 2.38 C
250 04-02-2014 20:45:00 3.3 C 94 % 2.43 C
Sensor: Nr:Datum:Temp:Feuchte:Taupunkt:
Aussen-T/F 251 04-02-2014 20:50:00 3.3 C 94 % 2.43 C
252 04-02-2014 20:55:00 3.2 C 94 % 2.33 C
253 04-02-2014 21:00:00 3.1 C 94 % 2.23 C
254 04-02-2014 21:05:00 3.2 C 95 % 2.48 C
255 04-02-2014 21:10:00 3.3 C 94 % 2.43 C
256 04-02-2014 21:15:00 3.1 C 94 % 2.23 C
257 04-02-2014 21:20:00 3 C 94 % 2.13 C
258 04-02-2014 21:25:00 2.9 C 94 % 2.03 C
259 04-02-2014 21:30:00 2.8 C 94 % 1.93 C
260 04-02-2014 21:35:00 2.8 C 94 % 1.93 C
261 04-02-2014 21:40:00 2.8 C 95 % 2.08 C
262 04-02-2014 21:45:00 2.8 C 94 % 1.93 C
263 04-02-2014 21:50:00 2.7 C 94 % 1.83 C
264 04-02-2014 21:55:00 2.6 C 94 % 1.73 C
265 04-02-2014 22:00:00 2.7 C 95 % 1.98 C
266 04-02-2014 22:05:00 2.7 C 95 % 1.98 C
267 04-02-2014 22:10:00 2.5 C 95 % 1.78 C
268 04-02-2014 22:15:00 2.5 C 95 % 1.78 C
269 04-02-2014 22:20:00 2.6 C 95 % 1.88 C
270 04-02-2014 22:25:00 2.6 C 95 % 1.88 C
271 04-02-2014 22:30:00 2.5 C 95 % 1.78 C
272 04-02-2014 22:35:00 2.5 C 95 % 1.78 C
273 04-02-2014 22:40:00 2.4 C 95 % 1.68 C
274 04-02-2014 22:45:00 2.4 C 95 % 1.68 C
275 04-02-2014 22:50:00 2.4 C 95 % 1.68 C
Sensor: Nr:Datum:Temp:Feuchte:Taupunkt:
Aussen-T/F 276 04-02-2014 22:55:00 2.4 C 95 % 1.68 C
277 04-02-2014 23:00:00 2.4 C 95 % 1.68 C
278 04-02-2014 23:05:00 2.3 C 95 % 1.58 C
279 04-02-2014 23:10:00 2.3 C 95 % 1.58 C
280 04-02-2014 23:15:00 2.2 C 96 % 1.63 C
281 04-02-2014 23:20:00 2.3 C 96 % 1.73 C
282 04-02-2014 23:25:00 2.3 C 96 % 1.73 C
283 04-02-2014 23:30:00 2.3 C 96 % 1.73 C
284 04-02-2014 23:35:00 2.2 C 96 % 1.63 C
285 04-02-2014 23:40:00 2.2 C 96 % 1.63 C
286 04-02-2014 23:45:00 2.2 C 96 % 1.63 C
287 04-02-2014 23:50:00 2.3 C 96 % 1.73 C
288 04-02-2014 23:55:00 2.3 C 96 % 1.73 C
289 05-02-2014 00:00:00 2.3 C 96 % 1.73 C
290 05-02-2014 00:05:00 2.3 C 96 % 1.73 C
291 05-02-2014 00:10:00 2.3 C 96 % 1.73 C
292 05-02-2014 00:15:00 2.3 C 96 % 1.73 C
293 05-02-2014 00:20:00 2.3 C 96 % 1.73 C
294 05-02-2014 00:25:00 2.2 C 96 % 1.63 C
295 05-02-2014 00:30:00 2.2 C 96 % 1.63 C
296 05-02-2014 00:35:00 2.2 C 96 % 1.63 C
297 05-02-2014 00:40:00 2.2 C 96 % 1.63 C
298 05-02-2014 00:45:00 2.3 C 96 % 1.73 C
299 05-02-2014 00:50:00 2.2 C 96 % 1.63 C
300 05-02-2014 00:55:00 2.2 C 96 % 1.63 C
Sensor: Nr:Datum:Temp:Feuchte:Taupunkt:
Aussen-T/F 301 05-02-2014 01:00:00 2.2 C 96 % 1.63 C
302 05-02-2014 01:05:00 2.2 C 96 % 1.63 C
303 05-02-2014 01:10:00 2.1 C 96 % 1.53 C
304 05-02-2014 01:15:00 2 C 96 % 1.43 C
305 05-02-2014 01:20:00 2.1 C 96 % 1.53 C
306 05-02-2014 01:25:00 2.1 C 96 % 1.53 C
307 05-02-2014 01:30:00 2.3 C 96 % 1.73 C
308 05-02-2014 01:35:00 2.2 C 96 % 1.63 C
309 05-02-2014 01:40:00 2.2 C 96 % 1.63 C
310 05-02-2014 01:45:00 2.2 C 96 % 1.63 C
311 05-02-2014 01:50:00 2.1 C 96 % 1.53 C
312 05-02-2014 01:55:00 1.9 C 96 % 1.33 C
313 05-02-2014 02:00:00 1.9 C 96 % 1.33 C
314 05-02-2014 02:05:00 1.9 C 96 % 1.33 C
315 05-02-2014 02:10:00 1.9 C 96 % 1.33 C
316 05-02-2014 02:15:00 2 C 96 % 1.43 C
317 05-02-2014 02:20:00 2 C 96 % 1.43 C
318 05-02-2014 02:25:00 2.2 C 96 % 1.63 C
319 05-02-2014 02:30:00 2.2 C 96 % 1.63 C
320 05-02-2014 02:35:00 2.2 C 96 % 1.63 C
321 05-02-2014 02:40:00 2.2 C 96 % 1.63 C
322 05-02-2014 02:45:00 2.1 C 96 % 1.53 C
323 05-02-2014 02:50:00 2.2 C 96 % 1.63 C
324 05-02-2014 02:55:00 2.4 C 96 % 1.83 C
325 05-02-2014 03:00:00 2.4 C 96 % 1.83 C
Sensor: Nr:Datum:Temp:Feuchte:Taupunkt:
Aussen-T/F 326 05-02-2014 03:05:00 2.4 C 95 % 1.68 C
327 05-02-2014 03:10:00 2.4 C 95 % 1.68 C
328 05-02-2014 03:15:00 2.3 C 95 % 1.58 C
329 05-02-2014 03:20:00 2.2 C 95 % 1.48 C
330 05-02-2014 03:25:00 2.4 C 96 % 1.83 C
331 05-02-2014 03:30:00 2.7 C 96 % 2.13 C
332 05-02-2014 03:35:00 3.2 C 95 % 2.48 C
333 05-02-2014 03:40:00 3.2 C 93 % 2.18 C
334 05-02-2014 03:45:00 2.9 C 93 % 1.88 C
335 05-02-2014 03:50:00 2.9 C 94 % 2.03 C
336 05-02-2014 03:55:00 3 C 94 % 2.13 C
337 05-02-2014 04:00:00 2.9 C 93 % 1.88 C
338 05-02-2014 04:05:00 2.8 C 93 % 1.78 C
339 05-02-2014 04:10:00 2.8 C 93 % 1.78 C
340 05-02-2014 04:15:00 2.6 C 93 % 1.59 C
341 05-02-2014 04:20:00 2.8 C 94 % 1.93 C
342 05-02-2014 04:25:00 3 C 94 % 2.13 C
343 05-02-2014 04:30:00 3 C 93 % 1.98 C
344 05-02-2014 04:35:00 2.8 C 93 % 1.78 C
345 05-02-2014 04:40:00 2.8 C 93 % 1.78 C
346 05-02-2014 04:45:00 2.8 C 93 % 1.78 C
347 05-02-2014 04:50:00 2.7 C 93 % 1.68 C
348 05-02-2014 04:55:00 2.6 C 93 % 1.59 C
349 05-02-2014 05:00:00 2.5 C 93 % 1.49 C
350 05-02-2014 05:05:00 2.4 C 93 % 1.39 C
Sensor: Nr:Datum:Temp:Feuchte:Taupunkt:
Aussen-T/F 351 05-02-2014 05:10:00 2.4 C 94 % 1.54 C
352 05-02-2014 05:15:00 2.7 C 95 % 1.98 C
353 05-02-2014 05:20:00 2.9 C 94 % 2.03 C
354 05-02-2014 05:25:00 3 C 93 % 1.98 C
355 05-02-2014 05:30:00 3.2 C 93 % 2.18 C
356 05-02-2014 05:35:00 3.2 C 92 % 2.03 C
357 05-02-2014 05:40:00 3.4 C 92 % 2.23 C
358 05-02-2014 05:45:00 3.6 C 91 % 2.27 C
359 05-02-2014 05:50:00 3.7 C 90 % 2.22 C
360 05-02-2014 05:55:00 3.7 C 89 % 2.06 C
361 05-02-2014 06:00:00 3.7 C 89 % 2.06 C
362 05-02-2014 06:05:00 3.7 C 89 % 2.06 C
363 05-02-2014 06:10:00 3.7 C 89 % 2.06 C
364 05-02-2014 06:15:00 3.7 C 89 % 2.06 C
365 05-02-2014 06:20:00 3.6 C 89 % 1.96 C
366 05-02-2014 06:25:00 3.6 C 89 % 1.96 C
367 05-02-2014 06:30:00 3.6 C 89 % 1.96 C
368 05-02-2014 06:35:00 3.5 C 89 % 1.86 C
369 05-02-2014 06:40:00 3.5 C 89 % 1.86 C
370 05-02-2014 06:45:00 3.4 C 89 % 1.76 C
371 05-02-2014 06:50:00 3.4 C 89 % 1.76 C
372 05-02-2014 06:55:00 3.4 C 89 % 1.76 C
373 05-02-2014 07:00:00 3.4 C 89 % 1.76 C
374 05-02-2014 07:05:00 3.5 C 89 % 1.86 C
375 05-02-2014 07:10:00 3.5 C 88 % 1.7 C
Sensor: Nr:Datum:Temp:Feuchte:Taupunkt:
Aussen-T/F 376 05-02-2014 07:15:00 3.4 C 88 % 1.61 C
377 05-02-2014 07:20:00 3.4 C 88 % 1.61 C
378 05-02-2014 07:25:00 3.4 C 88 % 1.61 C
379 05-02-2014 07:30:00 3.4 C 88 % 1.61 C
380 05-02-2014 07:35:00 3.4 C 88 % 1.61 C
381 05-02-2014 07:40:00 3.4 C 88 % 1.61 C
382 05-02-2014 07:45:00 3.5 C 88 % 1.7 C
383 05-02-2014 07:50:00 3.5 C 88 % 1.7 C
384 05-02-2014 07:55:00 3.5 C 88 % 1.7 C
385 05-02-2014 08:00:00 3.5 C 88 % 1.7 C
386 05-02-2014 08:05:00 3.4 C 88 % 1.61 C
387 05-02-2014 08:10:00 3.4 C 88 % 1.61 C
388 05-02-2014 08:15:00 3.3 C 88 % 1.51 C
389 05-02-2014 08:20:00 3.3 C 88 % 1.51 C
390 05-02-2014 08:25:00 3.3 C 88 % 1.51 C
391 05-02-2014 08:30:00 3.3 C 88 % 1.51 C
392 05-02-2014 08:35:00 3.3 C 88 % 1.51 C
393 05-02-2014 08:40:00 3.3 C 89 % 1.67 C
394 05-02-2014 08:45:00 3.3 C 89 % 1.67 C
395 05-02-2014 08:50:00 3.3 C 90 % 1.82 C
396 05-02-2014 08:55:00 3.2 C 91 % 1.88 C
397 05-02-2014 09:00:00 3.2 C 91 % 1.88 C
398 05-02-2014 09:05:00 3.2 C 92 % 2.03 C
399 05-02-2014 09:10:00 3.2 C 92 % 2.03 C
400 05-02-2014 09:15:00 3.2 C 92 % 2.03 C
Sensor: Nr:Datum:Temp:Feuchte:Taupunkt:
Aussen-T/F 401 05-02-2014 09:20:00 3.2 C 92 % 2.03 C
402 05-02-2014 09:25:00 3.2 C 93 % 2.18 C
403 05-02-2014 09:30:00 3.2 C 94 % 2.33 C
404 05-02-2014 09:35:00 3.2 C 94 % 2.33 C
405 05-02-2014 09:40:00 3.2 C 94 % 2.33 C
406 05-02-2014 09:45:00 3.2 C 94 % 2.33 C
407 05-02-2014 09:50:00 3.2 C 94 % 2.33 C
408 05-02-2014 09:55:00 3.3 C 94 % 2.43 C
409 05-02-2014 10:00:00 3.4 C 94 % 2.53 C
410 05-02-2014 10:05:00 3.5 C 94 % 2.63 C
411 05-02-2014 10:10:00 3.6 C 94 % 2.73 C
412 05-02-2014 10:15:00 3.7 C 94 % 2.83 C
413 05-02-2014 10:20:00 3.8 C 94 % 2.93 C
414 05-02-2014 10:25:00 3.8 C 94 % 2.93 C
415 05-02-2014 10:30:00 3.9 C 94 % 3.02 C
416 05-02-2014 10:35:00 4 C 94 % 3.12 C
417 05-02-2014 10:40:00 4.1 C 94 % 3.22 C
418 05-02-2014 10:45:00 4.2 C 95 % 3.47 C
419 05-02-2014 10:50:00 4.3 C 94 % 3.42 C
420 05-02-2014 10:55:00 4.4 C 94 % 3.52 C
421 05-02-2014 11:00:00 4.5 C 95 % 3.77 C
422 05-02-2014 11:05:00 4.6 C 94 % 3.72 C
423 05-02-2014 11:10:00 4.7 C 94 % 3.82 C
424 05-02-2014 11:15:00 4.8 C 94 % 3.92 C
425 05-02-2014 11:20:00 4.9 C 93 % 3.87 C
Sensor: Nr:Datum:Temp:Feuchte:Taupunkt:
Aussen-T/F 426 05-02-2014 11:25:00 5 C 94 % 4.12 C
427 05-02-2014 11:30:00 5.1 C 93 % 4.06 C
428 05-02-2014 11:35:00 5.1 C 93 % 4.06 C
429 05-02-2014 11:40:00 5.2 C 92 % 4.01 C
430 05-02-2014 11:45:00 5.1 C 91 % 3.76 C
431 05-02-2014 11:50:00 5.1 C 92 % 3.91 C
432 05-02-2014 11:55:00 5.1 C 92 % 3.91 C
433 05-02-2014 12:00:00 5.1 C 93 % 4.06 C
434 05-02-2014 12:05:00 5.2 C 93 % 4.16 C
435 05-02-2014 12:10:00 5.2 C 92 % 4.01 C
436 05-02-2014 12:15:00 5.3 C 91 % 3.95 C
437 05-02-2014 12:20:00 5.4 C 90 % 3.89 C
438 05-02-2014 12:25:00 5.4 C 89 % 3.74 C
439 05-02-2014 12:30:00 5.4 C 89 % 3.74 C
440 05-02-2014 12:35:00 5.6 C 89 % 3.93 C
441 05-02-2014 12:40:00 5.8 C 89 % 4.13 C
442 05-02-2014 12:45:00 6 C 89 % 4.33 C
443 05-02-2014 12:50:00 6.2 C 88 % 4.36 C
444 05-02-2014 12:55:00 6.4 C 88 % 4.56 C
445 05-02-2014 13:00:00 6.6 C 86 % 4.43 C
446 05-02-2014 13:05:00 6.7 C 85 % 4.36 C
447 05-02-2014 13:10:00 6.7 C 85 % 4.36 C
448 05-02-2014 13:15:00 6.7 C 84 % 4.19 C
449 05-02-2014 13:20:00 6.6 C 85 % 4.26 C
450 05-02-2014 13:25:00 6.6 C 84 % 4.1 C
Sensor: Nr:Datum:Temp:Feuchte:Taupunkt:
Aussen-T/F 451 05-02-2014 13:30:00 6.6 C 85 % 4.26 C
452 05-02-2014 13:35:00 6.6 C 85 % 4.26 C
453 05-02-2014 13:40:00 6.7 C 86 % 4.53 C
454 05-02-2014 13:45:00 6.7 C 86 % 4.53 C
455 05-02-2014 13:50:00 6.9 C 85 % 4.56 C
456 05-02-2014 13:55:00 6.9 C 85 % 4.56 C
457 05-02-2014 14:00:00 7 C 84 % 4.49 C
458 05-02-2014 14:05:00 7.1 C 85 % 4.75 C
459 05-02-2014 14:10:00 7.1 C 84 % 4.58 C
460 05-02-2014 14:15:00 7.1 C 85 % 4.75 C
461 05-02-2014 14:20:00 7.1 C 85 % 4.75 C
462 05-02-2014 14:25:00 7.1 C 83 % 4.41 C
463 05-02-2014 14:30:00 7 C 84 % 4.49 C
464 05-02-2014 14:35:00 6.9 C 85 % 4.56 C
465 05-02-2014 14:40:00 6.9 C 85 % 4.56 C
466 05-02-2014 14:45:00 6.8 C 86 % 4.63 C
467 05-02-2014 14:50:00 6.7 C 86 % 4.53 C
468 05-02-2014 14:55:00 6.6 C 86 % 4.43 C
469 05-02-2014 15:00:00 6.4 C 87 % 4.4 C
470 05-02-2014 15:05:00 6.3 C 87 % 4.3 C
471 05-02-2014 15:10:00 6.3 C 88 % 4.46 C
472 05-02-2014 15:15:00 6.3 C 88 % 4.46 C
473 05-02-2014 15:20:00 6.2 C 88 % 4.36 C
474 05-02-2014 15:25:00 6.2 C 88 % 4.36 C
475 05-02-2014 15:30:00 6.2 C 88 % 4.36 C
Sensor: Nr:Datum:Temp:Feuchte:Taupunkt:
Aussen-T/F 476 05-02-2014 15:35:00 6.2 C 88 % 4.36 C
477 05-02-2014 15:40:00 6.2 C 87 % 4.2 C
478 05-02-2014 15:45:00 6.2 C 87 % 4.2 C
479 05-02-2014 15:50:00 6.2 C 88 % 4.36 C
480 05-02-2014 15:55:00 6.3 C 87 % 4.3 C
481 05-02-2014 16:00:00 6.4 C 86 % 4.23 C
482 05-02-2014 16:05:00 6.3 C 86 % 4.14 C
483 05-02-2014 16:10:00 6.3 C 85 % 3.97 C
484 05-02-2014 16:15:00 6.1 C 86 % 3.94 C
485 05-02-2014 16:20:00 6.1 C 86 % 3.94 C
486 05-02-2014 16:25:00 6 C 86 % 3.84 C
487 05-02-2014 16:30:00 5.9 C 87 % 3.91 C
488 05-02-2014 16:35:00 5.9 C 87 % 3.91 C
489 05-02-2014 16:40:00 5.9 C 87 % 3.91 C
490 05-02-2014 16:45:00 5.8 C 86 % 3.64 C
491 05-02-2014 16:50:00 5.8 C 87 % 3.81 C
492 05-02-2014 16:55:00 5.8 C 87 % 3.81 C
493 05-02-2014 17:00:00 5.8 C 87 % 3.81 C
494 05-02-2014 17:05:00 5.8 C 87 % 3.81 C
495 05-02-2014 17:10:00 5.8 C 87 % 3.81 C
496 05-02-2014 17:15:00 5.8 C 87 % 3.81 C
497 05-02-2014 17:20:00 5.8 C 88 % 3.97 C
498 05-02-2014 17:25:00 5.8 C 88 % 3.97 C
499 05-02-2014 17:30:00 5.8 C 88 % 3.97 C
500 05-02-2014 17:35:00 5.8 C 88 % 3.97 C
Sensor: Nr:Datum:Temp:Feuchte:Taupunkt:
Aussen-T/F 501 05-02-2014 17:40:00 5.7 C 89 % 4.03 C
502 05-02-2014 17:45:00 5.8 C 89 % 4.13 C
503 05-02-2014 17:50:00 5.9 C 90 % 4.39 C
504 05-02-2014 17:55:00 5.9 C 90 % 4.39 C
505 05-02-2014 18:00:00 6.1 C 89 % 4.43 C
506 05-02-2014 18:05:00 6.2 C 89 % 4.53 C
507 05-02-2014 18:10:00 6.2 C 89 % 4.53 C
508 05-02-2014 18:15:00 6.1 C 90 % 4.59 C
509 05-02-2014 18:20:00 6 C 91 % 4.65 C
510 05-02-2014 18:25:00 5.9 C 91 % 4.55 C
511 05-02-2014 18:30:00 5.9 C 91 % 4.55 C
512 05-02-2014 18:35:00 5.9 C 90 % 4.39 C
513 05-02-2014 18:40:00 5.9 C 90 % 4.39 C
514 05-02-2014 18:45:00 5.8 C 90 % 4.29 C
515 05-02-2014 18:50:00 5.7 C 90 % 4.19 C
516 05-02-2014 18:55:00 5.7 C 90 % 4.19 C
517 05-02-2014 19:00:00 5.6 C 90 % 4.09 C
518 05-02-2014 19:05:00 5.6 C 91 % 4.25 C
519 05-02-2014 19:10:00 5.6 C 90 % 4.09 C
520 05-02-2014 19:15:00 5.6 C 90 % 4.09 C
521 05-02-2014 19:20:00 5.8 C 90 % 4.29 C
522 05-02-2014 19:25:00 5.8 C 90 % 4.29 C
523 05-02-2014 19:30:00 5.7 C 91 % 4.35 C
524 05-02-2014 19:35:00 5.6 C 91 % 4.25 C
525 05-02-2014 19:40:00 5.6 C 91 % 4.25 C
Sensor: Nr:Datum:Temp:Feuchte:Taupunkt:
Aussen-T/F 526 05-02-2014 19:45:00 5.6 C 91 % 4.25 C
527 05-02-2014 19:50:00 5.6 C 91 % 4.25 C
528 05-02-2014 19:55:00 5.6 C 91 % 4.25 C
529 05-02-2014 20:00:00 5.5 C 91 % 4.15 C
530 05-02-2014 20:05:00 5.4 C 91 % 4.05 C
531 05-02-2014 20:10:00 5.4 C 91 % 4.05 C
532 05-02-2014 20:15:00 5.4 C 91 % 4.05 C
533 05-02-2014 20:20:00 5.5 C 91 % 4.15 C
534 05-02-2014 20:25:00 5.5 C 92 % 4.31 C
535 05-02-2014 20:30:00 5.4 C 91 % 4.05 C
536 05-02-2014 20:35:00 5.3 C 91 % 3.95 C
537 05-02-2014 20:40:00 5.3 C 92 % 4.11 C
538 05-02-2014 20:45:00 5.4 C 92 % 4.21 C
539 05-02-2014 20:50:00 5.5 C 92 % 4.31 C
540 05-02-2014 20:55:00 5.6 C 91 % 4.25 C
541 05-02-2014 21:00:00 5.6 C 92 % 4.41 C
542 05-02-2014 21:05:00 5.8 C 91 % 4.45 C
543 05-02-2014 21:10:00 5.8 C 91 % 4.45 C
544 05-02-2014 21:15:00 5.9 C 91 % 4.55 C
545 05-02-2014 21:20:00 6.1 C 89 % 4.43 C
546 05-02-2014 21:25:00 6.4 C 86 % 4.23 C
547 05-02-2014 21:30:00 6.8 C 85 % 4.46 C
548 05-02-2014 21:35:00 6.6 C 86 % 4.43 C
549 05-02-2014 21:40:00 6.6 C 85 % 4.26 C
550 05-02-2014 21:45:00 7 C 83 % 4.32 C
Sensor: Nr:Datum:Temp:Feuchte:Taupunkt:
Aussen-T/F 551 05-02-2014 21:50:00 7.3 C 81 % 4.26 C
552 05-02-2014 21:55:00 7.4 C 82 % 4.53 C
553 05-02-2014 22:00:00 7.3 C 81 % 4.26 C
554 05-02-2014 22:05:00 7.4 C 81 % 4.36 C
555 05-02-2014 22:10:00 7.6 C 79 % 4.2 C
556 05-02-2014 22:15:00 7.6 C 80 % 4.38 C
557 05-02-2014 22:20:00 7.7 C 79 % 4.3 C
558 05-02-2014 22:25:00 7.9 C 78 % 4.31 C
559 05-02-2014 22:30:00 8 C 78 % 4.41 C
560 05-02-2014 22:35:00 7.9 C 78 % 4.31 C
561 05-02-2014 22:40:00 7.9 C 78 % 4.31 C
562 05-02-2014 22:45:00 8.1 C 78 % 4.5 C
563 05-02-2014 22:50:00 8.1 C 78 % 4.5 C
564 05-02-2014 22:55:00 8.1 C 78 % 4.5 C
565 05-02-2014 23:00:00 8.1 C 78 % 4.5 C
566 05-02-2014 23:05:00 8 C 78 % 4.41 C
567 05-02-2014 23:10:00 8 C 78 % 4.41 C
568 05-02-2014 23:15:00 7.9 C 79 % 4.49 C
569 05-02-2014 23:20:00 7.8 C 79 % 4.39 C
570 05-02-2014 23:25:00 7.8 C 79 % 4.39 C
571 05-02-2014 23:30:00 7.8 C 79 % 4.39 C
572 05-02-2014 23:35:00 7.8 C 79 % 4.39 C
573 05-02-2014 23:40:00 7.8 C 80 % 4.57 C
574 05-02-2014 23:45:00 7.8 C 80 % 4.57 C
575 05-02-2014 23:50:00 7.8 C 80 % 4.57 C
Sensor: Nr:Datum:Temp:Feuchte:Taupunkt:
Aussen-T/F 576 05-02-2014 23:55:00 7.8 C 80 % 4.57 C
577 06-02-2014 00:00:00 7.8 C 80 % 4.57 C
578 06-02-2014 00:05:00 7.8 C 80 % 4.57 C
579 06-02-2014 00:10:00 7.7 C 81 % 4.65 C
580 06-02-2014 00:15:00 7.8 C 81 % 4.75 C
581 06-02-2014 00:20:00 7.7 C 81 % 4.65 C
582 06-02-2014 00:25:00 7.7 C 81 % 4.65 C
583 06-02-2014 00:30:00 7.7 C 82 % 4.83 C
584 06-02-2014 00:35:00 7.7 C 82 % 4.83 C
585 06-02-2014 00:40:00 7.7 C 82 % 4.83 C
586 06-02-2014 00:45:00 7.7 C 82 % 4.83 C
587 06-02-2014 00:50:00 7.7 C 83 % 5 C
588 06-02-2014 00:55:00 7.7 C 83 % 5 C
589 06-02-2014 01:00:00 7.7 C 83 % 5 C
590 06-02-2014 01:05:00 7.7 C 83 % 5 C
591 06-02-2014 01:10:00 7.7 C 83 % 5 C
592 06-02-2014 01:15:00 7.8 C 83 % 5.1 C
593 06-02-2014 01:20:00 7.8 C 83 % 5.1 C
594 06-02-2014 01:25:00 7.8 C 83 % 5.1 C
595 06-02-2014 01:30:00 7.8 C 83 % 5.1 C
596 06-02-2014 01:35:00 7.8 C 83 % 5.1 C
597 06-02-2014 01:40:00 7.8 C 83 % 5.1 C
598 06-02-2014 01:45:00 7.8 C 83 % 5.1 C
599 06-02-2014 01:50:00 7.9 C 83 % 5.2 C
600 06-02-2014 01:55:00 7.9 C 83 % 5.2 C
Sensor: Nr:Datum:Temp:Feuchte:Taupunkt:
Aussen-T/F 601 06-02-2014 02:00:00 7.9 C 83 % 5.2 C
602 06-02-2014 02:05:00 8.1 C 83 % 5.39 C
603 06-02-2014 02:10:00 8.1 C 82 % 5.22 C
604 06-02-2014 02:15:00 8.1 C 82 % 5.22 C
605 06-02-2014 02:20:00 8.2 C 82 % 5.32 C
606 06-02-2014 02:25:00 8.2 C 82 % 5.32 C
607 06-02-2014 02:30:00 8.2 C 82 % 5.32 C
608 06-02-2014 02:35:00 8.1 C 83 % 5.39 C
609 06-02-2014 02:40:00 8.1 C 83 % 5.39 C
610 06-02-2014 02:45:00 8.1 C 82 % 5.22 C
611 06-02-2014 02:50:00 8.2 C 82 % 5.32 C
612 06-02-2014 02:55:00 8.2 C 82 % 5.32 C
613 06-02-2014 03:00:00 8.2 C 82 % 5.32 C
614 06-02-2014 03:05:00 8.2 C 82 % 5.32 C
615 06-02-2014 03:10:00 8.3 C 82 % 5.41 C
616 06-02-2014 03:15:00 8.3 C 82 % 5.41 C
617 06-02-2014 03:20:00 8.3 C 81 % 5.24 C
618 06-02-2014 03:25:00 8.3 C 81 % 5.24 C
619 06-02-2014 03:30:00 8.3 C 81 % 5.24 C
620 06-02-2014 03:35:00 8.3 C 81 % 5.24 C
621 06-02-2014 03:40:00 8.3 C 81 % 5.24 C
622 06-02-2014 03:45:00 8.3 C 81 % 5.24 C
623 06-02-2014 03:50:00 8.3 C 81 % 5.24 C
624 06-02-2014 03:55:00 8.4 C 80 % 5.16 C
625 06-02-2014 04:00:00 8.3 C 80 % 5.06 C
Sensor: Nr:Datum:Temp:Feuchte:Taupunkt:
Aussen-T/F 626 06-02-2014 04:05:00 8.3 C 81 % 5.24 C
627 06-02-2014 04:10:00 8.3 C 82 % 5.41 C
628 06-02-2014 04:15:00 8.3 C 82 % 5.41 C
629 06-02-2014 04:20:00 8.2 C 82 % 5.32 C
630 06-02-2014 04:25:00 8.2 C 82 % 5.32 C
631 06-02-2014 04:30:00 8.2 C 81 % 5.14 C
632 06-02-2014 04:35:00 8.3 C 81 % 5.24 C
633 06-02-2014 04:40:00 8.2 C 81 % 5.14 C
634 06-02-2014 04:45:00 8.3 C 81 % 5.24 C
635 06-02-2014 04:50:00 8.3 C 81 % 5.24 C
636 06-02-2014 04:55:00 8.3 C 82 % 5.41 C
637 06-02-2014 05:00:00 8.2 C 82 % 5.32 C
638 06-02-2014 05:05:00 8.1 C 82 % 5.22 C
639 06-02-2014 05:10:00 8.2 C 82 % 5.32 C
640 06-02-2014 05:15:00 8.1 C 81 % 5.04 C
641 06-02-2014 05:20:00 8.1 C 81 % 5.04 C
642 06-02-2014 05:25:00 8 C 81 % 4.94 C
643 06-02-2014 05:30:00 8.1 C 81 % 5.04 C
644 06-02-2014 05:35:00 8.1 C 81 % 5.04 C
645 06-02-2014 05:40:00 8.1 C 81 % 5.04 C
646 06-02-2014 05:45:00 8 C 81 % 4.94 C
647 06-02-2014 05:50:00 7.9 C 80 % 4.67 C
648 06-02-2014 05:55:00 7.8 C 80 % 4.57 C
649 06-02-2014 06:00:00 7.8 C 80 % 4.57 C
650 06-02-2014 06:05:00 7.8 C 80 % 4.57 C
Sensor: Nr:Datum:Temp:Feuchte:Taupunkt:
Aussen-T/F 651 06-02-2014 06:10:00 7.8 C 80 % 4.57 C
652 06-02-2014 06:15:00 7.8 C 80 % 4.57 C
653 06-02-2014 06:20:00 7.8 C 79 % 4.39 C
654 06-02-2014 06:25:00 7.8 C 79 % 4.39 C
655 06-02-2014 06:30:00 7.7 C 79 % 4.3 C
656 06-02-2014 06:35:00 7.7 C 80 % 4.47 C
657 06-02-2014 06:40:00 7.5 C 80 % 4.28 C
658 06-02-2014 06:45:00 7.4 C 80 % 4.18 C
659 06-02-2014 06:50:00 7.5 C 80 % 4.28 C
660 06-02-2014 06:55:00 7.4 C 80 % 4.18 C
661 06-02-2014 07:00:00 7.2 C 81 % 4.16 C
662 06-02-2014 07:05:00 7.1 C 81 % 4.07 C
663 06-02-2014 07:10:00 7.1 C 81 % 4.07 C
664 06-02-2014 07:15:00 7.1 C 81 % 4.07 C
665 06-02-2014 07:20:00 6.9 C 82 % 4.05 C
666 06-02-2014 07:25:00 6.9 C 82 % 4.05 C
667 06-02-2014 07:30:00 7.1 C 81 % 4.07 C
668 06-02-2014 07:35:00 7.1 C 81 % 4.07 C
669 06-02-2014 07:40:00 7.1 C 80 % 3.89 C
670 06-02-2014 07:45:00 7.1 C 80 % 3.89 C
671 06-02-2014 07:50:00 6.9 C 80 % 3.7 C
672 06-02-2014 07:55:00 7 C 80 % 3.79 C
673 06-02-2014 08:00:00 7 C 80 % 3.79 C
674 06-02-2014 08:05:00 6.7 C 80 % 3.5 C
675 06-02-2014 08:10:00 6.9 C 80 % 3.7 C
Sensor: Nr:Datum:Temp:Feuchte:Taupunkt:
Aussen-T/F 676 06-02-2014 08:15:00 6.8 C 80 % 3.6 C
677 06-02-2014 08:20:00 6.8 C 80 % 3.6 C
678 06-02-2014 08:25:00 6.7 C 81 % 3.68 C
679 06-02-2014 08:30:00 6.8 C 81 % 3.77 C
680 06-02-2014 08:35:00 6.7 C 82 % 3.85 C
681 06-02-2014 08:40:00 6.4 C 83 % 3.73 C
682 06-02-2014 08:45:00 6.4 C 84 % 3.9 C
683 06-02-2014 08:50:00 6.7 C 82 % 3.85 C
684 06-02-2014 08:55:00 6.9 C 81 % 3.87 C
685 06-02-2014 09:00:00 7.2 C 81 % 4.16 C
686 06-02-2014 09:05:00 7.3 C 81 % 4.26 C
687 06-02-2014 09:10:00 7.4 C 80 % 4.18 C
688 06-02-2014 09:15:00 7.6 C 79 % 4.2 C
689 06-02-2014 09:20:00 7.7 C 79 % 4.3 C
690 06-02-2014 09:25:00 7.8 C 77 % 4.03 C
691 06-02-2014 09:30:00 8 C 77 % 4.22 C
692 06-02-2014 09:35:00 8.1 C 77 % 4.32 C
693 06-02-2014 09:40:00 8.1 C 77 % 4.32 C
694 06-02-2014 09:45:00 8.1 C 76 % 4.13 C
695 06-02-2014 09:50:00 8.1 C 77 % 4.32 C
696 06-02-2014 09:55:00 8.1 C 77 % 4.32 C
697 06-02-2014 10:00:00 8.1 C 77 % 4.32 C
698 06-02-2014 10:05:00 8.2 C 77 % 4.42 C
699 06-02-2014 10:10:00 8.2 C 77 % 4.42 C
700 06-02-2014 10:15:00 8.3 C 77 % 4.51 C
Sensor: Nr:Datum:Temp:Feuchte:Taupunkt:
Aussen-T/F 701 06-02-2014 10:20:00 8.3 C 77 % 4.51 C
702 06-02-2014 10:25:00 8.4 C 78 % 4.79 C
703 06-02-2014 10:30:00 8.5 C 77 % 4.71 C
704 06-02-2014 10:35:00 8.6 C 76 % 4.62 C
705 06-02-2014 10:40:00 8.6 C 76 % 4.62 C
706 06-02-2014 10:45:00 8.7 C 76 % 4.71 C
707 06-02-2014 10:50:00 8.7 C 76 % 4.71 C
708 06-02-2014 10:55:00 8.7 C 75 % 4.52 C
709 06-02-2014 11:00:00 8.8 C 75 % 4.62 C
710 06-02-2014 11:05:00 8.8 C 75 % 4.62 C
711 06-02-2014 11:10:00 8.8 C 75 % 4.62 C
712 06-02-2014 11:15:00 8.8 C 74 % 4.43 C
713 06-02-2014 11:20:00 8.9 C 75 % 4.72 C
714 06-02-2014 11:25:00 8.9 C 75 % 4.72 C
715 06-02-2014 11:30:00 9 C 74 % 4.62 C
716 06-02-2014 11:35:00 8.9 C 74 % 4.53 C
717 06-02-2014 11:40:00 8.8 C 74 % 4.43 C
718 06-02-2014 11:45:00 8.8 C 74 % 4.43 C
719 06-02-2014 11:50:00 8.8 C 75 % 4.62 C
720 06-02-2014 11:55:00 8.9 C 75 % 4.72 C
721 06-02-2014 12:00:00 8.9 C 75 % 4.72 C
722 06-02-2014 12:05:00 9 C 74 % 4.62 C
723 06-02-2014 12:10:00 9 C 74 % 4.62 C
724 06-02-2014 12:15:00 9 C 73 % 4.43 C
725 06-02-2014 12:20:00 9 C 73 % 4.43 C
Sensor: Nr:Datum:Temp:Feuchte:Taupunkt:
Aussen-T/F 726 06-02-2014 12:25:00 9.1 C 72 % 4.33 C
727 06-02-2014 12:30:00 9.2 C 72 % 4.42 C
728 06-02-2014 12:35:00 9.3 C 71 % 4.32 C
729 06-02-2014 12:40:00 9.5 C 71 % 4.51 C
730 06-02-2014 12:45:00 9.6 C 71 % 4.61 C
731 06-02-2014 12:50:00 9.6 C 70 % 4.41 C
732 06-02-2014 12:55:00 9.7 C 72 % 4.9 C
733 06-02-2014 13:00:00 9.7 C 70 % 4.5 C
734 06-02-2014 13:05:00 9.7 C 70 % 4.5 C
735 06-02-2014 13:10:00 9.8 C 71 % 4.8 C
736 06-02-2014 13:15:00 9.8 C 71 % 4.8 C
737 06-02-2014 13:20:00 9.9 C 70 % 4.69 C
738 06-02-2014 13:25:00 9.9 C 68 % 4.28 C
739 06-02-2014 13:30:00 9.9 C 67 % 4.07 C
740 06-02-2014 13:35:00 9.9 C 67 % 4.07 C
741 06-02-2014 13:40:00 10.1 C 67 % 4.26 C
742 06-02-2014 13:45:00 10.1 C 67 % 4.26 C
743 06-02-2014 13:50:00 10.2 C 67 % 4.36 C
744 06-02-2014 13:55:00 10.2 C 66 % 4.14 C
745 06-02-2014 14:00:00 10.2 C 66 % 4.14 C
746 06-02-2014 14:05:00 10.2 C 67 % 4.36 C
747 06-02-2014 14:10:00 10.3 C 67 % 4.45 C
748 06-02-2014 14:15:00 10.3 C 67 % 4.45 C
749 06-02-2014 14:20:00 10.3 C 69 % 4.87 C
750 06-02-2014 14:25:00 10.3 C 68 % 4.66 C
Sensor: Nr:Datum:Temp:Feuchte:Taupunkt:
Aussen-T/F 751 06-02-2014 14:30:00 10.4 C 67 % 4.55 C
752 06-02-2014 14:35:00 10.4 C 68 % 4.76 C
753 06-02-2014 14:40:00 10.6 C 68 % 4.95 C
754 06-02-2014 14:45:00 10.7 C 66 % 4.62 C
755 06-02-2014 14:50:00 10.7 C 65 % 4.4 C
756 06-02-2014 14:55:00 10.6 C 65 % 4.3 C
757 06-02-2014 15:00:00 10.6 C 65 % 4.3 C
758 06-02-2014 15:05:00 10.4 C 65 % 4.11 C
759 06-02-2014 15:10:00 10.4 C 65 % 4.11 C
760 06-02-2014 15:15:00 10.4 C 64 % 3.89 C
761 06-02-2014 15:20:00 10.3 C 65 % 4.02 C
762 06-02-2014 15:25:00 10.3 C 65 % 4.02 C
763 06-02-2014 15:30:00 10.2 C 66 % 4.14 C
764 06-02-2014 15:35:00 10.2 C 67 % 4.36 C
765 06-02-2014 15:40:00 10.1 C 67 % 4.26 C
766 06-02-2014 15:45:00 9.9 C 67 % 4.07 C
767 06-02-2014 15:50:00 9.9 C 69 % 4.49 C
768 06-02-2014 15:55:00 9.8 C 71 % 4.8 C
769 06-02-2014 16:00:00 9.7 C 68 % 4.09 C
770 06-02-2014 16:05:00 9.7 C 68 % 4.09 C
771 06-02-2014 16:10:00 9.7 C 69 % 4.3 C
772 06-02-2014 16:15:00 9.6 C 70 % 4.41 C
773 06-02-2014 16:20:00 9.3 C 74 % 4.91 C
774 06-02-2014 16:25:00 9.1 C 73 % 4.52 C
775 06-02-2014 16:30:00 8.9 C 75 % 4.72 C
Sensor: Nr:Datum:Temp:Feuchte:Taupunkt:
Aussen-T/F 776 06-02-2014 16:35:00 8.7 C 77 % 4.9 C
777 06-02-2014 16:40:00 8.6 C 78 % 4.99 C
778 06-02-2014 16:45:00 8.6 C 77 % 4.8 C
779 06-02-2014 16:50:00 8.4 C 77 % 4.61 C
780 06-02-2014 16:55:00 8.5 C 76 % 4.52 C
781 06-02-2014 17:00:00 8.6 C 78 % 4.99 C
782 06-02-2014 17:05:00 8.6 C 74 % 4.24 C
783 06-02-2014 17:10:00 8.7 C 76 % 4.71 C
784 06-02-2014 17:15:00 8.6 C 75 % 4.43 C
785 06-02-2014 17:20:00 8.6 C 78 % 4.99 C
786 06-02-2014 17:25:00 8.5 C 74 % 4.14 C
787 06-02-2014 17:30:00 8.7 C 74 % 4.33 C
788 06-02-2014 17:35:00 8.8 C 73 % 4.24 C
789 06-02-2014 17:40:00 8.8 C 73 % 4.24 C
790 06-02-2014 17:45:00 8.8 C 75 % 4.62 C
791 06-02-2014 17:50:00 8.7 C 76 % 4.71 C
792 06-02-2014 17:55:00 8.6 C 74 % 4.24 C
793 06-02-2014 18:00:00 8.6 C 77 % 4.8 C
794 06-02-2014 18:05:00 8.4 C 78 % 4.79 C
795 06-02-2014 18:10:00 8.2 C 78 % 4.6 C
796 06-02-2014 18:15:00 8.2 C 78 % 4.6 C
797 06-02-2014 18:20:00 8.2 C 79 % 4.78 C
798 06-02-2014 18:25:00 8.3 C 77 % 4.51 C
799 06-02-2014 18:30:00 8.4 C 78 % 4.79 C
800 06-02-2014 18:35:00 8.3 C 79 % 4.88 C
Sensor: Nr:Datum:Temp:Feuchte:Taupunkt:
Aussen-T/F 801 06-02-2014 18:40:00 8.3 C 77 % 4.51 C
802 06-02-2014 18:45:00 8.6 C 74 % 4.24 C
803 06-02-2014 18:50:00 8.7 C 75 % 4.52 C
804 06-02-2014 18:55:00 8.7 C 74 % 4.33 C
805 06-02-2014 19:00:00 8.8 C 73 % 4.24 C
806 06-02-2014 19:05:00 8.9 C 73 % 4.33 C
807 06-02-2014 19:10:00 9.1 C 73 % 4.52 C
808 06-02-2014 19:15:00 9 C 73 % 4.43 C
809 06-02-2014 19:20:00 8.9 C 72 % 4.14 C
810 06-02-2014 19:25:00 8.9 C 73 % 4.33 C
811 06-02-2014 19:30:00 8.8 C 76 % 4.81 C
812 06-02-2014 19:35:00 8.7 C 75 % 4.52 C
813 06-02-2014 19:40:00 8.6 C 74 % 4.24 C
814 06-02-2014 19:45:00 8.6 C 76 % 4.62 C
815 06-02-2014 19:50:00 8.4 C 79 % 4.98 C
816 06-02-2014 19:55:00 8.3 C 77 % 4.51 C
817 06-02-2014 20:00:00 8.3 C 78 % 4.7 C
818 06-02-2014 20:05:00 8.3 C 79 % 4.88 C
819 06-02-2014 20:10:00 8.2 C 80 % 4.96 C
820 06-02-2014 20:15:00 8.1 C 81 % 5.04 C
821 06-02-2014 20:20:00 8.1 C 80 % 4.86 C
822 06-02-2014 20:25:00 8.1 C 78 % 4.5 C
823 06-02-2014 20:30:00 8.1 C 81 % 5.04 C
824 06-02-2014 20:35:00 7.9 C 81 % 4.85 C
825 06-02-2014 20:40:00 7.8 C 80 % 4.57 C
Sensor: Nr:Datum:Temp:Feuchte:Taupunkt:
Aussen-T/F 826 06-02-2014 20:45:00 7.9 C 76 % 3.94 C
827 06-02-2014 20:50:00 7.9 C 79 % 4.49 C
828 06-02-2014 20:55:00 7.9 C 78 % 4.31 C
829 06-02-2014 21:00:00 7.8 C 79 % 4.39 C
830 06-02-2014 21:05:00 7.9 C 76 % 3.94 C
831 06-02-2014 21:10:00 8.2 C 74 % 3.85 C
832 06-02-2014 21:15:00 8.3 C 74 % 3.95 C
833 06-02-2014 21:20:00 8.4 C 72 % 3.65 C
834 06-02-2014 21:25:00 8.6 C 73 % 4.04 C
835 06-02-2014 21:30:00 8.6 C 71 % 3.65 C
836 06-02-2014 21:35:00 8.8 C 70 % 3.64 C
837 06-02-2014 21:40:00 8.8 C 71 % 3.84 C
838 06-02-2014 21:45:00 8.7 C 72 % 3.94 C
839 06-02-2014 21:50:00 8.7 C 71 % 3.74 C
840 06-02-2014 21:55:00 8.6 C 70 % 3.45 C
841 06-02-2014 22:00:00 8.7 C 71 % 3.74 C
842 06-02-2014 22:05:00 8.6 C 71 % 3.65 C
843 06-02-2014 22:10:00 8.4 C 73 % 3.85 C
844 06-02-2014 22:15:00 8.3 C 72 % 3.56 C
845 06-02-2014 22:20:00 8.2 C 74 % 3.85 C
846 06-02-2014 22:25:00 8 C 75 % 3.85 C
847 06-02-2014 22:30:00 7.7 C 76 % 3.75 C
848 06-02-2014 22:35:00 7.6 C 76 % 3.65 C
849 06-02-2014 22:40:00 7.7 C 75 % 3.56 C
850 06-02-2014 22:45:00 7.7 C 76 % 3.75 C
Sensor: Nr:Datum:Temp:Feuchte:Taupunkt:
Aussen-T/F 851 06-02-2014 22:50:00 7.8 C 74 % 3.46 C
852 06-02-2014 22:55:00 7.8 C 75 % 3.65 C
853 06-02-2014 23:00:00 8.1 C 72 % 3.37 C
854 06-02-2014 23:05:00 8.3 C 72 % 3.56 C
855 06-02-2014 23:10:00 8.4 C 73 % 3.85 C
856 06-02-2014 23:15:00 8.4 C 72 % 3.65 C
857 06-02-2014 23:20:00 8.4 C 72 % 3.65 C
858 06-02-2014 23:25:00 8.3 C 75 % 4.14 C
859 06-02-2014 23:30:00 8.2 C 76 % 4.23 C
860 06-02-2014 23:35:00 8.2 C 76 % 4.23 C
861 06-02-2014 23:40:00 8.2 C 84 % 5.66 C
862 06-02-2014 23:45:00 8 C 84 % 5.47 C
863 06-02-2014 23:50:00 7.8 C 85 % 5.44 C
864 06-02-2014 23:55:00 7.6 C 86 % 5.41 C
865 07-02-2014 00:00:00 7.5 C 86 % 5.31 C
866 07-02-2014 00:05:00 7.6 C 86 % 5.41 C
867 07-02-2014 00:10:00 7.6 C 85 % 5.24 C
868 07-02-2014 00:15:00 7.7 C 84 % 5.17 C
869 07-02-2014 00:20:00 7.8 C 85 % 5.44 C
870 07-02-2014 00:25:00 7.8 C 85 % 5.44 C
871 07-02-2014 00:30:00 7.7 C 85 % 5.34 C
872 07-02-2014 00:35:00 7.6 C 86 % 5.41 C
873 07-02-2014 00:40:00 7.6 C 85 % 5.24 C
874 07-02-2014 00:45:00 7.6 C 86 % 5.41 C
875 07-02-2014 00:50:00 7.6 C 86 % 5.41 C
Sensor: Nr:Datum:Temp:Feuchte:Taupunkt:
Aussen-T/F 876 07-02-2014 00:55:00 7.6 C 86 % 5.41 C
877 07-02-2014 01:00:00 7.7 C 84 % 5.17 C
878 07-02-2014 01:05:00 7.9 C 82 % 5.02 C
879 07-02-2014 01:10:00 7.9 C 84 % 5.37 C
880 07-02-2014 01:15:00 7.9 C 85 % 5.54 C
881 07-02-2014 01:20:00 7.8 C 84 % 5.27 C
882 07-02-2014 01:25:00 7.7 C 85 % 5.34 C
883 07-02-2014 01:30:00 7.7 C 86 % 5.51 C
884 07-02-2014 01:35:00 7.7 C 85 % 5.34 C
885 07-02-2014 01:40:00 7.7 C 85 % 5.34 C
886 07-02-2014 01:45:00 7.8 C 86 % 5.61 C
887 07-02-2014 01:50:00 7.7 C 86 % 5.51 C
888 07-02-2014 01:55:00 7.7 C 86 % 5.51 C
889 07-02-2014 02:00:00 7.7 C 86 % 5.51 C
890 07-02-2014 02:05:00 7.6 C 86 % 5.41 C
891 07-02-2014 02:10:00 7.7 C 86 % 5.51 C
892 07-02-2014 02:15:00 7.6 C 86 % 5.41 C
893 07-02-2014 02:20:00 7.7 C 85 % 5.34 C
894 07-02-2014 02:25:00 7.7 C 84 % 5.17 C
895 07-02-2014 02:30:00 7.8 C 84 % 5.27 C
896 07-02-2014 02:35:00 8.5 C 74 % 4.14 C
897 07-02-2014 02:40:00 8.7 C 79 % 5.27 C
898 07-02-2014 02:45:00 8.6 C 78 % 4.99 C
899 07-02-2014 02:50:00 8.4 C 80 % 5.16 C
900 07-02-2014 02:55:00 8.3 C 80 % 5.06 C
Sensor: Nr:Datum:Temp:Feuchte:Taupunkt:
Aussen-T/F 901 07-02-2014 03:00:00 8.3 C 79 % 4.88 C
902 07-02-2014 03:05:00 8.3 C 82 % 5.41 C
903 07-02-2014 03:10:00 8.2 C 83 % 5.49 C
904 07-02-2014 03:15:00 8.2 C 76 % 4.23 C
905 07-02-2014 03:20:00 8.3 C 80 % 5.06 C
906 07-02-2014 03:25:00 8.3 C 78 % 4.7 C
907 07-02-2014 03:30:00 8.4 C 80 % 5.16 C
908 07-02-2014 03:35:00 8.3 C 80 % 5.06 C
909 07-02-2014 03:40:00 8.2 C 85 % 5.83 C
910 07-02-2014 03:45:00 8.1 C 86 % 5.9 C
911 07-02-2014 03:50:00 7.9 C 85 % 5.54 C
912 07-02-2014 03:55:00 7.9 C 86 % 5.71 C
913 07-02-2014 04:00:00 8.1 C 85 % 5.73 C
914 07-02-2014 04:05:00 8 C 82 % 5.12 C
915 07-02-2014 04:10:00 8.1 C 84 % 5.56 C
916 07-02-2014 04:15:00 7.9 C 84 % 5.37 C
917 07-02-2014 04:20:00 7.8 C 85 % 5.44 C
918 07-02-2014 04:25:00 7.7 C 86 % 5.51 C
919 07-02-2014 04:30:00 7.7 C 86 % 5.51 C
920 07-02-2014 04:35:00 7.7 C 84 % 5.17 C
921 07-02-2014 04:40:00 7.8 C 86 % 5.61 C
922 07-02-2014 04:45:00 7.8 C 86 % 5.61 C
923 07-02-2014 04:50:00 7.7 C 86 % 5.51 C
924 07-02-2014 04:55:00 7.7 C 87 % 5.68 C
925 07-02-2014 05:00:00 7.5 C 87 % 5.48 C
Sensor: Nr:Datum:Temp:Feuchte:Taupunkt:
Aussen-T/F 926 07-02-2014 05:05:00 7.4 C 88 % 5.55 C
927 07-02-2014 05:10:00 7.4 C 87 % 5.38 C
928 07-02-2014 05:15:00 7.4 C 87 % 5.38 C
929 07-02-2014 05:20:00 7.4 C 86 % 5.22 C
930 07-02-2014 05:25:00 7.6 C 86 % 5.41 C
931 07-02-2014 05:30:00 7.6 C 86 % 5.41 C
932 07-02-2014 05:35:00 7.7 C 85 % 5.34 C
933 07-02-2014 05:40:00 7.9 C 84 % 5.37 C
934 07-02-2014 05:45:00 8.1 C 84 % 5.56 C
935 07-02-2014 05:50:00 8.2 C 84 % 5.66 C
936 07-02-2014 05:55:00 8.4 C 86 % 6.2 C
937 07-02-2014 06:00:00 8.4 C 88 % 6.53 C
938 07-02-2014 06:05:00 8.4 C 86 % 6.2 C
939 07-02-2014 06:10:00 8.8 C 85 % 6.42 C
940 07-02-2014 06:15:00 8.9 C 85 % 6.52 C
941 07-02-2014 06:20:00 8.9 C 85 % 6.52 C
942 07-02-2014 06:25:00 8.9 C 83 % 6.17 C
943 07-02-2014 06:30:00 9.3 C 82 % 6.39 C
944 07-02-2014 06:35:00 9.5 C 81 % 6.41 C
945 07-02-2014 06:40:00 9.4 C 81 % 6.31 C
946 07-02-2014 06:45:00 9.4 C 80 % 6.13 C
947 07-02-2014 06:50:00 9.8 C 79 % 6.34 C
948 07-02-2014 06:55:00 9.9 C 78 % 6.25 C
949 07-02-2014 07:00:00 10.4 C 77 % 6.55 C
950 07-02-2014 07:05:00 10.6 C 76 % 6.55 C
Sensor: Nr:Datum:Temp:Feuchte:Taupunkt:
Aussen-T/F 951 07-02-2014 07:10:00 10.7 C 76 % 6.65 C
952 07-02-2014 07:15:00 10.5 C 77 % 6.64 C
953 07-02-2014 07:20:00 10.4 C 77 % 6.55 C
954 07-02-2014 07:25:00 10.4 C 76 % 6.36 C
955 07-02-2014 07:30:00 10.8 C 75 % 6.55 C
956 07-02-2014 07:35:00 10.8 C 75 % 6.55 C
957 07-02-2014 07:40:00 10.8 C 75 % 6.55 C
958 07-02-2014 07:45:00 10.8 C 76 % 6.75 C
959 07-02-2014 07:50:00 10.7 C 76 % 6.65 C
960 07-02-2014 07:55:00 10.7 C 76 % 6.65 C
961 07-02-2014 08:00:00 11.3 C 74 % 6.84 C
962 07-02-2014 08:05:00 11.4 C 73 % 6.74 C
963 07-02-2014 08:10:00 11.4 C 73 % 6.74 C
964 07-02-2014 08:15:00 11.4 C 73 % 6.74 C
965 07-02-2014 08:20:00 11.3 C 73 % 6.64 C
966 07-02-2014 08:25:00 11.3 C 74 % 6.84 C
967 07-02-2014 08:30:00 11.3 C 73 % 6.64 C
968 07-02-2014 08:35:00 11.3 C 73 % 6.64 C
969 07-02-2014 08:40:00 11.4 C 72 % 6.54 C
970 07-02-2014 08:45:00 11.4 C 72 % 6.54 C
971 07-02-2014 08:50:00 11.4 C 73 % 6.74 C
972 07-02-2014 08:55:00 11.4 C 72 % 6.54 C
973 07-02-2014 09:00:00 11.6 C 72 % 6.73 C
974 07-02-2014 09:05:00 11.7 C 71 % 6.62 C
975 07-02-2014 09:10:00 11.8 C 70 % 6.51 C
Sensor: Nr:Datum:Temp:Feuchte:Taupunkt:
Aussen-T/F 976 07-02-2014 09:15:00 12.1 C 69 % 6.59 C
977 07-02-2014 09:20:00 12.2 C 69 % 6.69 C
978 07-02-2014 09:25:00 12.4 C 69 % 6.88 C
979 07-02-2014 09:30:00 12.6 C 69 % 7.07 C
980 07-02-2014 09:35:00 12.8 C 67 % 6.83 C
981 07-02-2014 09:40:00 13.1 C 67 % 7.12 C
982 07-02-2014 09:45:00 13.2 C 65 % 6.77 C
983 07-02-2014 09:50:00 13.2 C 66 % 7 C
984 07-02-2014 09:55:00 13.1 C 66 % 6.9 C
985 07-02-2014 10:00:00 13.1 C 66 % 6.9 C
986 07-02-2014 10:05:00 13.1 C 65 % 6.68 C
987 07-02-2014 10:10:00 13.1 C 66 % 6.9 C
988 07-02-2014 10:15:00 13.1 C 66 % 6.9 C
989 07-02-2014 10:20:00 13.2 C 66 % 7 C
990 07-02-2014 10:25:00 13.2 C 65 % 6.77 C
991 07-02-2014 10:30:00 13.3 C 64 % 6.64 C
992 07-02-2014 10:35:00 13.3 C 65 % 6.87 C
993 07-02-2014 10:40:00 13.2 C 65 % 6.77 C
994 07-02-2014 10:45:00 13.1 C 68 % 7.34 C
995 07-02-2014 10:50:00 12.7 C 69 % 7.17 C
996 07-02-2014 10:55:00 12.4 C 70 % 7.09 C
997 07-02-2014 11:00:00 12.4 C 70 % 7.09 C
998 07-02-2014 11:05:00 12.3 C 70 % 6.99 C
999 07-02-2014 11:10:00 12.4 C 70 % 7.09 C
1000 07-02-2014 11:15:00 12.3 C 73 % 7.61 C
Sensor: Nr:Datum:Temp:Feuchte:Taupunkt:
Aussen-T/F 1001 07-02-2014 11:20:00 11.8 C 75 % 7.52 C
1002 07-02-2014 11:25:00 11.5 C 77 % 7.61 C
1003 07-02-2014 11:30:00 11.3 C 78 % 7.61 C
1004 07-02-2014 11:35:00 11.2 C 77 % 7.32 C
1005 07-02-2014 11:40:00 11.2 C 75 % 6.94 C
1006 07-02-2014 11:45:00 11.2 C 73 % 6.55 C
1007 07-02-2014 11:50:00 11.2 C 71 % 6.14 C
1008 07-02-2014 11:55:00 11.1 C 70 % 5.84 C
1009 07-02-2014 12:00:00 11.1 C 69 % 5.64 C
1010 07-02-2014 12:05:00 11 C 69 % 5.54 C
1011 07-02-2014 12:10:00 10.9 C 69 % 5.44 C
1012 07-02-2014 12:15:00 10.8 C 70 % 5.56 C
1013 07-02-2014 12:20:00 10.9 C 69 % 5.44 C
1014 07-02-2014 12:25:00 10.8 C 69 % 5.35 C
1015 07-02-2014 12:30:00 10.8 C 69 % 5.35 C
1016 07-02-2014 12:35:00 10.8 C 70 % 5.56 C
1017 07-02-2014 12:40:00 10.7 C 70 % 5.46 C
1018 07-02-2014 12:45:00 10.6 C 71 % 5.57 C
1019 07-02-2014 12:50:00 10.4 C 72 % 5.58 C
1020 07-02-2014 12:55:00 10.4 C 71 % 5.38 C
1021 07-02-2014 13:00:00 10.5 C 71 % 5.47 C
1022 07-02-2014 13:05:00 10.6 C 70 % 5.36 C
1023 07-02-2014 13:10:00 10.6 C 69 % 5.16 C
1024 07-02-2014 13:15:00 10.6 C 70 % 5.36 C
1025 07-02-2014 13:20:00 10.4 C 73 % 5.78 C
Sensor: Nr:Datum:Temp:Feuchte:Taupunkt:
Aussen-T/F 1026 07-02-2014 13:25:00 10.2 C 72 % 5.39 C
1027 07-02-2014 13:30:00 10.2 C 72 % 5.39 C
1028 07-02-2014 13:35:00 10.2 C 72 % 5.39 C
1029 07-02-2014 13:40:00 10.2 C 72 % 5.39 C
1030 07-02-2014 13:45:00 10.2 C 72 % 5.39 C
1031 07-02-2014 13:50:00 10.3 C 72 % 5.48 C
1032 07-02-2014 13:55:00 10.3 C 72 % 5.48 C
1033 07-02-2014 14:00:00 10.5 C 71 % 5.47 C
1034 07-02-2014 14:05:00 10.6 C 69 % 5.16 C
1035 07-02-2014 14:10:00 10.5 C 69 % 5.06 C
1036 07-02-2014 14:15:00 10.5 C 68 % 4.85 C
1037 07-02-2014 14:20:00 10.6 C 67 % 4.74 C
1038 07-02-2014 14:25:00 10.6 C 67 % 4.74 C
1039 07-02-2014 14:30:00 10.7 C 66 % 4.62 C
1040 07-02-2014 14:35:00 10.6 C 67 % 4.74 C
1041 07-02-2014 14:40:00 10.5 C 68 % 4.85 C
1042 07-02-2014 14:45:00 10.5 C 67 % 4.64 C
1043 07-02-2014 14:50:00 10.4 C 67 % 4.55 C
1044 07-02-2014 14:55:00 10.5 C 68 % 4.85 C
1045 07-02-2014 15:00:00 10.5 C 69 % 5.06 C
1046 07-02-2014 15:05:00 10.3 C 70 % 5.08 C
1047 07-02-2014 15:10:00 10 C 71 % 4.99 C
1048 07-02-2014 15:15:00 9.9 C 72 % 5.1 C
1049 07-02-2014 15:20:00 9.8 C 72 % 5 C
1050 07-02-2014 15:25:00 9.8 C 72 % 5 C
Sensor: Nr:Datum:Temp:Feuchte:Taupunkt:
Aussen-T/F 1051 07-02-2014 15:30:00 9.7 C 72 % 4.9 C
1052 07-02-2014 15:35:00 9.7 C 72 % 4.9 C
1053 07-02-2014 15:40:00 9.8 C 72 % 5 C
1054 07-02-2014 15:45:00 9.7 C 72 % 4.9 C
1055 07-02-2014 15:50:00 9.6 C 72 % 4.81 C
1056 07-02-2014 15:55:00 9.5 C 71 % 4.51 C
1057 07-02-2014 16:00:00 9.4 C 71 % 4.42 C
1058 07-02-2014 16:05:00 9.4 C 71 % 4.42 C
1059 07-02-2014 16:10:00 9.4 C 72 % 4.62 C
1060 07-02-2014 16:15:00 9.3 C 73 % 4.72 C
1061 07-02-2014 16:20:00 9.3 C 73 % 4.72 C
1062 07-02-2014 16:25:00 9.3 C 73 % 4.72 C
1063 07-02-2014 16:30:00 9.3 C 73 % 4.72 C
1064 07-02-2014 16:35:00 9.2 C 73 % 4.62 C
1065 07-02-2014 16:40:00 9.2 C 73 % 4.62 C
1066 07-02-2014 16:45:00 9.2 C 74 % 4.81 C
1067 07-02-2014 16:50:00 9.1 C 74 % 4.72 C
1068 07-02-2014 16:55:00 9 C 74 % 4.62 C
1069 07-02-2014 17:00:00 8.9 C 75 % 4.72 C
1070 07-02-2014 17:05:00 8.9 C 76 % 4.91 C
1071 07-02-2014 17:10:00 8.8 C 76 % 4.81 C
1072 07-02-2014 17:15:00 8.8 C 76 % 4.81 C
1073 07-02-2014 17:20:00 8.7 C 77 % 4.9 C
1074 07-02-2014 17:25:00 8.7 C 76 % 4.71 C
1075 07-02-2014 17:30:00 8.7 C 77 % 4.9 C
Sensor: Nr:Datum:Temp:Feuchte:Taupunkt:
Aussen-T/F 1076 07-02-2014 17:35:00 8.6 C 77 % 4.8 C
1077 07-02-2014 17:40:00 8.5 C 77 % 4.71 C
1078 07-02-2014 17:45:00 8.4 C 77 % 4.61 C
1079 07-02-2014 17:50:00 8.4 C 78 % 4.79 C
1080 07-02-2014 17:55:00 8.3 C 78 % 4.7 C
1081 07-02-2014 18:00:00 8.2 C 79 % 4.78 C
1082 07-02-2014 18:05:00 8.1 C 79 % 4.68 C
1083 07-02-2014 18:10:00 8 C 79 % 4.59 C
1084 07-02-2014 18:15:00 7.9 C 79 % 4.49 C
1085 07-02-2014 18:20:00 7.8 C 81 % 4.75 C
1086 07-02-2014 18:25:00 7.7 C 82 % 4.83 C
1087 07-02-2014 18:30:00 7.4 C 83 % 4.71 C
1088 07-02-2014 18:35:00 7.3 C 84 % 4.78 C
1089 07-02-2014 18:40:00 7.2 C 84 % 4.68 C
1090 07-02-2014 18:45:00 7.2 C 84 % 4.68 C
1091 07-02-2014 18:50:00 7.2 C 84 % 4.68 C
1092 07-02-2014 18:55:00 7.3 C 84 % 4.78 C
1093 07-02-2014 19:00:00 7.2 C 84 % 4.68 C
1094 07-02-2014 19:05:00 7.2 C 84 % 4.68 C
1095 07-02-2014 19:10:00 7.2 C 83 % 4.51 C
1096 07-02-2014 19:15:00 7.1 C 83 % 4.41 C
1097 07-02-2014 19:20:00 7.1 C 82 % 4.24 C
1098 07-02-2014 19:25:00 7 C 82 % 4.14 C
1099 07-02-2014 19:30:00 6.9 C 82 % 4.05 C
1100 07-02-2014 19:35:00 6.9 C 82 % 4.05 C
Sensor: Nr:Datum:Temp:Feuchte:Taupunkt:
Aussen-T/F 1101 07-02-2014 19:40:00 6.9 C 81 % 3.87 C
1102 07-02-2014 19:45:00 6.8 C 81 % 3.77 C
1103 07-02-2014 19:50:00 6.8 C 81 % 3.77 C
1104 07-02-2014 19:55:00 6.8 C 80 % 3.6 C
1105 07-02-2014 20:00:00 6.8 C 81 % 3.77 C
1106 07-02-2014 20:05:00 6.7 C 81 % 3.68 C
1107 07-02-2014 20:10:00 6.7 C 82 % 3.85 C
1108 07-02-2014 20:15:00 6.7 C 82 % 3.85 C
1109 07-02-2014 20:20:00 6.7 C 82 % 3.85 C
1110 07-02-2014 20:25:00 6.7 C 82 % 3.85 C
1111 07-02-2014 20:30:00 6.7 C 82 % 3.85 C
1112 07-02-2014 20:35:00 6.7 C 82 % 3.85 C
1113 07-02-2014 20:40:00 6.7 C 82 % 3.85 C
1114 07-02-2014 20:45:00 6.6 C 83 % 3.92 C
1115 07-02-2014 20:50:00 6.4 C 83 % 3.73 C
1116 07-02-2014 20:55:00 6.3 C 84 % 3.8 C
1117 07-02-2014 21:00:00 6.3 C 84 % 3.8 C
1118 07-02-2014 21:05:00 6.2 C 84 % 3.7 C
1119 07-02-2014 21:10:00 6.2 C 84 % 3.7 C
1120 07-02-2014 21:15:00 6.2 C 84 % 3.7 C
1121 07-02-2014 21:20:00 6.2 C 84 % 3.7 C
1122 07-02-2014 21:25:00 6.1 C 84 % 3.61 C
1123 07-02-2014 21:30:00 6.1 C 84 % 3.61 C
1124 07-02-2014 21:35:00 5.9 C 85 % 3.58 C
1125 07-02-2014 21:40:00 5.9 C 85 % 3.58 C
Sensor: Nr:Datum:Temp:Feuchte:Taupunkt:
Aussen-T/F 1126 07-02-2014 21:45:00 5.7 C 85 % 3.38 C
1127 07-02-2014 21:50:00 5.6 C 86 % 3.45 C
1128 07-02-2014 21:55:00 5.5 C 86 % 3.35 C
1129 07-02-2014 22:00:00 5.3 C 86 % 3.15 C
1130 07-02-2014 22:05:00 5.2 C 87 % 3.22 C
1131 07-02-2014 22:10:00 5.1 C 87 % 3.12 C
1132 07-02-2014 22:15:00 5.2 C 87 % 3.22 C
1133 07-02-2014 22:20:00 5.2 C 87 % 3.22 C
1134 07-02-2014 22:25:00 5.2 C 87 % 3.22 C
1135 07-02-2014 22:30:00 5.1 C 87 % 3.12 C
1136 07-02-2014 22:35:00 5.1 C 87 % 3.12 C
1137 07-02-2014 22:40:00 5.1 C 87 % 3.12 C
1138 07-02-2014 22:45:00 4.9 C 87 % 2.92 C
1139 07-02-2014 22:50:00 4.8 C 88 % 2.99 C
1140 07-02-2014 22:55:00 4.7 C 87 % 2.73 C
1141 07-02-2014 23:00:00 4.4 C 88 % 2.59 C
1142 07-02-2014 23:05:00 4.2 C 89 % 2.55 C
1143 07-02-2014 23:10:00 4.1 C 89 % 2.45 C
1144 07-02-2014 23:15:00 3.9 C 90 % 2.41 C
1145 07-02-2014 23:20:00 3.8 C 90 % 2.31 C
1146 07-02-2014 23:25:00 3.7 C 90 % 2.22 C
1147 07-02-2014 23:30:00 3.6 C 91 % 2.27 C
1148 07-02-2014 23:35:00 3.6 C 91 % 2.27 C
1149 07-02-2014 23:40:00 3.5 C 91 % 2.17 C
1150 07-02-2014 23:45:00 3.4 C 91 % 2.07 C
Sensor: Nr:Datum:Temp:Feuchte:Taupunkt:
Aussen-T/F 1151 07-02-2014 23:50:00 3.4 C 92 % 2.23 C
1152 07-02-2014 23:55:00 3.3 C 91 % 1.98 C
1153 08-02-2014 00:00:00 3.1 C 91 % 1.78 C
1154 08-02-2014 00:05:00 2.9 C 92 % 1.73 C
1155 08-02-2014 00:10:00 3 C 93 % 1.98 C
1156 08-02-2014 00:15:00 3 C 93 % 1.98 C
1157 08-02-2014 00:20:00 3 C 93 % 1.98 C
1158 08-02-2014 00:25:00 2.9 C 93 % 1.88 C
1159 08-02-2014 00:30:00 2.8 C 93 % 1.78 C
1160 08-02-2014 00:35:00 2.8 C 93 % 1.78 C
1161 08-02-2014 00:40:00 2.8 C 93 % 1.78 C
1162 08-02-2014 00:45:00 2.8 C 93 % 1.78 C
1163 08-02-2014 00:50:00 2.7 C 92 % 1.53 C
1164 08-02-2014 00:55:00 2.6 C 93 % 1.59 C
1165 08-02-2014 01:00:00 2.5 C 93 % 1.49 C
1166 08-02-2014 01:05:00 2.4 C 93 % 1.39 C
1167 08-02-2014 01:10:00 2.3 C 93 % 1.29 C
1168 08-02-2014 01:15:00 2.3 C 93 % 1.29 C
1169 08-02-2014 01:20:00 2.3 C 93 % 1.29 C
1170 08-02-2014 01:25:00 2.3 C 93 % 1.29 C
1171 08-02-2014 01:30:00 2.2 C 93 % 1.19 C
1172 08-02-2014 01:35:00 2.2 C 93 % 1.19 C
1173 08-02-2014 01:40:00 2.2 C 93 % 1.19 C
1174 08-02-2014 01:45:00 2.2 C 93 % 1.19 C
1175 08-02-2014 01:50:00 2.2 C 93 % 1.19 C
Sensor: Nr:Datum:Temp:Feuchte:Taupunkt:
Aussen-T/F 1176 08-02-2014 01:55:00 2.2 C 93 % 1.19 C
1177 08-02-2014 02:00:00 2.2 C 93 % 1.19 C
1178 08-02-2014 02:05:00 2.2 C 93 % 1.19 C
1179 08-02-2014 02:10:00 2.2 C 93 % 1.19 C
1180 08-02-2014 02:15:00 2.3 C 93 % 1.29 C
1181 08-02-2014 02:20:00 2.4 C 93 % 1.39 C
1182 08-02-2014 02:25:00 2.5 C 93 % 1.49 C
1183 08-02-2014 02:30:00 2.6 C 92 % 1.43 C
1184 08-02-2014 02:35:00 2.6 C 92 % 1.43 C
1185 08-02-2014 02:40:00 2.7 C 92 % 1.53 C
1186 08-02-2014 02:45:00 2.6 C 92 % 1.43 C
1187 08-02-2014 02:50:00 2.6 C 91 % 1.28 C
1188 08-02-2014 02:55:00 2.6 C 92 % 1.43 C
1189 08-02-2014 03:00:00 2.6 C 91 % 1.28 C
1190 08-02-2014 03:05:00 2.6 C 91 % 1.28 C
1191 08-02-2014 03:10:00 2.6 C 92 % 1.43 C
1192 08-02-2014 03:15:00 2.8 C 92 % 1.63 C
1193 08-02-2014 03:20:00 3.1 C 92 % 1.93 C
1194 08-02-2014 03:25:00 3.4 C 91 % 2.07 C
1195 08-02-2014 03:30:00 3.7 C 90 % 2.22 C
1196 08-02-2014 03:35:00 4.1 C 88 % 2.3 C
1197 08-02-2014 03:40:00 4.3 C 88 % 2.49 C
1198 08-02-2014 03:45:00 4.4 C 87 % 2.43 C
1199 08-02-2014 03:50:00 4.5 C 87 % 2.53 C
1200 08-02-2014 03:55:00 4.5 C 87 % 2.53 C
Sensor: Nr:Datum:Temp:Feuchte:Taupunkt:
Aussen-T/F 1201 08-02-2014 04:00:00 4.6 C 87 % 2.63 C
1202 08-02-2014 04:05:00 4.6 C 86 % 2.47 C
1203 08-02-2014 04:10:00 4.7 C 86 % 2.56 C
1204 08-02-2014 04:15:00 5 C 86 % 2.86 C
1205 08-02-2014 04:20:00 5.2 C 85 % 2.89 C
1206 08-02-2014 04:25:00 5.4 C 84 % 2.92 C
1207 08-02-2014 04:30:00 5.6 C 83 % 2.95 C
1208 08-02-2014 04:35:00 5.7 C 83 % 3.04 C
1209 08-02-2014 04:40:00 5.8 C 83 % 3.14 C
1210 08-02-2014 04:45:00 5.8 C 83 % 3.14 C
1211 08-02-2014 04:50:00 5.8 C 83 % 3.14 C
1212 08-02-2014 04:55:00 5.8 C 83 % 3.14 C
1213 08-02-2014 05:00:00 5.9 C 83 % 3.24 C
1214 08-02-2014 05:05:00 5.9 C 82 % 3.07 C
1215 08-02-2014 05:10:00 5.9 C 83 % 3.24 C
1216 08-02-2014 05:15:00 5.9 C 82 % 3.07 C
1217 08-02-2014 05:20:00 6 C 82 % 3.17 C
1218 08-02-2014 05:25:00 6 C 83 % 3.34 C
1219 08-02-2014 05:30:00 5.9 C 83 % 3.24 C
1220 08-02-2014 05:35:00 5.9 C 83 % 3.24 C
1221 08-02-2014 05:40:00 5.9 C 83 % 3.24 C
1222 08-02-2014 05:45:00 6 C 83 % 3.34 C
1223 08-02-2014 05:50:00 5.9 C 83 % 3.24 C
1224 08-02-2014 05:55:00 5.9 C 83 % 3.24 C
1225 08-02-2014 06:00:00 5.9 C 84 % 3.41 C
Sensor: Nr:Datum:Temp:Feuchte:Taupunkt:
Aussen-T/F 1226 08-02-2014 06:05:00 5.9 C 84 % 3.41 C
1227 08-02-2014 06:10:00 5.9 C 84 % 3.41 C
1228 08-02-2014 06:15:00 5.9 C 84 % 3.41 C
1229 08-02-2014 06:20:00 5.9 C 84 % 3.41 C
1230 08-02-2014 06:25:00 5.8 C 84 % 3.31 C
1231 08-02-2014 06:30:00 6.1 C 83 % 3.44 C
1232 08-02-2014 06:35:00 6.1 C 83 % 3.44 C
1233 08-02-2014 06:40:00 6.2 C 83 % 3.53 C
1234 08-02-2014 06:45:00 6.2 C 83 % 3.53 C
1235 08-02-2014 06:50:00 6.2 C 83 % 3.53 C
1236 08-02-2014 06:55:00 6.2 C 83 % 3.53 C
1237 08-02-2014 07:00:00 6.2 C 83 % 3.53 C
1238 08-02-2014 07:05:00 6.2 C 83 % 3.53 C
1239 08-02-2014 07:10:00 6.2 C 83 % 3.53 C
1240 08-02-2014 07:15:00 6.3 C 82 % 3.46 C
1241 08-02-2014 07:20:00 6.4 C 82 % 3.56 C
1242 08-02-2014 07:25:00 6.6 C 81 % 3.58 C
1243 08-02-2014 07:30:00 6.7 C 80 % 3.5 C
1244 08-02-2014 07:35:00 6.7 C 80 % 3.5 C
1245 08-02-2014 07:40:00 6.7 C 80 % 3.5 C
1246 08-02-2014 07:45:00 6.8 C 80 % 3.6 C
1247 08-02-2014 07:50:00 6.8 C 79 % 3.42 C
1248 08-02-2014 07:55:00 6.8 C 79 % 3.42 C
1249 08-02-2014 08:00:00 6.9 C 79 % 3.52 C
1250 08-02-2014 08:05:00 6.9 C 79 % 3.52 C
Sensor: Nr:Datum:Temp:Feuchte:Taupunkt:
Aussen-T/F 1251 08-02-2014 08:10:00 6.9 C 79 % 3.52 C
1252 08-02-2014 08:15:00 7 C 79 % 3.61 C
1253 08-02-2014 08:20:00 7.1 C 78 % 3.53 C
1254 08-02-2014 08:25:00 7.3 C 77 % 3.54 C
1255 08-02-2014 08:30:00 7.3 C 76 % 3.36 C
1256 08-02-2014 08:35:00 7.4 C 76 % 3.45 C
1257 08-02-2014 08:40:00 7.4 C 76 % 3.45 C
1258 08-02-2014 08:45:00 7.4 C 76 % 3.45 C
1259 08-02-2014 08:50:00 7.4 C 76 % 3.45 C
1260 08-02-2014 08:55:00 7.4 C 76 % 3.45 C
1261 08-02-2014 09:00:00 7.6 C 75 % 3.46 C
1262 08-02-2014 09:05:00 7.6 C 75 % 3.46 C
1263 08-02-2014 09:10:00 7.7 C 75 % 3.56 C
1264 08-02-2014 09:15:00 7.7 C 75 % 3.56 C
1265 08-02-2014 09:20:00 7.7 C 75 % 3.56 C
1266 08-02-2014 09:25:00 7.8 C 74 % 3.46 C
1267 08-02-2014 09:30:00 7.8 C 74 % 3.46 C
1268 08-02-2014 09:35:00 7.8 C 73 % 3.27 C
1269 08-02-2014 09:40:00 7.9 C 73 % 3.37 C
1270 08-02-2014 09:45:00 7.9 C 73 % 3.37 C
1271 08-02-2014 09:50:00 7.9 C 74 % 3.56 C
1272 08-02-2014 09:55:00 8 C 74 % 3.66 C
1273 08-02-2014 10:00:00 8 C 74 % 3.66 C
1274 08-02-2014 10:05:00 8 C 74 % 3.66 C
1275 08-02-2014 10:10:00 8 C 74 % 3.66 C
Sensor: Nr:Datum:Temp:Feuchte:Taupunkt:
Aussen-T/F 1276 08-02-2014 10:15:00 8.1 C 74 % 3.75 C
1277 08-02-2014 10:20:00 8.2 C 73 % 3.66 C
1278 08-02-2014 10:25:00 8.2 C 73 % 3.66 C
1279 08-02-2014 10:30:00 8.3 C 73 % 3.75 C
1280 08-02-2014 10:35:00 8.3 C 72 % 3.56 C
1281 08-02-2014 10:40:00 8.4 C 73 % 3.85 C
1282 08-02-2014 10:45:00 8.5 C 72 % 3.75 C
1283 08-02-2014 10:50:00 8.6 C 72 % 3.85 C
1284 08-02-2014 10:55:00 8.7 C 71 % 3.74 C
1285 08-02-2014 11:00:00 8.8 C 73 % 4.24 C
1286 08-02-2014 11:05:00 8.9 C 71 % 3.94 C
1287 08-02-2014 11:10:00 9.1 C 70 % 3.93 C
1288 08-02-2014 11:15:00 9.2 C 71 % 4.22 C
1289 08-02-2014 11:20:00 9.2 C 71 % 4.22 C
1290 08-02-2014 11:25:00 9.3 C 70 % 4.12 C
1291 08-02-2014 11:30:00 9.4 C 69 % 4.01 C
1292 08-02-2014 11:35:00 9.4 C 69 % 4.01 C
1293 08-02-2014 11:40:00 9.4 C 68 % 3.8 C
1294 08-02-2014 11:45:00 9.4 C 69 % 4.01 C
1295 08-02-2014 11:50:00 9.4 C 68 % 3.8 C
1296 08-02-2014 11:55:00 9.5 C 68 % 3.9 C
1297 08-02-2014 12:00:00 9.5 C 68 % 3.9 C
1298 08-02-2014 12:05:00 9.6 C 70 % 4.41 C
1299 08-02-2014 12:10:00 9.6 C 69 % 4.2 C
1300 08-02-2014 12:15:00 9.7 C 68 % 4.09 C
Sensor: Nr:Datum:Temp:Feuchte:Taupunkt:
Aussen-T/F 1301 08-02-2014 12:20:00 9.8 C 69 % 4.39 C
1302 08-02-2014 12:25:00 9.8 C 71 % 4.8 C
1303 08-02-2014 12:30:00 9.8 C 73 % 5.2 C
1304 08-02-2014 12:35:00 9.8 C 72 % 5 C
1305 08-02-2014 12:40:00 9.6 C 73 % 5.01 C
1306 08-02-2014 12:45:00 9.4 C 74 % 5.01 C
1307 08-02-2014 12:50:00 9.3 C 76 % 5.29 C
1308 08-02-2014 12:55:00 9.2 C 76 % 5.2 C
1309 08-02-2014 13:00:00 9 C 78 % 5.38 C
1310 08-02-2014 13:05:00 8.8 C 78 % 5.18 C
1311 08-02-2014 13:10:00 8.7 C 80 % 5.45 C
1312 08-02-2014 13:15:00 8.7 C 81 % 5.63 C
1313 08-02-2014 13:20:00 8.7 C 81 % 5.63 C
1314 08-02-2014 13:25:00 8.7 C 79 % 5.27 C
1315 08-02-2014 13:30:00 8.7 C 79 % 5.27 C
1316 08-02-2014 13:35:00 8.7 C 81 % 5.63 C
1317 08-02-2014 13:40:00 8.8 C 79 % 5.36 C
1318 08-02-2014 13:45:00 8.9 C 79 % 5.46 C
1319 08-02-2014 13:50:00 8.9 C 79 % 5.46 C
1320 08-02-2014 13:55:00 8.9 C 79 % 5.46 C
1321 08-02-2014 14:00:00 8.8 C 79 % 5.36 C
1322 08-02-2014 14:05:00 8.8 C 80 % 5.55 C
1323 08-02-2014 14:10:00 8.8 C 80 % 5.55 C
1324 08-02-2014 14:15:00 8.7 C 79 % 5.27 C
1325 08-02-2014 14:20:00 8.7 C 80 % 5.45 C
Sensor: Nr:Datum:Temp:Feuchte:Taupunkt:
Aussen-T/F 1326 08-02-2014 14:25:00 8.6 C 81 % 5.53 C
1327 08-02-2014 14:30:00 8.4 C 82 % 5.51 C
1328 08-02-2014 14:35:00 8.3 C 82 % 5.41 C
1329 08-02-2014 14:40:00 8.2 C 83 % 5.49 C
1330 08-02-2014 14:45:00 8.2 C 84 % 5.66 C
1331 08-02-2014 14:50:00 8.1 C 84 % 5.56 C
1332 08-02-2014 14:55:00 8 C 85 % 5.64 C
1333 08-02-2014 15:00:00 7.9 C 85 % 5.54 C
1334 08-02-2014 15:05:00 7.8 C 86 % 5.61 C
1335 08-02-2014 15:10:00 7.8 C 86 % 5.61 C
1336 08-02-2014 15:15:00 7.8 C 87 % 5.78 C
1337 08-02-2014 15:20:00 7.7 C 86 % 5.51 C
1338 08-02-2014 15:25:00 7.7 C 86 % 5.51 C
1339 08-02-2014 15:30:00 7.7 C 87 % 5.68 C
1340 08-02-2014 15:35:00 7.7 C 87 % 5.68 C
1341 08-02-2014 15:40:00 7.7 C 87 % 5.68 C
1342 08-02-2014 15:45:00 7.6 C 88 % 5.74 C
1343 08-02-2014 15:50:00 7.6 C 89 % 5.91 C
1344 08-02-2014 15:55:00 7.6 C 88 % 5.74 C
1345 08-02-2014 16:00:00 7.6 C 89 % 5.91 C
1346 08-02-2014 16:05:00 7.4 C 89 % 5.71 C
1347 08-02-2014 16:10:00 7.4 C 90 % 5.87 C
1348 08-02-2014 16:15:00 7.3 C 89 % 5.61 C
1349 08-02-2014 16:20:00 7.3 C 90 % 5.77 C
1350 08-02-2014 16:25:00 7.2 C 91 % 5.83 C
Sensor: Nr:Datum:Temp:Feuchte:Taupunkt:
Aussen-T/F 1351 08-02-2014 16:30:00 7.1 C 91 % 5.73 C
1352 08-02-2014 16:35:00 7.1 C 92 % 5.89 C
1353 08-02-2014 16:40:00 7 C 92 % 5.79 C
1354 08-02-2014 16:45:00 6.9 C 92 % 5.69 C
1355 08-02-2014 16:50:00 6.9 C 92 % 5.69 C
1356 08-02-2014 16:55:00 6.8 C 91 % 5.44 C
1357 08-02-2014 17:00:00 6.8 C 92 % 5.59 C
1358 08-02-2014 17:05:00 6.8 C 92 % 5.59 C
1359 08-02-2014 17:10:00 6.7 C 92 % 5.49 C
1360 08-02-2014 17:15:00 6.7 C 92 % 5.49 C
1361 08-02-2014 17:20:00 6.6 C 92 % 5.4 C
1362 08-02-2014 17:25:00 6.5 C 92 % 5.3 C
1363 08-02-2014 17:30:00 6.4 C 93 % 5.35 C
1364 08-02-2014 17:35:00 6.3 C 92 % 5.1 C
1365 08-02-2014 17:40:00 6.3 C 92 % 5.1 C
1366 08-02-2014 17:45:00 6.3 C 92 % 5.1 C
1367 08-02-2014 17:50:00 6.2 C 93 % 5.15 C
1368 08-02-2014 17:55:00 6.1 C 93 % 5.06 C
1369 08-02-2014 18:00:00 6 C 94 % 5.11 C
1370 08-02-2014 18:05:00 5.9 C 94 % 5.01 C
1371 08-02-2014 18:10:00 5.9 C 94 % 5.01 C
1372 08-02-2014 18:15:00 5.9 C 94 % 5.01 C
1373 08-02-2014 18:20:00 5.9 C 94 % 5.01 C
1374 08-02-2014 18:25:00 5.9 C 94 % 5.01 C
1375 08-02-2014 18:30:00 6 C 94 % 5.11 C
Sensor: Nr:Datum:Temp:Feuchte:Taupunkt:
Aussen-T/F 1376 08-02-2014 18:35:00 6 C 94 % 5.11 C
1377 08-02-2014 18:40:00 6.1 C 93 % 5.06 C
1378 08-02-2014 18:45:00 6.3 C 92 % 5.1 C
1379 08-02-2014 18:50:00 6.3 C 91 % 4.94 C
1380 08-02-2014 18:55:00 6.4 C 91 % 5.04 C
1381 08-02-2014 19:00:00 6.6 C 90 % 5.08 C
1382 08-02-2014 19:05:00 6.7 C 89 % 5.02 C
1383 08-02-2014 19:10:00 6.8 C 89 % 5.12 C
1384 08-02-2014 19:15:00 6.8 C 89 % 5.12 C
1385 08-02-2014 19:20:00 6.8 C 89 % 5.12 C
1386 08-02-2014 19:25:00 6.8 C 89 % 5.12 C
1387 08-02-2014 19:30:00 6.8 C 89 % 5.12 C
1388 08-02-2014 19:35:00 6.8 C 90 % 5.28 C
1389 08-02-2014 19:40:00 6.8 C 90 % 5.28 C
1390 08-02-2014 19:45:00 6.8 C 90 % 5.28 C
1391 08-02-2014 19:50:00 6.8 C 90 % 5.28 C
1392 08-02-2014 19:55:00 6.9 C 89 % 5.22 C
1393 08-02-2014 20:00:00 6.9 C 89 % 5.22 C
1394 08-02-2014 20:05:00 7 C 89 % 5.31 C
1395 08-02-2014 20:10:00 7.1 C 88 % 5.25 C
1396 08-02-2014 20:15:00 7.1 C 88 % 5.25 C
1397 08-02-2014 20:20:00 7.1 C 88 % 5.25 C
1398 08-02-2014 20:25:00 7.1 C 88 % 5.25 C
1399 08-02-2014 20:30:00 7.1 C 87 % 5.09 C
1400 08-02-2014 20:35:00 7.2 C 87 % 5.19 C
Sensor: Nr:Datum:Temp:Feuchte:Taupunkt:
Aussen-T/F 1401 08-02-2014 20:40:00 7.2 C 86 % 5.02 C
1402 08-02-2014 20:45:00 7.2 C 87 % 5.19 C
1403 08-02-2014 20:50:00 7.1 C 86 % 4.92 C
1404 08-02-2014 20:55:00 7.1 C 86 % 4.92 C
1405 08-02-2014 21:00:00 7.1 C 86 % 4.92 C
1406 08-02-2014 21:05:00 7.1 C 85 % 4.75 C
1407 08-02-2014 21:10:00 7.1 C 85 % 4.75 C
1408 08-02-2014 21:15:00 7.2 C 84 % 4.68 C
1409 08-02-2014 21:20:00 7.2 C 84 % 4.68 C
1410 08-02-2014 21:25:00 7.2 C 84 % 4.68 C
1411 08-02-2014 21:30:00 7.2 C 83 % 4.51 C
1412 08-02-2014 21:35:00 7.2 C 82 % 4.34 C
1413 08-02-2014 21:40:00 7.2 C 82 % 4.34 C
1414 08-02-2014 21:45:00 7.1 C 81 % 4.07 C
1415 08-02-2014 21:50:00 7.1 C 83 % 4.41 C
1416 08-02-2014 21:55:00 6.8 C 83 % 4.12 C
1417 08-02-2014 22:00:00 6.8 C 84 % 4.29 C
1418 08-02-2014 22:05:00 6.8 C 83 % 4.12 C
1419 08-02-2014 22:10:00 6.8 C 83 % 4.12 C
1420 08-02-2014 22:15:00 6.8 C 83 % 4.12 C
1421 08-02-2014 22:20:00 6.7 C 83 % 4.02 C
1422 08-02-2014 22:25:00 6.7 C 84 % 4.19 C
1423 08-02-2014 22:30:00 6.8 C 82 % 3.95 C
1424 08-02-2014 22:35:00 7.1 C 81 % 4.07 C
1425 08-02-2014 22:40:00 7.2 C 80 % 3.99 C
Sensor: Nr:Datum:Temp:Feuchte:Taupunkt:
Aussen-T/F 1426 08-02-2014 22:45:00 7.4 C 79 % 4 C
1427 08-02-2014 22:50:00 7.5 C 79 % 4.1 C
1428 08-02-2014 22:55:00 7.6 C 79 % 4.2 C
1429 08-02-2014 23:00:00 7.6 C 78 % 4.02 C
1430 08-02-2014 23:05:00 7.4 C 78 % 3.82 C
1431 08-02-2014 23:10:00 7.2 C 78 % 3.63 C
1432 08-02-2014 23:15:00 7 C 79 % 3.61 C
1433 08-02-2014 23:20:00 6.9 C 79 % 3.52 C
1434 08-02-2014 23:25:00 6.9 C 79 % 3.52 C
1435 08-02-2014 23:30:00 6.8 C 79 % 3.42 C
1436 08-02-2014 23:35:00 6.8 C 78 % 3.24 C
1437 08-02-2014 23:40:00 6.8 C 78 % 3.24 C
1438 08-02-2014 23:45:00 6.9 C 78 % 3.34 C
1439 08-02-2014 23:50:00 6.8 C 78 % 3.24 C
1440 08-02-2014 23:55:00 6.7 C 78 % 3.14 C
1441 09-02-2014 00:00:00 6.7 C 78 % 3.14 C
1442 09-02-2014 00:05:00 6.7 C 78 % 3.14 C
1443 09-02-2014 00:10:00 6.7 C 78 % 3.14 C
1444 09-02-2014 00:15:00 6.8 C 77 % 3.06 C
1445 09-02-2014 00:20:00 7 C 76 % 3.07 C
1446 09-02-2014 00:25:00 7.2 C 77 % 3.45 C
1447 09-02-2014 00:30:00 6.8 C 81 % 3.77 C
1448 09-02-2014 00:35:00 6.3 C 83 % 3.63 C
1449 09-02-2014 00:40:00 5.9 C 84 % 3.41 C
1450 09-02-2014 00:45:00 5.6 C 85 % 3.28 C
Sensor: Nr:Datum:Temp:Feuchte:Taupunkt:
Aussen-T/F 1451 09-02-2014 00:50:00 5.4 C 86 % 3.25 C
1452 09-02-2014 00:55:00 5.2 C 87 % 3.22 C
1453 09-02-2014 01:00:00 4.9 C 87 % 2.92 C
1454 09-02-2014 01:05:00 4.8 C 88 % 2.99 C
1455 09-02-2014 01:10:00 4.8 C 88 % 2.99 C
1456 09-02-2014 01:15:00 4.7 C 88 % 2.89 C
1457 09-02-2014 01:20:00 4.6 C 88 % 2.79 C
1458 09-02-2014 01:25:00 4.6 C 89 % 2.95 C
1459 09-02-2014 01:30:00 4.5 C 89 % 2.85 C
1460 09-02-2014 01:35:00 4.4 C 89 % 2.75 C
1461 09-02-2014 01:40:00 4.2 C 90 % 2.71 C
1462 09-02-2014 01:45:00 4.1 C 90 % 2.61 C
1463 09-02-2014 01:50:00 3.9 C 90 % 2.41 C
1464 09-02-2014 01:55:00 3.8 C 91 % 2.47 C
1465 09-02-2014 02:00:00 3.9 C 91 % 2.57 C
1466 09-02-2014 02:05:00 4 C 90 % 2.51 C
1467 09-02-2014 02:10:00 4 C 90 % 2.51 C
1468 09-02-2014 02:15:00 4.1 C 89 % 2.45 C
1469 09-02-2014 02:20:00 4.2 C 89 % 2.55 C
1470 09-02-2014 02:25:00 4.3 C 88 % 2.49 C
1471 09-02-2014 02:30:00 4.4 C 88 % 2.59 C
1472 09-02-2014 02:35:00 4.5 C 88 % 2.69 C
1473 09-02-2014 02:40:00 4.7 C 87 % 2.73 C
1474 09-02-2014 02:45:00 4.8 C 86 % 2.66 C
1475 09-02-2014 02:50:00 5.1 C 84 % 2.63 C
Sensor: Nr:Datum:Temp:Feuchte:Taupunkt:
Aussen-T/F 1476 09-02-2014 02:55:00 5.3 C 83 % 2.65 C
1477 09-02-2014 03:00:00 5.4 C 83 % 2.75 C
1478 09-02-2014 03:05:00 5.6 C 82 % 2.78 C
1479 09-02-2014 03:10:00 5.6 C 82 % 2.78 C
1480 09-02-2014 03:15:00 5.7 C 81 % 2.7 C
1481 09-02-2014 03:20:00 5.8 C 81 % 2.8 C
1482 09-02-2014 03:25:00 5.8 C 81 % 2.8 C
1483 09-02-2014 03:30:00 5.9 C 81 % 2.9 C
1484 09-02-2014 03:35:00 5.9 C 81 % 2.9 C
1485 09-02-2014 03:40:00 5.8 C 81 % 2.8 C
1486 09-02-2014 03:45:00 5.9 C 80 % 2.72 C
1487 09-02-2014 03:50:00 5.8 C 81 % 2.8 C
1488 09-02-2014 03:55:00 5.8 C 81 % 2.8 C
1489 09-02-2014 04:00:00 5.7 C 81 % 2.7 C
1490 09-02-2014 04:05:00 5.7 C 82 % 2.87 C
1491 09-02-2014 04:10:00 5.8 C 81 % 2.8 C
1492 09-02-2014 04:15:00 5.9 C 81 % 2.9 C
1493 09-02-2014 04:20:00 5.9 C 81 % 2.9 C
1494 09-02-2014 04:25:00 5.8 C 82 % 2.97 C
1495 09-02-2014 04:30:00 5.8 C 82 % 2.97 C
1496 09-02-2014 04:35:00 5.7 C 82 % 2.87 C
1497 09-02-2014 04:40:00 5.8 C 81 % 2.8 C
1498 09-02-2014 04:45:00 5.8 C 82 % 2.97 C
1499 09-02-2014 04:50:00 5.8 C 82 % 2.97 C
1500 09-02-2014 04:55:00 5.8 C 82 % 2.97 C
Sensor: Nr:Datum:Temp:Feuchte:Taupunkt:
Aussen-T/F 1501 09-02-2014 05:00:00 5.8 C 82 % 2.97 C
1502 09-02-2014 05:05:00 5.8 C 82 % 2.97 C
1503 09-02-2014 05:10:00 5.8 C 82 % 2.97 C
1504 09-02-2014 05:15:00 5.9 C 82 % 3.07 C
1505 09-02-2014 05:20:00 6 C 81 % 2.99 C
1506 09-02-2014 05:25:00 6 C 82 % 3.17 C
1507 09-02-2014 05:30:00 6 C 81 % 2.99 C
1508 09-02-2014 05:35:00 6 C 81 % 2.99 C
1509 09-02-2014 05:40:00 5.9 C 81 % 2.9 C
1510 09-02-2014 05:45:00 5.9 C 81 % 2.9 C
1511 09-02-2014 05:50:00 5.9 C 81 % 2.9 C
1512 09-02-2014 05:55:00 6 C 81 % 2.99 C
1513 09-02-2014 06:00:00 6 C 81 % 2.99 C
1514 09-02-2014 06:05:00 5.9 C 81 % 2.9 C
1515 09-02-2014 06:10:00 5.9 C 82 % 3.07 C
1516 09-02-2014 06:15:00 5.8 C 82 % 2.97 C
1517 09-02-2014 06:20:00 5.7 C 83 % 3.04 C
1518 09-02-2014 06:25:00 5.7 C 83 % 3.04 C
1519 09-02-2014 06:30:00 5.7 C 82 % 2.87 C
1520 09-02-2014 06:35:00 5.7 C 83 % 3.04 C
1521 09-02-2014 06:40:00 5.6 C 83 % 2.95 C
1522 09-02-2014 06:45:00 5.4 C 83 % 2.75 C
1523 09-02-2014 06:50:00 5.4 C 83 % 2.75 C
1524 09-02-2014 06:55:00 5.4 C 83 % 2.75 C
1525 09-02-2014 07:00:00 5.4 C 83 % 2.75 C
Sensor: Nr:Datum:Temp:Feuchte:Taupunkt:
Aussen-T/F 1526 09-02-2014 07:05:00 5.6 C 83 % 2.95 C
1527 09-02-2014 07:10:00 5.6 C 83 % 2.95 C
1528 09-02-2014 07:15:00 5.7 C 83 % 3.04 C
1529 09-02-2014 07:20:00 5.7 C 83 % 3.04 C
1530 09-02-2014 07:25:00 5.7 C 81 % 2.7 C
1531 09-02-2014 07:30:00 5.7 C 81 % 2.7 C
1532 09-02-2014 07:35:00 5.7 C 81 % 2.7 C
1533 09-02-2014 07:40:00 5.7 C 81 % 2.7 C
1534 09-02-2014 07:45:00 5.7 C 81 % 2.7 C
1535 09-02-2014 07:50:00 5.7 C 81 % 2.7 C
1536 09-02-2014 07:55:00 5.6 C 81 % 2.6 C
1537 09-02-2014 08:00:00 5.6 C 82 % 2.78 C
1538 09-02-2014 08:05:00 5.6 C 82 % 2.78 C
1539 09-02-2014 08:10:00 5.6 C 81 % 2.6 C
1540 09-02-2014 08:15:00 5.7 C 81 % 2.7 C
1541 09-02-2014 08:20:00 5.7 C 81 % 2.7 C
1542 09-02-2014 08:25:00 5.8 C 81 % 2.8 C
1543 09-02-2014 08:30:00 5.8 C 82 % 2.97 C
1544 09-02-2014 08:35:00 5.8 C 81 % 2.8 C
1545 09-02-2014 08:40:00 5.7 C 81 % 2.7 C
1546 09-02-2014 08:45:00 5.8 C 81 % 2.8 C
1547 09-02-2014 08:50:00 5.8 C 80 % 2.62 C
1548 09-02-2014 08:55:00 5.8 C 80 % 2.62 C
1549 09-02-2014 09:00:00 5.8 C 80 % 2.62 C
1550 09-02-2014 09:05:00 5.8 C 80 % 2.62 C
Sensor: Nr:Datum:Temp:Feuchte:Taupunkt:
Aussen-T/F 1551 09-02-2014 09:10:00 5.9 C 79 % 2.54 C
1552 09-02-2014 09:15:00 5.9 C 79 % 2.54 C
1553 09-02-2014 09:20:00 6 C 79 % 2.64 C
1554 09-02-2014 09:25:00 6 C 79 % 2.64 C
1555 09-02-2014 09:30:00 5.9 C 80 % 2.72 C
1556 09-02-2014 09:35:00 5.9 C 81 % 2.9 C
1557 09-02-2014 09:40:00 5.9 C 81 % 2.9 C
1558 09-02-2014 09:45:00 5.9 C 81 % 2.9 C
1559 09-02-2014 09:50:00 5.9 C 82 % 3.07 C
1560 09-02-2014 09:55:00 5.9 C 81 % 2.9 C
1561 09-02-2014 10:00:00 5.8 C 81 % 2.8 C
1562 09-02-2014 10:05:00 5.8 C 80 % 2.62 C
1563 09-02-2014 10:10:00 5.9 C 80 % 2.72 C
1564 09-02-2014 10:15:00 6 C 80 % 2.82 C
1565 09-02-2014 10:20:00 6.2 C 79 % 2.84 C
1566 09-02-2014 10:25:00 6.3 C 78 % 2.75 C
1567 09-02-2014 10:30:00 6.4 C 78 % 2.85 C
1568 09-02-2014 10:35:00 6.6 C 76 % 2.68 C
1569 09-02-2014 10:40:00 6.7 C 76 % 2.78 C
1570 09-02-2014 10:45:00 6.7 C 76 % 2.78 C
1571 09-02-2014 10:50:00 6.7 C 77 % 2.96 C
1572 09-02-2014 10:55:00 6.6 C 77 % 2.86 C
1573 09-02-2014 11:00:00 6.4 C 77 % 2.67 C
1574 09-02-2014 11:05:00 6.4 C 77 % 2.67 C
1575 09-02-2014 11:10:00 6.6 C 78 % 3.05 C
Sensor: Nr:Datum:Temp:Feuchte:Taupunkt:
Aussen-T/F 1576 09-02-2014 11:15:00 6.6 C 78 % 3.05 C
1577 09-02-2014 11:20:00 6.5 C 78 % 2.95 C
1578 09-02-2014 11:25:00 6.6 C 79 % 3.23 C
1579 09-02-2014 11:30:00 6.6 C 78 % 3.05 C
1580 09-02-2014 11:35:00 6.6 C 78 % 3.05 C
1581 09-02-2014 11:40:00 6.6 C 78 % 3.05 C
1582 09-02-2014 11:45:00 6.5 C 76 % 2.58 C
1583 09-02-2014 11:50:00 6.7 C 76 % 2.78 C
1584 09-02-2014 11:55:00 6.8 C 76 % 2.87 C
1585 09-02-2014 12:00:00 6.9 C 75 % 2.78 C
1586 09-02-2014 12:05:00 6.9 C 74 % 2.6 C
1587 09-02-2014 12:10:00 7 C 74 % 2.69 C
1588 09-02-2014 12:15:00 7.1 C 75 % 2.98 C
1589 09-02-2014 12:20:00 7 C 74 % 2.69 C
1590 09-02-2014 12:25:00 6.9 C 75 % 2.78 C
1591 09-02-2014 12:30:00 6.9 C 74 % 2.6 C
1592 09-02-2014 12:35:00 7.1 C 73 % 2.6 C
1593 09-02-2014 12:40:00 7.3 C 72 % 2.6 C
1594 09-02-2014 12:45:00 7.5 C 71 % 2.59 C
1595 09-02-2014 12:50:00 7.6 C 69 % 2.29 C
1596 09-02-2014 12:55:00 7.7 C 68 % 2.18 C
1597 09-02-2014 13:00:00 7.7 C 69 % 2.38 C
1598 09-02-2014 13:05:00 7.7 C 70 % 2.58 C
1599 09-02-2014 13:10:00 7.7 C 69 % 2.38 C
1600 09-02-2014 13:15:00 7.8 C 69 % 2.48 C
Sensor: Nr:Datum:Temp:Feuchte:Taupunkt:
Aussen-T/F 1601 09-02-2014 13:20:00 7.8 C 68 % 2.27 C
1602 09-02-2014 13:25:00 7.9 C 66 % 1.95 C
1603 09-02-2014 13:30:00 7.8 C 66 % 1.86 C
1604 09-02-2014 13:35:00 7.8 C 67 % 2.07 C
1605 09-02-2014 13:40:00 7.8 C 67 % 2.07 C
1606 09-02-2014 13:45:00 7.7 C 69 % 2.38 C
1607 09-02-2014 13:50:00 7.5 C 70 % 2.39 C
1608 09-02-2014 13:55:00 7.5 C 70 % 2.39 C
1609 09-02-2014 14:00:00 7.5 C 70 % 2.39 C
1610 09-02-2014 14:05:00 7.3 C 71 % 2.4 C
1611 09-02-2014 14:10:00 6.9 C 74 % 2.6 C
1612 09-02-2014 14:15:00 6.8 C 75 % 2.69 C
1613 09-02-2014 14:20:00 6.8 C 75 % 2.69 C
1614 09-02-2014 14:25:00 6.8 C 76 % 2.87 C
1615 09-02-2014 14:30:00 6.8 C 76 % 2.87 C
1616 09-02-2014 14:35:00 6.8 C 78 % 3.24 C
1617 09-02-2014 14:40:00 6.7 C 79 % 3.32 C
1618 09-02-2014 14:45:00 6.7 C 77 % 2.96 C
1619 09-02-2014 14:50:00 6.7 C 78 % 3.14 C
1620 09-02-2014 14:55:00 6.7 C 77 % 2.96 C
1621 09-02-2014 15:00:00 6.8 C 75 % 2.69 C
1622 09-02-2014 15:05:00 6.9 C 73 % 2.4 C
1623 09-02-2014 15:10:00 7 C 72 % 2.31 C
1624 09-02-2014 15:15:00 7.3 C 71 % 2.4 C
1625 09-02-2014 15:20:00 7.6 C 69 % 2.29 C
Sensor: Nr:Datum:Temp:Feuchte:Taupunkt:
Aussen-T/F 1626 09-02-2014 15:25:00 7.7 C 67 % 1.97 C
1627 09-02-2014 15:30:00 7.7 C 68 % 2.18 C
1628 09-02-2014 15:35:00 7.7 C 68 % 2.18 C
1629 09-02-2014 15:40:00 7.6 C 69 % 2.29 C
1630 09-02-2014 15:45:00 7.4 C 69 % 2.1 C
1631 09-02-2014 15:50:00 7.1 C 70 % 2.01 C
1632 09-02-2014 15:55:00 7 C 71 % 2.11 C
1633 09-02-2014 16:00:00 6.9 C 71 % 2.02 C
1634 09-02-2014 16:05:00 6.9 C 71 % 2.02 C
1635 09-02-2014 16:10:00 6.9 C 70 % 1.82 C
1636 09-02-2014 16:15:00 6.9 C 71 % 2.02 C
1637 09-02-2014 16:20:00 6.9 C 70 % 1.82 C
1638 09-02-2014 16:25:00 6.8 C 71 % 1.92 C
1639 09-02-2014 16:30:00 6.8 C 71 % 1.92 C
1640 09-02-2014 16:35:00 6.8 C 71 % 1.92 C
1641 09-02-2014 16:40:00 6.7 C 71 % 1.82 C
1642 09-02-2014 16:45:00 6.7 C 71 % 1.82 C
1643 09-02-2014 16:50:00 6.7 C 72 % 2.02 C
1644 09-02-2014 16:55:00 6.7 C 71 % 1.82 C
1645 09-02-2014 17:00:00 6.7 C 70 % 1.63 C
1646 09-02-2014 17:05:00 6.7 C 70 % 1.63 C
1647 09-02-2014 17:10:00 6.5 C 71 % 1.63 C
1648 09-02-2014 17:15:00 6.4 C 72 % 1.73 C
1649 09-02-2014 17:20:00 6.4 C 71 % 1.54 C
1650 09-02-2014 17:25:00 6.4 C 71 % 1.54 C
Sensor: Nr:Datum:Temp:Feuchte:Taupunkt:
Aussen-T/F 1651 09-02-2014 17:30:00 6.4 C 72 % 1.73 C
1652 09-02-2014 17:35:00 6.3 C 73 % 1.83 C
1653 09-02-2014 17:40:00 6.1 C 74 % 1.82 C
1654 09-02-2014 17:45:00 5.8 C 74 % 1.53 C
1655 09-02-2014 17:50:00 5.7 C 74 % 1.44 C
1656 09-02-2014 17:55:00 5.7 C 74 % 1.44 C
1657 09-02-2014 18:00:00 5.6 C 75 % 1.53 C
1658 09-02-2014 18:05:00 5.2 C 77 % 1.51 C
1659 09-02-2014 18:10:00 4.7 C 79 % 1.38 C
1660 09-02-2014 18:15:00 4.4 C 80 % 1.26 C
1661 09-02-2014 18:20:00 4.3 C 81 % 1.34 C
1662 09-02-2014 18:25:00 4.1 C 82 % 1.31 C
1663 09-02-2014 18:30:00 3.9 C 83 % 1.28 C
1664 09-02-2014 18:35:00 3.8 C 83 % 1.19 C
1665 09-02-2014 18:40:00 3.6 C 84 % 1.16 C
1666 09-02-2014 18:45:00 3.4 C 85 % 1.12 C
1667 09-02-2014 18:50:00 3.4 C 86 % 1.29 C
1668 09-02-2014 18:55:00 3.6 C 86 % 1.48 C
1669 09-02-2014 19:00:00 3.9 C 86 % 1.78 C
1670 09-02-2014 19:05:00 3.9 C 86 % 1.78 C
1671 09-02-2014 19:10:00 3.9 C 85 % 1.61 C
1672 09-02-2014 19:15:00 3.9 C 85 % 1.61 C
1673 09-02-2014 19:20:00 4 C 85 % 1.71 C
1674 09-02-2014 19:25:00 4.1 C 84 % 1.65 C
1675 09-02-2014 19:30:00 4.2 C 83 % 1.58 C
Sensor: Nr:Datum:Temp:Feuchte:Taupunkt:
Aussen-T/F 1676 09-02-2014 19:35:00 4.1 C 84 % 1.65 C
1677 09-02-2014 19:40:00 3.7 C 85 % 1.42 C
1678 09-02-2014 19:45:00 3.6 C 85 % 1.32 C
1679 09-02-2014 19:50:00 3.5 C 86 % 1.38 C
1680 09-02-2014 19:55:00 3.3 C 87 % 1.35 C
1681 09-02-2014 20:00:00 3.2 C 87 % 1.25 C
1682 09-02-2014 20:05:00 3.2 C 87 % 1.25 C
1683 09-02-2014 20:10:00 3.1 C 87 % 1.15 C
1684 09-02-2014 20:15:00 2.8 C 88 % 1.02 C
1685 09-02-2014 20:20:00 2.7 C 88 % 0.92 C
1686 09-02-2014 20:25:00 2.6 C 89 % 0.97 C
1687 09-02-2014 20:30:00 2.5 C 89 % 0.88 C
1688 09-02-2014 20:35:00 2.6 C 89 % 0.97 C
1689 09-02-2014 20:40:00 2.6 C 89 % 0.97 C
1690 09-02-2014 20:45:00 2.6 C 90 % 1.13 C
1691 09-02-2014 20:50:00 2.7 C 90 % 1.23 C
1692 09-02-2014 20:55:00 2.7 C 89 % 1.07 C
1693 09-02-2014 21:00:00 2.7 C 89 % 1.07 C
1694 09-02-2014 21:05:00 2.7 C 89 % 1.07 C
1695 09-02-2014 21:10:00 2.7 C 90 % 1.23 C
1696 09-02-2014 21:15:00 2.7 C 90 % 1.23 C
1697 09-02-2014 21:20:00 2.7 C 90 % 1.23 C
1698 09-02-2014 21:25:00 2.7 C 90 % 1.23 C
1699 09-02-2014 21:30:00 2.7 C 90 % 1.23 C
1700 09-02-2014 21:35:00 2.7 C 90 % 1.23 C
Sensor: Nr:Datum:Temp:Feuchte:Taupunkt:
Aussen-T/F 1701 09-02-2014 21:40:00 2.7 C 90 % 1.23 C
1702 09-02-2014 21:45:00 2.7 C 90 % 1.23 C
1703 09-02-2014 21:50:00 2.7 C 90 % 1.23 C
1704 09-02-2014 21:55:00 2.7 C 91 % 1.38 C
1705 09-02-2014 22:00:00 2.7 C 90 % 1.23 C
1706 09-02-2014 22:05:00 2.5 C 90 % 1.03 C
1707 09-02-2014 22:10:00 2.4 C 91 % 1.08 C
1708 09-02-2014 22:15:00 2.4 C 91 % 1.08 C
1709 09-02-2014 22:20:00 2.3 C 92 % 1.14 C
1710 09-02-2014 22:25:00 2.3 C 92 % 1.14 C
1711 09-02-2014 22:30:00 2.3 C 92 % 1.14 C
1712 09-02-2014 22:35:00 2.2 C 92 % 1.04 C
1713 09-02-2014 22:40:00 2.2 C 92 % 1.04 C
1714 09-02-2014 22:45:00 2.2 C 92 % 1.04 C
1715 09-02-2014 22:50:00 2.2 C 92 % 1.04 C
1716 09-02-2014 22:55:00 2.2 C 92 % 1.04 C
1717 09-02-2014 23:00:00 2 C 92 % 0.84 C
1718 09-02-2014 23:05:00 1.9 C 92 % 0.74 C
1719 09-02-2014 23:10:00 1.9 C 93 % 0.89 C
1720 09-02-2014 23:15:00 1.9 C 93 % 0.89 C
1721 09-02-2014 23:20:00 1.8 C 93 % 0.79 C
1722 09-02-2014 23:25:00 1.8 C 93 % 0.79 C
1723 09-02-2014 23:30:00 1.7 C 93 % 0.69 C
1724 09-02-2014 23:35:00 1.7 C 93 % 0.69 C
1725 09-02-2014 23:40:00 1.7 C 93 % 0.69 C
Sensor: Nr:Datum:Temp:Feuchte:Taupunkt:
Aussen-T/F 1726 09-02-2014 23:45:00 1.6 C 93 % 0.59 C
1727 09-02-2014 23:50:00 1.6 C 93 % 0.59 C
1728 09-02-2014 23:55:00 1.5 C 93 % 0.49 C
1729 10-02-2014 00:00:00 1.5 C 93 % 0.49 C
1730 10-02-2014 00:05:00 1.5 C 93 % 0.49 C
1731 10-02-2014 00:10:00 1.5 C 94 % 0.64 C
1732 10-02-2014 00:15:00 1.6 C 94 % 0.74 C
1733 10-02-2014 00:20:00 1.5 C 94 % 0.64 C
1734 10-02-2014 00:25:00 1.4 C 93 % 0.4 C
1735 10-02-2014 00:30:00 1.4 C 93 % 0.4 C
1736 10-02-2014 00:35:00 1.3 C 94 % 0.44 C
1737 10-02-2014 00:40:00 1.3 C 94 % 0.44 C
1738 10-02-2014 00:45:00 1.3 C 94 % 0.44 C
1739 10-02-2014 00:50:00 1.4 C 94 % 0.54 C
1740 10-02-2014 00:55:00 1.4 C 94 % 0.54 C
1741 10-02-2014 01:00:00 1.4 C 94 % 0.54 C
1742 10-02-2014 01:05:00 1.4 C 94 % 0.54 C
1743 10-02-2014 01:10:00 1.3 C 94 % 0.44 C
1744 10-02-2014 01:15:00 1.2 C 94 % 0.34 C
1745 10-02-2014 01:20:00 1.2 C 93 % 0.2 C
1746 10-02-2014 01:25:00 1.2 C 94 % 0.34 C
1747 10-02-2014 01:30:00 1.1 C 94 % 0.24 C
1748 10-02-2014 01:35:00 1 C 94 % 0.15 C
1749 10-02-2014 01:40:00 1 C 94 % 0.15 C
1750 10-02-2014 01:45:00 1.1 C 94 % 0.24 C
Sensor: Nr:Datum:Temp:Feuchte:Taupunkt:
Aussen-T/F 1751 10-02-2014 01:50:00 1.1 C 94 % 0.24 C
1752 10-02-2014 01:55:00 1.1 C 94 % 0.24 C
1753 10-02-2014 02:00:00 1 C 94 % 0.15 C
1754 10-02-2014 02:05:00 0.9 C 94 % 0.05 C
1755 10-02-2014 02:10:00 0.8 C 94 % -0.05 C
1756 10-02-2014 02:15:00 0.8 C 94 % -0.05 C
1757 10-02-2014 02:20:00 0.8 C 94 % -0.05 C
1758 10-02-2014 02:25:00 0.8 C 94 % -0.05 C
1759 10-02-2014 02:30:00 0.8 C 94 % -0.05 C
1760 10-02-2014 02:35:00 0.9 C 95 % 0.19 C
1761 10-02-2014 02:40:00 1.2 C 95 % 0.49 C
1762 10-02-2014 02:45:00 1.6 C 95 % 0.89 C
1763 10-02-2014 02:50:00 1.9 C 94 % 1.04 C
1764 10-02-2014 02:55:00 2.3 C 93 % 1.29 C
1765 10-02-2014 03:00:00 2.6 C 92 % 1.43 C
1766 10-02-2014 03:05:00 2.8 C 90 % 1.33 C
1767 10-02-2014 03:10:00 2.9 C 89 % 1.27 C
1768 10-02-2014 03:15:00 3 C 89 % 1.37 C
1769 10-02-2014 03:20:00 3 C 89 % 1.37 C
1770 10-02-2014 03:25:00 3 C 88 % 1.21 C
1771 10-02-2014 03:30:00 3 C 88 % 1.21 C
1772 10-02-2014 03:35:00 2.9 C 88 % 1.11 C
1773 10-02-2014 03:40:00 2.8 C 88 % 1.02 C
1774 10-02-2014 03:45:00 2.8 C 89 % 1.17 C
1775 10-02-2014 03:50:00 2.7 C 88 % 0.92 C
Sensor: Nr:Datum:Temp:Feuchte:Taupunkt:
Aussen-T/F 1776 10-02-2014 03:55:00 2.6 C 89 % 0.97 C
1777 10-02-2014 04:00:00 2.4 C 89 % 0.78 C
1778 10-02-2014 04:05:00 2.2 C 89 % 0.58 C
1779 10-02-2014 04:10:00 1.9 C 89 % 0.28 C
1780 10-02-2014 04:15:00 1.7 C 90 % 0.24 C
1781 10-02-2014 04:20:00 1.5 C 91 % 0.19 C
1782 10-02-2014 04:25:00 1.3 C 92 % 0.15 C
1783 10-02-2014 04:30:00 1.2 C 92 % 0.05 C
1784 10-02-2014 04:35:00 1.2 C 93 % 0.2 C
1785 10-02-2014 04:40:00 1.2 C 93 % 0.2 C
1786 10-02-2014 04:45:00 1.2 C 93 % 0.2 C
1787 10-02-2014 04:50:00 1.2 C 93 % 0.2 C
1788 10-02-2014 04:55:00 1.1 C 93 % 0.1 C
1789 10-02-2014 05:00:00 1.1 C 93 % 0.1 C
1790 10-02-2014 05:05:00 1.1 C 94 % 0.24 C
1791 10-02-2014 05:10:00 1.2 C 94 % 0.34 C
1792 10-02-2014 05:15:00 1.3 C 94 % 0.44 C
1793 10-02-2014 05:20:00 1.3 C 93 % 0.3 C
1794 10-02-2014 05:25:00 1.4 C 94 % 0.54 C
1795 10-02-2014 05:30:00 1.6 C 93 % 0.59 C
1796 10-02-2014 05:35:00 1.9 C 93 % 0.89 C
1797 10-02-2014 05:40:00 2.3 C 92 % 1.14 C
1798 10-02-2014 05:45:00 2.6 C 90 % 1.13 C
1799 10-02-2014 05:50:00 2.7 C 89 % 1.07 C
1800 10-02-2014 05:55:00 2.8 C 88 % 1.02 C
Sensor: Nr:Datum:Temp:Feuchte:Taupunkt:
Aussen-T/F 1801 10-02-2014 06:00:00 2.9 C 87 % 0.96 C
1802 10-02-2014 06:05:00 3 C 87 % 1.05 C
1803 10-02-2014 06:10:00 3.1 C 86 % 0.99 C
1804 10-02-2014 06:15:00 3.1 C 86 % 0.99 C
1805 10-02-2014 06:20:00 3.2 C 85 % 0.93 C
1806 10-02-2014 06:25:00 3.3 C 85 % 1.03 C
1807 10-02-2014 06:30:00 3.2 C 85 % 0.93 C
1808 10-02-2014 06:35:00 3.2 C 85 % 0.93 C
1809 10-02-2014 06:40:00 3.2 C 85 % 0.93 C
1810 10-02-2014 06:45:00 3.1 C 86 % 0.99 C
1811 10-02-2014 06:50:00 2.8 C 87 % 0.86 C
1812 10-02-2014 06:55:00 2.6 C 88 % 0.82 C
1813 10-02-2014 07:00:00 2.6 C 88 % 0.82 C
1814 10-02-2014 07:05:00 2.4 C 89 % 0.78 C
1815 10-02-2014 07:10:00 2.3 C 89 % 0.68 C
1816 10-02-2014 07:15:00 2.3 C 89 % 0.68 C
1817 10-02-2014 07:20:00 2.2 C 90 % 0.73 C
1818 10-02-2014 07:25:00 2.2 C 90 % 0.73 C
1819 10-02-2014 07:30:00 2.2 C 90 % 0.73 C
1820 10-02-2014 07:35:00 2.2 C 90 % 0.73 C
1821 10-02-2014 07:40:00 2.2 C 90 % 0.73 C
1822 10-02-2014 07:45:00 2.1 C 90 % 0.64 C
1823 10-02-2014 07:50:00 2.1 C 90 % 0.64 C
1824 10-02-2014 07:55:00 2.1 C 90 % 0.64 C
1825 10-02-2014 08:00:00 2.1 C 90 % 0.64 C
Sensor: Nr:Datum:Temp:Feuchte:Taupunkt:
Aussen-T/F 1826 10-02-2014 08:05:00 2.1 C 90 % 0.64 C
1827 10-02-2014 08:10:00 1.9 C 90 % 0.44 C
1828 10-02-2014 08:15:00 1.9 C 91 % 0.59 C
1829 10-02-2014 08:20:00 1.8 C 91 % 0.49 C
1830 10-02-2014 08:25:00 1.8 C 91 % 0.49 C
1831 10-02-2014 08:30:00 1.8 C 92 % 0.64 C
1832 10-02-2014 08:35:00 1.9 C 92 % 0.74 C
1833 10-02-2014 08:40:00 1.9 C 92 % 0.74 C
1834 10-02-2014 08:45:00 1.9 C 92 % 0.74 C
1835 10-02-2014 08:50:00 1.9 C 92 % 0.74 C
1836 10-02-2014 08:55:00 2 C 92 % 0.84 C
1837 10-02-2014 09:00:00 2.1 C 92 % 0.94 C
1838 10-02-2014 09:05:00 2.1 C 92 % 0.94 C
1839 10-02-2014 09:10:00 2.2 C 92 % 1.04 C
1840 10-02-2014 09:15:00 2.2 C 92 % 1.04 C
1841 10-02-2014 09:20:00 2.3 C 91 % 0.99 C
1842 10-02-2014 09:25:00 2.3 C 91 % 0.99 C
1843 10-02-2014 09:30:00 2.3 C 91 % 0.99 C
1844 10-02-2014 09:35:00 2.4 C 91 % 1.08 C
1845 10-02-2014 09:40:00 2.4 C 91 % 1.08 C
1846 10-02-2014 09:45:00 2.4 C 91 % 1.08 C
1847 10-02-2014 09:50:00 2.5 C 91 % 1.18 C
1848 10-02-2014 09:55:00 2.6 C 90 % 1.13 C
1849 10-02-2014 10:00:00 2.8 C 90 % 1.33 C
1850 10-02-2014 10:05:00 2.9 C 89 % 1.27 C
Sensor: Nr:Datum:Temp:Feuchte:Taupunkt:
Aussen-T/F 1851 10-02-2014 10:10:00 3.1 C 89 % 1.47 C
1852 10-02-2014 10:15:00 3.2 C 87 % 1.25 C
1853 10-02-2014 10:20:00 3.4 C 86 % 1.29 C
1854 10-02-2014 10:25:00 3.6 C 85 % 1.32 C
1855 10-02-2014 10:30:00 3.8 C 84 % 1.35 C
1856 10-02-2014 10:35:00 4.1 C 84 % 1.65 C
1857 10-02-2014 10:40:00 4.3 C 83 % 1.67 C
1858 10-02-2014 10:45:00 4.6 C 81 % 1.63 C
1859 10-02-2014 10:50:00 4.8 C 80 % 1.65 C
1860 10-02-2014 10:55:00 5.1 C 79 % 1.77 C
1861 10-02-2014 11:00:00 5.2 C 78 % 1.69 C
1862 10-02-2014 11:05:00 5.4 C 77 % 1.7 C
1863 10-02-2014 11:10:00 5.6 C 76 % 1.71 C
1864 10-02-2014 11:15:00 5.8 C 75 % 1.72 C
1865 10-02-2014 11:20:00 5.9 C 74 % 1.63 C
1866 10-02-2014 11:25:00 6.1 C 74 % 1.82 C
1867 10-02-2014 11:30:00 6.1 C 72 % 1.44 C
1868 10-02-2014 11:35:00 6.2 C 72 % 1.54 C
1869 10-02-2014 11:40:00 6.3 C 72 % 1.63 C
1870 10-02-2014 11:45:00 6.3 C 70 % 1.24 C
1871 10-02-2014 11:50:00 6.3 C 70 % 1.24 C
1872 10-02-2014 11:55:00 6.3 C 69 % 1.04 C
1873 10-02-2014 12:00:00 6.4 C 68 % 0.94 C
1874 10-02-2014 12:05:00 6.4 C 67 % 0.73 C
1875 10-02-2014 12:10:00 6.4 C 67 % 0.73 C
Sensor: Nr:Datum:Temp:Feuchte:Taupunkt:
Aussen-T/F 1876 10-02-2014 12:15:00 6.4 C 68 % 0.94 C
1877 10-02-2014 12:20:00 6.5 C 65 % 0.41 C
1878 10-02-2014 12:25:00 6.5 C 66 % 0.62 C
1879 10-02-2014 12:30:00 6.5 C 65 % 0.41 C
1880 10-02-2014 12:35:00 6.5 C 64 % 0.19 C
1881 10-02-2014 12:40:00 6.6 C 64 % 0.29 C
1882 10-02-2014 12:45:00 6.6 C 65 % 0.5 C
1883 10-02-2014 12:50:00 6.6 C 64 % 0.29 C
1884 10-02-2014 12:55:00 6.6 C 65 % 0.5 C
1885 10-02-2014 13:00:00 6.6 C 64 % 0.29 C
1886 10-02-2014 13:05:00 6.7 C 64 % 0.38 C
1887 10-02-2014 13:10:00 6.7 C 64 % 0.38 C
1888 10-02-2014 13:15:00 6.7 C 65 % 0.6 C
1889 10-02-2014 13:20:00 6.7 C 63 % 0.17 C
1890 10-02-2014 13:25:00 6.6 C 65 % 0.5 C
1891 10-02-2014 13:30:00 6.6 C 64 % 0.29 C
1892 10-02-2014 13:35:00 6.6 C 64 % 0.29 C
1893 10-02-2014 13:40:00 6.7 C 64 % 0.38 C
1894 10-02-2014 13:45:00 6.7 C 64 % 0.38 C
1895 10-02-2014 13:50:00 6.7 C 63 % 0.17 C
1896 10-02-2014 13:55:00 6.7 C 64 % 0.38 C
1897 10-02-2014 14:00:00 6.7 C 64 % 0.38 C
1898 10-02-2014 14:05:00 6.7 C 64 % 0.38 C
1899 10-02-2014 14:10:00 6.8 C 64 % 0.48 C
1900 10-02-2014 14:15:00 6.8 C 64 % 0.48 C
Sensor: Nr:Datum:Temp:Feuchte:Taupunkt:
Aussen-T/F 1901 10-02-2014 14:20:00 6.8 C 64 % 0.48 C
1902 10-02-2014 14:25:00 6.8 C 64 % 0.48 C
1903 10-02-2014 14:30:00 6.8 C 63 % 0.26 C
1904 10-02-2014 14:35:00 6.8 C 65 % 0.69 C
1905 10-02-2014 14:40:00 6.8 C 64 % 0.48 C
1906 10-02-2014 14:45:00 6.8 C 64 % 0.48 C
1907 10-02-2014 14:50:00 6.8 C 65 % 0.69 C
1908 10-02-2014 14:55:00 6.8 C 65 % 0.69 C
1909 10-02-2014 15:00:00 6.8 C 65 % 0.69 C
1910 10-02-2014 15:05:00 6.7 C 67 % 1.02 C
1911 10-02-2014 15:10:00 6.6 C 69 % 1.33 C
1912 10-02-2014 15:15:00 6.4 C 70 % 1.34 C
1913 10-02-2014 15:20:00 6.3 C 71 % 1.44 C
1914 10-02-2014 15:25:00 6.1 C 73 % 1.63 C
1915 10-02-2014 15:30:00 5.9 C 75 % 1.82 C
1916 10-02-2014 15:35:00 5.8 C 78 % 2.27 C
1917 10-02-2014 15:40:00 5.6 C 79 % 2.25 C
1918 10-02-2014 15:45:00 5.5 C 82 % 2.68 C
1919 10-02-2014 15:50:00 5.3 C 84 % 2.82 C
1920 10-02-2014 15:55:00 5.2 C 85 % 2.89 C
1921 10-02-2014 16:00:00 5.1 C 85 % 2.79 C
1922 10-02-2014 16:05:00 5 C 87 % 3.02 C
1923 10-02-2014 16:10:00 4.9 C 88 % 3.08 C
1924 10-02-2014 16:15:00 4.7 C 89 % 3.05 C
1925 10-02-2014 16:20:00 4.6 C 90 % 3.1 C
Sensor: Nr:Datum:Temp:Feuchte:Taupunkt:
Aussen-T/F 1926 10-02-2014 16:25:00 4.5 C 91 % 3.16 C
1927 10-02-2014 16:30:00 4.4 C 91 % 3.06 C
1928 10-02-2014 16:35:00 4.3 C 91 % 2.96 C
1929 10-02-2014 16:40:00 4.2 C 92 % 3.02 C
1930 10-02-2014 16:45:00 4.2 C 92 % 3.02 C
1931 10-02-2014 16:50:00 4.1 C 92 % 2.92 C
1932 10-02-2014 16:55:00 4 C 92 % 2.82 C
1933 10-02-2014 17:00:00 4 C 92 % 2.82 C
1934 10-02-2014 17:05:00 3.9 C 93 % 2.87 C
1935 10-02-2014 17:10:00 3.9 C 93 % 2.87 C
1936 10-02-2014 17:15:00 3.9 C 93 % 2.87 C
1937 10-02-2014 17:20:00 3.8 C 93 % 2.77 C
1938 10-02-2014 17:25:00 3.8 C 94 % 2.93 C
1939 10-02-2014 17:30:00 3.8 C 94 % 2.93 C
1940 10-02-2014 17:35:00 3.7 C 94 % 2.83 C
1941 10-02-2014 17:40:00 3.7 C 94 % 2.83 C
1942 10-02-2014 17:45:00 3.6 C 94 % 2.73 C
1943 10-02-2014 17:50:00 3.6 C 95 % 2.88 C
1944 10-02-2014 17:55:00 3.6 C 95 % 2.88 C
1945 10-02-2014 18:00:00 3.6 C 95 % 2.88 C
1946 10-02-2014 18:05:00 3.6 C 95 % 2.88 C
1947 10-02-2014 18:10:00 3.6 C 95 % 2.88 C
1948 10-02-2014 18:15:00 3.6 C 95 % 2.88 C
1949 10-02-2014 18:20:00 3.5 C 95 % 2.78 C
1950 10-02-2014 18:25:00 3.5 C 95 % 2.78 C
Sensor: Nr:Datum:Temp:Feuchte:Taupunkt:
Aussen-T/F 1951 10-02-2014 18:30:00 3.5 C 95 % 2.78 C
1952 10-02-2014 18:35:00 3.4 C 95 % 2.68 C
1953 10-02-2014 18:40:00 3.4 C 95 % 2.68 C
1954 10-02-2014 18:45:00 3.4 C 95 % 2.68 C
1955 10-02-2014 18:50:00 3.4 C 95 % 2.68 C
1956 10-02-2014 18:55:00 3.3 C 95 % 2.58 C
1957 10-02-2014 19:00:00 3.3 C 95 % 2.58 C
1958 10-02-2014 19:05:00 3.3 C 95 % 2.58 C
1959 10-02-2014 19:10:00 3.3 C 95 % 2.58 C
1960 10-02-2014 19:15:00 3.3 C 95 % 2.58 C
1961 10-02-2014 19:20:00 3.3 C 95 % 2.58 C
1962 10-02-2014 19:25:00 3.3 C 95 % 2.58 C
1963 10-02-2014 19:30:00 3.3 C 95 % 2.58 C
1964 10-02-2014 19:35:00 3.3 C 96 % 2.72 C
1965 10-02-2014 19:40:00 3.3 C 96 % 2.72 C
1966 10-02-2014 19:45:00 3.3 C 96 % 2.72 C
1967 10-02-2014 19:50:00 3.3 C 96 % 2.72 C
1968 10-02-2014 19:55:00 3.3 C 96 % 2.72 C
1969 10-02-2014 20:00:00 3.3 C 96 % 2.72 C
1970 10-02-2014 20:05:00 3.3 C 96 % 2.72 C
1971 10-02-2014 20:10:00 3.3 C 96 % 2.72 C
1972 10-02-2014 20:15:00 3.3 C 96 % 2.72 C
1973 10-02-2014 20:20:00 3.3 C 96 % 2.72 C
1974 10-02-2014 20:25:00 3.3 C 96 % 2.72 C
1975 10-02-2014 20:30:00 3.2 C 96 % 2.63 C
Sensor: Nr:Datum:Temp:Feuchte:Taupunkt:
Aussen-T/F 1976 10-02-2014 20:35:00 3.1 C 95 % 2.38 C
1977 10-02-2014 20:40:00 3 C 95 % 2.28 C
1978 10-02-2014 20:45:00 2.9 C 96 % 2.33 C
1979 10-02-2014 20:50:00 2.9 C 96 % 2.33 C
1980 10-02-2014 20:55:00 2.8 C 95 % 2.08 C
1981 10-02-2014 21:00:00 2.8 C 95 % 2.08 C
1982 10-02-2014 21:05:00 2.7 C 95 % 1.98 C
1983 10-02-2014 21:10:00 2.7 C 95 % 1.98 C
1984 10-02-2014 21:15:00 2.6 C 95 % 1.88 C
1985 10-02-2014 21:20:00 2.6 C 95 % 1.88 C
1986 10-02-2014 21:25:00 2.6 C 95 % 1.88 C
1987 10-02-2014 21:30:00 2.6 C 95 % 1.88 C
1988 10-02-2014 21:35:00 2.6 C 95 % 1.88 C
1989 10-02-2014 21:40:00 2.6 C 95 % 1.88 C
1990 10-02-2014 21:45:00 2.6 C 95 % 1.88 C
1991 10-02-2014 21:50:00 2.6 C 95 % 1.88 C
1992 10-02-2014 21:55:00 2.6 C 95 % 1.88 C
1993 10-02-2014 22:00:00 2.6 C 96 % 2.03 C
1994 10-02-2014 22:05:00 2.6 C 95 % 1.88 C
1995 10-02-2014 22:10:00 2.6 C 95 % 1.88 C
1996 10-02-2014 22:15:00 2.6 C 95 % 1.88 C
1997 10-02-2014 22:20:00 2.6 C 95 % 1.88 C
1998 10-02-2014 22:25:00 2.6 C 96 % 2.03 C
1999 10-02-2014 22:30:00 2.6 C 96 % 2.03 C
2000 10-02-2014 22:35:00 2.6 C 95 % 1.88 C
Sensor: Nr:Datum:Temp:Feuchte:Taupunkt:
Aussen-T/F 2001 10-02-2014 22:40:00 2.6 C 95 % 1.88 C
2002 10-02-2014 22:45:00 2.7 C 95 % 1.98 C
2003 10-02-2014 22:50:00 2.7 C 95 % 1.98 C
2004 10-02-2014 22:55:00 2.8 C 95 % 2.08 C
2005 10-02-2014 23:00:00 2.8 C 95 % 2.08 C
2006 10-02-2014 23:05:00 2.9 C 95 % 2.18 C
2007 10-02-2014 23:10:00 2.9 C 95 % 2.18 C
2008 10-02-2014 23:15:00 2.8 C 94 % 1.93 C
2009 10-02-2014 23:20:00 2.8 C 95 % 2.08 C
2010 10-02-2014 23:25:00 2.7 C 94 % 1.83 C
2011 10-02-2014 23:30:00 2.7 C 95 % 1.98 C
2012 10-02-2014 23:35:00 2.6 C 95 % 1.88 C
2013 10-02-2014 23:40:00 2.6 C 95 % 1.88 C
2014 10-02-2014 23:45:00 2.6 C 95 % 1.88 C
2015 10-02-2014 23:50:00 2.6 C 95 % 1.88 C
2016 10-02-2014 23:55:00 2.5 C 95 % 1.78 C
2017 11-02-2014 00:00:00 2.7 C 95 % 1.98 C
2018 11-02-2014 00:05:00 2.8 C 96 % 2.23 C
2019 11-02-2014 00:10:00 2.9 C 95 % 2.18 C
2020 11-02-2014 00:15:00 3 C 95 % 2.28 C
2021 11-02-2014 00:20:00 2.9 C 95 % 2.18 C
2022 11-02-2014 00:25:00 2.9 C 95 % 2.18 C
2023 11-02-2014 00:30:00 2.9 C 95 % 2.18 C
2024 11-02-2014 00:35:00 3.1 C 95 % 2.38 C
2025 11-02-2014 00:40:00 3.2 C 95 % 2.48 C
Sensor: Nr:Datum:Temp:Feuchte:Taupunkt:
Aussen-T/F 2026 11-02-2014 00:45:00 3.1 C 95 % 2.38 C
2027 11-02-2014 00:50:00 2.9 C 95 % 2.18 C
2028 11-02-2014 00:55:00 3 C 95 % 2.28 C
2029 11-02-2014 01:00:00 3.1 C 94 % 2.23 C
2030 11-02-2014 01:05:00 3.2 C 94 % 2.33 C
2031 11-02-2014 01:10:00 3.3 C 93 % 2.28 C
2032 11-02-2014 01:15:00 3.3 C 93 % 2.28 C
2033 11-02-2014 01:20:00 3.4 C 92 % 2.23 C
2034 11-02-2014 01:25:00 3.6 C 92 % 2.42 C
2035 11-02-2014 01:30:00 3.7 C 92 % 2.52 C
2036 11-02-2014 01:35:00 3.8 C 91 % 2.47 C
2037 11-02-2014 01:40:00 3.9 C 91 % 2.57 C
2038 11-02-2014 01:45:00 4 C 91 % 2.67 C
2039 11-02-2014 01:50:00 4.2 C 90 % 2.71 C
2040 11-02-2014 01:55:00 4.2 C 89 % 2.55 C
2041 11-02-2014 02:00:00 4.2 C 89 % 2.55 C
2042 11-02-2014 02:05:00 4.1 C 90 % 2.61 C
2043 11-02-2014 02:10:00 4.1 C 89 % 2.45 C
2044 11-02-2014 02:15:00 4.1 C 89 % 2.45 C
2045 11-02-2014 02:20:00 4.1 C 90 % 2.61 C
2046 11-02-2014 02:25:00 4.2 C 90 % 2.71 C
2047 11-02-2014 02:30:00 4.2 C 90 % 2.71 C
2048 11-02-2014 02:35:00 4.2 C 90 % 2.71 C
2049 11-02-2014 02:40:00 4.1 C 91 % 2.77 C
2050 11-02-2014 02:45:00 4 C 91 % 2.67 C
Sensor: Nr:Datum:Temp:Feuchte:Taupunkt:
Aussen-T/F 2051 11-02-2014 02:50:00 4 C 91 % 2.67 C
2052 11-02-2014 02:55:00 4 C 91 % 2.67 C
2053 11-02-2014 03:00:00 4.1 C 91 % 2.77 C
2054 11-02-2014 03:05:00 4.1 C 91 % 2.77 C
2055 11-02-2014 03:10:00 4.1 C 91 % 2.77 C
2056 11-02-2014 03:15:00 4.1 C 90 % 2.61 C
2057 11-02-2014 03:20:00 4 C 90 % 2.51 C
2058 11-02-2014 03:25:00 3.9 C 91 % 2.57 C
2059 11-02-2014 03:30:00 3.8 C 91 % 2.47 C
2060 11-02-2014 03:35:00 3.7 C 91 % 2.37 C
2061 11-02-2014 03:40:00 3.7 C 92 % 2.52 C
2062 11-02-2014 03:45:00 3.6 C 92 % 2.42 C
2063 11-02-2014 03:50:00 3.7 C 92 % 2.52 C
2064 11-02-2014 03:55:00 3.7 C 92 % 2.52 C
2065 11-02-2014 04:00:00 3.6 C 91 % 2.27 C
2066 11-02-2014 04:05:00 3.6 C 92 % 2.42 C
2067 11-02-2014 04:10:00 3.6 C 92 % 2.42 C
2068 11-02-2014 04:15:00 3.7 C 92 % 2.52 C
2069 11-02-2014 04:20:00 3.8 C 92 % 2.62 C
2070 11-02-2014 04:25:00 4.1 C 91 % 2.77 C
2071 11-02-2014 04:30:00 4.2 C 91 % 2.87 C
2072 11-02-2014 04:35:00 4.3 C 91 % 2.96 C
2073 11-02-2014 04:40:00 4.3 C 90 % 2.81 C
2074 11-02-2014 04:45:00 4.3 C 90 % 2.81 C
2075 11-02-2014 04:50:00 4.3 C 90 % 2.81 C
Sensor: Nr:Datum:Temp:Feuchte:Taupunkt:
Aussen-T/F 2076 11-02-2014 04:55:00 4.1 C 90 % 2.61 C
2077 11-02-2014 05:00:00 3.8 C 91 % 2.47 C
2078 11-02-2014 05:05:00 3.7 C 91 % 2.37 C
2079 11-02-2014 05:10:00 3.7 C 92 % 2.52 C
2080 11-02-2014 05:15:00 3.8 C 92 % 2.62 C
2081 11-02-2014 05:20:00 3.9 C 91 % 2.57 C
2082 11-02-2014 05:25:00 3.7 C 91 % 2.37 C
2083 11-02-2014 05:30:00 3.7 C 92 % 2.52 C
2084 11-02-2014 05:35:00 4.1 C 91 % 2.77 C
2085 11-02-2014 05:40:00 4.1 C 91 % 2.77 C
2086 11-02-2014 05:45:00 3.9 C 91 % 2.57 C
2087 11-02-2014 05:50:00 3.9 C 92 % 2.72 C
2088 11-02-2014 05:55:00 4.1 C 92 % 2.92 C
2089 11-02-2014 06:00:00 4.2 C 92 % 3.02 C
2090 11-02-2014 06:05:00 4.3 C 91 % 2.96 C
2091 11-02-2014 06:10:00 4.4 C 91 % 3.06 C
2092 11-02-2014 06:15:00 4.5 C 91 % 3.16 C
2093 11-02-2014 06:20:00 4.7 C 89 % 3.05 C
2094 11-02-2014 06:25:00 4.9 C 88 % 3.08 C
2095 11-02-2014 06:30:00 4.9 C 88 % 3.08 C
2096 11-02-2014 06:35:00 5 C 88 % 3.18 C
2097 11-02-2014 06:40:00 4.9 C 87 % 2.92 C
2098 11-02-2014 06:45:00 5.1 C 87 % 3.12 C
2099 11-02-2014 06:50:00 5.2 C 86 % 3.05 C
2100 11-02-2014 06:55:00 5.3 C 86 % 3.15 C
Sensor: Nr:Datum:Temp:Feuchte:Taupunkt:
Aussen-T/F 2101 11-02-2014 07:00:00 5.3 C 86 % 3.15 C
2102 11-02-2014 07:05:00 5.3 C 86 % 3.15 C
2103 11-02-2014 07:10:00 5.3 C 86 % 3.15 C
2104 11-02-2014 07:15:00 5.4 C 85 % 3.09 C
2105 11-02-2014 07:20:00 5.4 C 85 % 3.09 C
2106 11-02-2014 07:25:00 5.4 C 85 % 3.09 C
2107 11-02-2014 07:30:00 5.3 C 85 % 2.99 C
2108 11-02-2014 07:35:00 5.2 C 85 % 2.89 C
2109 11-02-2014 07:40:00 5.3 C 85 % 2.99 C
2110 11-02-2014 07:45:00 5.3 C 85 % 2.99 C
2111 11-02-2014 07:50:00 5.4 C 85 % 3.09 C
2112 11-02-2014 07:55:00 5.3 C 86 % 3.15 C
2113 11-02-2014 08:00:00 5.2 C 85 % 2.89 C
2114 11-02-2014 08:05:00 5.3 C 85 % 2.99 C
2115 11-02-2014 08:10:00 5.2 C 84 % 2.72 C
2116 11-02-2014 08:15:00 5.2 C 85 % 2.89 C
2117 11-02-2014 08:20:00 5.1 C 85 % 2.79 C
2118 11-02-2014 08:25:00 5.3 C 84 % 2.82 C
2119 11-02-2014 08:30:00 5.5 C 82 % 2.68 C
2120 11-02-2014 08:35:00 5.6 C 82 % 2.78 C
2121 11-02-2014 08:40:00 5.6 C 82 % 2.78 C
2122 11-02-2014 08:45:00 5.7 C 81 % 2.7 C
2123 11-02-2014 08:50:00 5.7 C 81 % 2.7 C
2124 11-02-2014 08:55:00 5.7 C 81 % 2.7 C
2125 11-02-2014 09:00:00 5.6 C 81 % 2.6 C
Sensor: Nr:Datum:Temp:Feuchte:Taupunkt:
Aussen-T/F 2126 11-02-2014 09:05:00 5.7 C 80 % 2.53 C
2127 11-02-2014 09:10:00 5.7 C 79 % 2.35 C
2128 11-02-2014 09:15:00 5.7 C 79 % 2.35 C
2129 11-02-2014 09:20:00 5.7 C 79 % 2.35 C
2130 11-02-2014 09:25:00 5.7 C 80 % 2.53 C
2131 11-02-2014 09:30:00 5.7 C 79 % 2.35 C
2132 11-02-2014 09:35:00 5.7 C 79 % 2.35 C
2133 11-02-2014 09:40:00 5.7 C 79 % 2.35 C
2134 11-02-2014 09:45:00 5.7 C 79 % 2.35 C
2135 11-02-2014 09:50:00 5.7 C 79 % 2.35 C
2136 11-02-2014 09:55:00 5.7 C 79 % 2.35 C
2137 11-02-2014 10:00:00 5.7 C 80 % 2.53 C
2138 11-02-2014 10:05:00 5.7 C 81 % 2.7 C
2139 11-02-2014 10:10:00 5.8 C 80 % 2.62 C
2140 11-02-2014 10:15:00 5.9 C 80 % 2.72 C
2141 11-02-2014 10:20:00 5.9 C 80 % 2.72 C
2142 11-02-2014 10:25:00 6 C 80 % 2.82 C
2143 11-02-2014 10:30:00 6 C 81 % 2.99 C
2144 11-02-2014 10:35:00 6 C 81 % 2.99 C
2145 11-02-2014 10:40:00 6 C 81 % 2.99 C
2146 11-02-2014 10:45:00 6.1 C 81 % 3.09 C
2147 11-02-2014 10:50:00 6.1 C 82 % 3.26 C
2148 11-02-2014 10:55:00 6.1 C 82 % 3.26 C
2149 11-02-2014 11:00:00 6.1 C 82 % 3.26 C
2150 11-02-2014 11:05:00 6.2 C 81 % 3.19 C
Sensor: Nr:Datum:Temp:Feuchte:Taupunkt:
Aussen-T/F 2151 11-02-2014 11:10:00 6.2 C 82 % 3.36 C
2152 11-02-2014 11:15:00 6.3 C 82 % 3.46 C
2153 11-02-2014 11:20:00 6.4 C 82 % 3.56 C
2154 11-02-2014 11:25:00 6.5 C 82 % 3.66 C
2155 11-02-2014 11:30:00 6.6 C 81 % 3.58 C
2156 11-02-2014 11:35:00 6.6 C 81 % 3.58 C
2157 11-02-2014 11:40:00 6.6 C 81 % 3.58 C
2158 11-02-2014 11:45:00 6.6 C 80 % 3.4 C
2159 11-02-2014 11:50:00 6.6 C 79 % 3.23 C
2160 11-02-2014 11:55:00 6.5 C 79 % 3.13 C
2161 11-02-2014 12:00:00 6.4 C 79 % 3.03 C
2162 11-02-2014 12:05:00 6.4 C 79 % 3.03 C
2163 11-02-2014 12:10:00 6.5 C 79 % 3.13 C
2164 11-02-2014 12:15:00 6.6 C 78 % 3.05 C
2165 11-02-2014 12:20:00 6.5 C 78 % 2.95 C
2166 11-02-2014 12:25:00 6.5 C 78 % 2.95 C
2167 11-02-2014 12:30:00 6.6 C 78 % 3.05 C
2168 11-02-2014 12:35:00 6.6 C 78 % 3.05 C
2169 11-02-2014 12:40:00 6.7 C 78 % 3.14 C
2170 11-02-2014 12:45:00 6.8 C 77 % 3.06 C
2171 11-02-2014 12:50:00 6.9 C 76 % 2.97 C
2172 11-02-2014 12:55:00 6.9 C 76 % 2.97 C
2173 11-02-2014 13:00:00 7 C 76 % 3.07 C
2174 11-02-2014 13:05:00 7.1 C 75 % 2.98 C
2175 11-02-2014 13:10:00 7.1 C 74 % 2.79 C
Sensor: Nr:Datum:Temp:Feuchte:Taupunkt:
Aussen-T/F 2176 11-02-2014 13:15:00 7.1 C 73 % 2.6 C
2177 11-02-2014 13:20:00 7.2 C 75 % 3.07 C
2178 11-02-2014 13:25:00 7.2 C 74 % 2.89 C
2179 11-02-2014 13:30:00 7.4 C 74 % 3.08 C
2180 11-02-2014 13:35:00 7.4 C 73 % 2.89 C
2181 11-02-2014 13:40:00 7.5 C 73 % 2.98 C
2182 11-02-2014 13:45:00 7.6 C 72 % 2.88 C
2183 11-02-2014 13:50:00 7.6 C 73 % 3.08 C
2184 11-02-2014 13:55:00 7.6 C 73 % 3.08 C
2185 11-02-2014 14:00:00 7.6 C 72 % 2.88 C
2186 11-02-2014 14:05:00 7.7 C 71 % 2.78 C
2187 11-02-2014 14:10:00 7.8 C 71 % 2.88 C
2188 11-02-2014 14:15:00 7.9 C 69 % 2.57 C
2189 11-02-2014 14:20:00 7.8 C 71 % 2.88 C
2190 11-02-2014 14:25:00 7.9 C 71 % 2.98 C
2191 11-02-2014 14:30:00 8.1 C 69 % 2.77 C
2192 11-02-2014 14:35:00 8.1 C 69 % 2.77 C
2193 11-02-2014 14:40:00 8.2 C 67 % 2.45 C
2194 11-02-2014 14:45:00 8.3 C 66 % 2.33 C
2195 11-02-2014 14:50:00 8.2 C 65 % 2.02 C
2196 11-02-2014 14:55:00 8.2 C 64 % 1.81 C
2197 11-02-2014 15:00:00 8.3 C 66 % 2.33 C
2198 11-02-2014 15:05:00 8.4 C 66 % 2.43 C
2199 11-02-2014 15:10:00 8.6 C 65 % 2.4 C
2200 11-02-2014 15:15:00 8.5 C 65 % 2.31 C
Sensor: Nr:Datum:Temp:Feuchte:Taupunkt:
Aussen-T/F 2201 11-02-2014 15:20:00 8.4 C 64 % 2 C
2202 11-02-2014 15:25:00 8.4 C 65 % 2.21 C
2203 11-02-2014 15:30:00 8.4 C 64 % 2 C
2204 11-02-2014 15:35:00 8.5 C 65 % 2.31 C
2205 11-02-2014 15:40:00 8.4 C 65 % 2.21 C
2206 11-02-2014 15:45:00 8.3 C 64 % 1.9 C
2207 11-02-2014 15:50:00 8.2 C 65 % 2.02 C
2208 11-02-2014 15:55:00 8.2 C 65 % 2.02 C
2209 11-02-2014 16:00:00 8.1 C 65 % 1.93 C
2210 11-02-2014 16:05:00 8.1 C 65 % 1.93 C
2211 11-02-2014 16:10:00 7.8 C 68 % 2.27 C
2212 11-02-2014 16:15:00 7.6 C 71 % 2.69 C
2213 11-02-2014 16:20:00 7.3 C 72 % 2.6 C
2214 11-02-2014 16:25:00 7.2 C 74 % 2.89 C
2215 11-02-2014 16:30:00 7.1 C 73 % 2.6 C
2216 11-02-2014 16:35:00 6.9 C 76 % 2.97 C
2217 11-02-2014 16:40:00 6.8 C 70 % 1.72 C
2218 11-02-2014 16:45:00 6.8 C 72 % 2.12 C
2219 11-02-2014 16:50:00 6.8 C 67 % 1.11 C
2220 11-02-2014 16:55:00 7.1 C 69 % 1.81 C
2221 11-02-2014 17:00:00 6.9 C 71 % 2.02 C
2222 11-02-2014 17:05:00 6.8 C 69 % 1.52 C
2223 11-02-2014 17:10:00 6.6 C 73 % 2.12 C
2224 11-02-2014 17:15:00 6.3 C 76 % 2.39 C
2225 11-02-2014 17:20:00 6.1 C 77 % 2.38 C
Sensor: Nr:Datum:Temp:Feuchte:Taupunkt:
Aussen-T/F 2226 11-02-2014 17:25:00 5.9 C 78 % 2.37 C
2227 11-02-2014 17:30:00 5.7 C 81 % 2.7 C
2228 11-02-2014 17:35:00 5.4 C 81 % 2.41 C
2229 11-02-2014 17:40:00 5.2 C 82 % 2.39 C
2230 11-02-2014 17:45:00 4.9 C 84 % 2.43 C
2231 11-02-2014 17:50:00 4.8 C 84 % 2.33 C
2232 11-02-2014 17:55:00 4.7 C 85 % 2.4 C
2233 11-02-2014 18:00:00 4.7 C 83 % 2.07 C
2234 11-02-2014 18:05:00 4.7 C 84 % 2.23 C
2235 11-02-2014 18:10:00 4.6 C 84 % 2.14 C
2236 11-02-2014 18:15:00 4.6 C 85 % 2.3 C
2237 11-02-2014 18:20:00 4.6 C 85 % 2.3 C
2238 11-02-2014 18:25:00 4.6 C 86 % 2.47 C
2239 11-02-2014 18:30:00 4.5 C 85 % 2.2 C
2240 11-02-2014 18:35:00 4.5 C 86 % 2.37 C
2241 11-02-2014 18:40:00 4.4 C 86 % 2.27 C
2242 11-02-2014 18:45:00 4.5 C 85 % 2.2 C
2243 11-02-2014 18:50:00 4.6 C 85 % 2.3 C
2244 11-02-2014 18:55:00 4.6 C 85 % 2.3 C
2245 11-02-2014 19:00:00 4.6 C 86 % 2.47 C
2246 11-02-2014 19:05:00 4.6 C 85 % 2.3 C
2247 11-02-2014 19:10:00 4.6 C 86 % 2.47 C
2248 11-02-2014 19:15:00 4.6 C 86 % 2.47 C
2249 11-02-2014 19:20:00 4.6 C 86 % 2.47 C
2250 11-02-2014 19:25:00 4.5 C 86 % 2.37 C
Sensor: Nr:Datum:Temp:Feuchte:Taupunkt:
Aussen-T/F 2251 11-02-2014 19:30:00 4.6 C 86 % 2.47 C
2252 11-02-2014 19:35:00 4.6 C 84 % 2.14 C
2253 11-02-2014 19:40:00 4.7 C 82 % 1.9 C
2254 11-02-2014 19:45:00 4.9 C 83 % 2.26 C
2255 11-02-2014 19:50:00 4.8 C 84 % 2.33 C
2256 11-02-2014 19:55:00 4.7 C 85 % 2.4 C
2257 11-02-2014 20:00:00 4.7 C 85 % 2.4 C
2258 11-02-2014 20:05:00 4.7 C 85 % 2.4 C
2259 11-02-2014 20:10:00 4.7 C 84 % 2.23 C
2260 11-02-2014 20:15:00 4.8 C 84 % 2.33 C
2261 11-02-2014 20:20:00 4.8 C 85 % 2.5 C
2262 11-02-2014 20:25:00 4.7 C 84 % 2.23 C
2263 11-02-2014 20:30:00 4.7 C 85 % 2.4 C
2264 11-02-2014 20:35:00 4.6 C 85 % 2.3 C
2265 11-02-2014 20:40:00 4.6 C 84 % 2.14 C
2266 11-02-2014 20:45:00 4.7 C 86 % 2.56 C
2267 11-02-2014 20:50:00 4.6 C 85 % 2.3 C
2268 11-02-2014 20:55:00 4.6 C 86 % 2.47 C
2269 11-02-2014 21:00:00 4.6 C 86 % 2.47 C
2270 11-02-2014 21:05:00 4.6 C 85 % 2.3 C
2271 11-02-2014 21:10:00 4.7 C 83 % 2.07 C
2272 11-02-2014 21:15:00 4.9 C 82 % 2.09 C
2273 11-02-2014 21:20:00 5.1 C 82 % 2.29 C
2274 11-02-2014 21:25:00 5.3 C 79 % 1.96 C
2275 11-02-2014 21:30:00 5.4 C 80 % 2.23 C
Sensor: Nr:Datum:Temp:Feuchte:Taupunkt:
Aussen-T/F 2276 11-02-2014 21:35:00 5.5 C 79 % 2.16 C
2277 11-02-2014 21:40:00 5.6 C 80 % 2.43 C
2278 11-02-2014 21:45:00 5.6 C 78 % 2.07 C
2279 11-02-2014 21:50:00 5.7 C 79 % 2.35 C
2280 11-02-2014 21:55:00 5.7 C 76 % 1.81 C
2281 11-02-2014 22:00:00 5.7 C 78 % 2.17 C
2282 11-02-2014 22:05:00 5.7 C 79 % 2.35 C
2283 11-02-2014 22:10:00 5.6 C 81 % 2.6 C
2284 11-02-2014 22:15:00 5.4 C 80 % 2.23 C
2285 11-02-2014 22:20:00 5.5 C 79 % 2.16 C
2286 11-02-2014 22:25:00 5.6 C 80 % 2.43 C
2287 11-02-2014 22:30:00 5.5 C 79 % 2.16 C
2288 11-02-2014 22:35:00 5.6 C 78 % 2.07 C
2289 11-02-2014 22:40:00 5.7 C 78 % 2.17 C
2290 11-02-2014 22:45:00 5.7 C 79 % 2.35 C
2291 11-02-2014 22:50:00 5.8 C 79 % 2.45 C
2292 11-02-2014 22:55:00 5.7 C 81 % 2.7 C
2293 11-02-2014 23:00:00 5.6 C 82 % 2.78 C
2294 11-02-2014 23:05:00 5.6 C 78 % 2.07 C
2295 11-02-2014 23:10:00 5.7 C 79 % 2.35 C
2296 11-02-2014 23:15:00 5.8 C 78 % 2.27 C
2297 11-02-2014 23:20:00 6 C 77 % 2.28 C
2298 11-02-2014 23:25:00 6 C 79 % 2.64 C
2299 11-02-2014 23:30:00 5.9 C 80 % 2.72 C
2300 11-02-2014 23:35:00 5.8 C 80 % 2.62 C
Sensor: Nr:Datum:Temp:Feuchte:Taupunkt:
Aussen-T/F 2301 11-02-2014 23:40:00 5.7 C 82 % 2.87 C
2302 11-02-2014 23:45:00 5.7 C 80 % 2.53 C
2303 11-02-2014 23:50:00 5.7 C 82 % 2.87 C
2304 11-02-2014 23:55:00 5.6 C 82 % 2.78 C
2305 12-02-2014 00:00:00 5.6 C 82 % 2.78 C
2306 12-02-2014 00:05:00 5.7 C 81 % 2.7 C
2307 12-02-2014 00:10:00 5.8 C 81 % 2.8 C
2308 12-02-2014 00:15:00 5.7 C 84 % 3.21 C
2309 12-02-2014 00:20:00 5.7 C 84 % 3.21 C
2310 12-02-2014 00:25:00 5.6 C 85 % 3.28 C
2311 12-02-2014 00:30:00 5.5 C 85 % 3.18 C
2312 12-02-2014 00:35:00 5.3 C 87 % 3.32 C
2313 12-02-2014 00:40:00 5.2 C 87 % 3.22 C
2314 12-02-2014 00:45:00 5.1 C 87 % 3.12 C
2315 12-02-2014 00:50:00 5.1 C 86 % 2.96 C
2316 12-02-2014 00:55:00 5.1 C 87 % 3.12 C
2317 12-02-2014 01:00:00 5.1 C 88 % 3.28 C
2318 12-02-2014 01:05:00 5.1 C 87 % 3.12 C
2319 12-02-2014 01:10:00 5.2 C 86 % 3.05 C
2320 12-02-2014 01:15:00 5.4 C 86 % 3.25 C
2321 12-02-2014 01:20:00 5.4 C 86 % 3.25 C
2322 12-02-2014 01:25:00 5.4 C 86 % 3.25 C
2323 12-02-2014 01:30:00 5.4 C 86 % 3.25 C
2324 12-02-2014 01:35:00 5.4 C 86 % 3.25 C
2325 12-02-2014 01:40:00 5.4 C 86 % 3.25 C
Sensor: Nr:Datum:Temp:Feuchte:Taupunkt:
Aussen-T/F 2326 12-02-2014 01:45:00 5.4 C 86 % 3.25 C
2327 12-02-2014 01:50:00 5.3 C 86 % 3.15 C
2328 12-02-2014 01:55:00 5.3 C 87 % 3.32 C
2329 12-02-2014 02:00:00 5.3 C 87 % 3.32 C
2330 12-02-2014 02:05:00 5.3 C 87 % 3.32 C
2331 12-02-2014 02:10:00 5.2 C 87 % 3.22 C
2332 12-02-2014 02:15:00 5.2 C 87 % 3.22 C
2333 12-02-2014 02:20:00 5.1 C 88 % 3.28 C
2334 12-02-2014 02:25:00 5.1 C 88 % 3.28 C
2335 12-02-2014 02:30:00 5.1 C 88 % 3.28 C
2336 12-02-2014 02:35:00 5.1 C 88 % 3.28 C
2337 12-02-2014 02:40:00 5.1 C 88 % 3.28 C
2338 12-02-2014 02:45:00 5.1 C 88 % 3.28 C
2339 12-02-2014 02:50:00 5.1 C 88 % 3.28 C
2340 12-02-2014 02:55:00 5.1 C 88 % 3.28 C
2341 12-02-2014 03:00:00 5.1 C 88 % 3.28 C
2342 12-02-2014 03:05:00 5.1 C 88 % 3.28 C
2343 12-02-2014 03:10:00 5.1 C 88 % 3.28 C
2344 12-02-2014 03:15:00 5.1 C 88 % 3.28 C
2345 12-02-2014 03:20:00 5.1 C 88 % 3.28 C
2346 12-02-2014 03:25:00 5.1 C 88 % 3.28 C
2347 12-02-2014 03:30:00 5.1 C 88 % 3.28 C
2348 12-02-2014 03:35:00 5 C 88 % 3.18 C
2349 12-02-2014 03:40:00 4.9 C 88 % 3.08 C
2350 12-02-2014 03:45:00 4.9 C 88 % 3.08 C
Sensor: Nr:Datum:Temp:Feuchte:Taupunkt:
Aussen-T/F 2351 12-02-2014 03:50:00 4.8 C 88 % 2.99 C
2352 12-02-2014 03:55:00 4.8 C 88 % 2.99 C
2353 12-02-2014 04:00:00 4.8 C 88 % 2.99 C
2354 12-02-2014 04:05:00 4.7 C 88 % 2.89 C
2355 12-02-2014 04:10:00 4.5 C 88 % 2.69 C
2356 12-02-2014 04:15:00 4.4 C 88 % 2.59 C
2357 12-02-2014 04:20:00 4.2 C 89 % 2.55 C
2358 12-02-2014 04:25:00 4.1 C 90 % 2.61 C
2359 12-02-2014 04:30:00 4.2 C 90 % 2.71 C
2360 12-02-2014 04:35:00 4.2 C 90 % 2.71 C
2361 12-02-2014 04:40:00 4.2 C 90 % 2.71 C
2362 12-02-2014 04:45:00 4 C 90 % 2.51 C
2363 12-02-2014 04:50:00 3.8 C 90 % 2.31 C
2364 12-02-2014 04:55:00 3.6 C 91 % 2.27 C
2365 12-02-2014 05:00:00 3.7 C 91 % 2.37 C
2366 12-02-2014 05:05:00 3.8 C 91 % 2.47 C
2367 12-02-2014 05:10:00 3.9 C 90 % 2.41 C
2368 12-02-2014 05:15:00 4 C 90 % 2.51 C
2369 12-02-2014 05:20:00 3.9 C 90 % 2.41 C
2370 12-02-2014 05:25:00 3.9 C 90 % 2.41 C
2371 12-02-2014 05:30:00 3.7 C 90 % 2.22 C
2372 12-02-2014 05:35:00 3.6 C 90 % 2.12 C
2373 12-02-2014 05:40:00 3.4 C 91 % 2.07 C
2374 12-02-2014 05:45:00 3.5 C 92 % 2.33 C
2375 12-02-2014 05:50:00 3.6 C 91 % 2.27 C
Sensor: Nr:Datum:Temp:Feuchte:Taupunkt:
Aussen-T/F 2376 12-02-2014 05:55:00 3.8 C 91 % 2.47 C
2377 12-02-2014 06:00:00 3.8 C 91 % 2.47 C
2378 12-02-2014 06:05:00 3.9 C 90 % 2.41 C
2379 12-02-2014 06:10:00 4 C 89 % 2.36 C
2380 12-02-2014 06:15:00 4.1 C 89 % 2.45 C
2381 12-02-2014 06:20:00 4.1 C 88 % 2.3 C
2382 12-02-2014 06:25:00 3.9 C 88 % 2.1 C
2383 12-02-2014 06:30:00 3.6 C 88 % 1.8 C
2384 12-02-2014 06:35:00 3.3 C 89 % 1.67 C
2385 12-02-2014 06:40:00 3.2 C 90 % 1.72 C
2386 12-02-2014 06:45:00 3.1 C 91 % 1.78 C
2387 12-02-2014 06:50:00 3.2 C 91 % 1.88 C
2388 12-02-2014 06:55:00 3.2 C 90 % 1.72 C
2389 12-02-2014 07:00:00 3.2 C 91 % 1.88 C
2390 12-02-2014 07:05:00 3.3 C 91 % 1.98 C
2391 12-02-2014 07:10:00 3.5 C 91 % 2.17 C
2392 12-02-2014 07:15:00 3.7 C 91 % 2.37 C
2393 12-02-2014 07:20:00 3.8 C 89 % 2.16 C
2394 12-02-2014 07:25:00 3.9 C 90 % 2.41 C
2395 12-02-2014 07:30:00 4.1 C 89 % 2.45 C
2396 12-02-2014 07:35:00 4.3 C 88 % 2.49 C
2397 12-02-2014 07:40:00 4.3 C 88 % 2.49 C
2398 12-02-2014 07:45:00 4.2 C 88 % 2.39 C
2399 12-02-2014 07:50:00 4.2 C 88 % 2.39 C
2400 12-02-2014 07:55:00 4.1 C 88 % 2.3 C
Sensor: Nr:Datum:Temp:Feuchte:Taupunkt:
Aussen-T/F 2401 12-02-2014 08:00:00 3.9 C 89 % 2.26 C
2402 12-02-2014 08:05:00 3.9 C 89 % 2.26 C
2403 12-02-2014 08:10:00 4 C 89 % 2.36 C
2404 12-02-2014 08:15:00 4 C 89 % 2.36 C
2405 12-02-2014 08:20:00 3.9 C 89 % 2.26 C
2406 12-02-2014 08:25:00 3.7 C 89 % 2.06 C
2407 12-02-2014 08:30:00 3.6 C 90 % 2.12 C
2408 12-02-2014 08:35:00 3.4 C 90 % 1.92 C
2409 12-02-2014 08:40:00 3.2 C 90 % 1.72 C
2410 12-02-2014 08:45:00 3 C 91 % 1.68 C
2411 12-02-2014 08:50:00 2.9 C 92 % 1.73 C
2412 12-02-2014 08:55:00 3.1 C 92 % 1.93 C
2413 12-02-2014 09:00:00 3.2 C 92 % 2.03 C
2414 12-02-2014 09:05:00 3.3 C 92 % 2.13 C
2415 12-02-2014 09:10:00 3.3 C 91 % 1.98 C
2416 12-02-2014 09:15:00 3.2 C 92 % 2.03 C
2417 12-02-2014 09:20:00 3.2 C 92 % 2.03 C
2418 12-02-2014 09:25:00 3.2 C 92 % 2.03 C
2419 12-02-2014 09:30:00 3.7 C 91 % 2.37 C
2420 12-02-2014 09:35:00 3.9 C 90 % 2.41 C
2421 12-02-2014 09:40:00 4.2 C 89 % 2.55 C
2422 12-02-2014 09:45:00 4.3 C 87 % 2.33 C
2423 12-02-2014 09:50:00 4.4 C 87 % 2.43 C
2424 12-02-2014 09:55:00 4.4 C 87 % 2.43 C
2425 12-02-2014 10:00:00 4.6 C 86 % 2.47 C
Sensor: Nr:Datum:Temp:Feuchte:Taupunkt:
Aussen-T/F 2426 12-02-2014 10:05:00 4.8 C 85 % 2.5 C
2427 12-02-2014 10:10:00 5.1 C 84 % 2.63 C
2428 12-02-2014 10:15:00 5.1 C 82 % 2.29 C
2429 12-02-2014 10:20:00 5.3 C 82 % 2.48 C
2430 12-02-2014 10:25:00 5.6 C 80 % 2.43 C
2431 12-02-2014 10:30:00 5.7 C 80 % 2.53 C
2432 12-02-2014 10:35:00 5.8 C 80 % 2.62 C
2433 12-02-2014 10:40:00 5.9 C 79 % 2.54 C
2434 12-02-2014 10:45:00 5.9 C 79 % 2.54 C
2435 12-02-2014 10:50:00 5.9 C 79 % 2.54 C
2436 12-02-2014 10:55:00 6 C 78 % 2.46 C
2437 12-02-2014 11:00:00 6.1 C 78 % 2.56 C
2438 12-02-2014 11:05:00 6.1 C 78 % 2.56 C
2439 12-02-2014 11:10:00 6.2 C 78 % 2.66 C
2440 12-02-2014 11:15:00 6.2 C 76 % 2.29 C
2441 12-02-2014 11:20:00 6.3 C 74 % 2.02 C
2442 12-02-2014 11:25:00 6.3 C 74 % 2.02 C
2443 12-02-2014 11:30:00 6.3 C 74 % 2.02 C
2444 12-02-2014 11:35:00 6.3 C 74 % 2.02 C
2445 12-02-2014 11:40:00 6.4 C 75 % 2.3 C
2446 12-02-2014 11:45:00 6.4 C 75 % 2.3 C
2447 12-02-2014 11:50:00 6.4 C 75 % 2.3 C
2448 12-02-2014 11:55:00 6.5 C 75 % 2.4 C
2449 12-02-2014 12:00:00 6.5 C 74 % 2.21 C
2450 12-02-2014 12:05:00 6.5 C 74 % 2.21 C
Sensor: Nr:Datum:Temp:Feuchte:Taupunkt:
Aussen-T/F 2451 12-02-2014 12:10:00 6.6 C 75 % 2.49 C
2452 12-02-2014 12:15:00 6.7 C 75 % 2.59 C
2453 12-02-2014 12:20:00 6.7 C 75 % 2.59 C
2454 12-02-2014 12:25:00 6.8 C 74 % 2.5 C
2455 12-02-2014 12:30:00 6.8 C 74 % 2.5 C
2456 12-02-2014 12:35:00 6.8 C 73 % 2.31 C
2457 12-02-2014 12:40:00 6.8 C 73 % 2.31 C
2458 12-02-2014 12:45:00 6.9 C 73 % 2.4 C
2459 12-02-2014 12:50:00 7 C 73 % 2.5 C
2460 12-02-2014 12:55:00 7 C 72 % 2.31 C
2461 12-02-2014 13:00:00 7.1 C 72 % 2.4 C
2462 12-02-2014 13:05:00 7.3 C 70 % 2.2 C
2463 12-02-2014 13:10:00 7.6 C 70 % 2.49 C
2464 12-02-2014 13:15:00 7.9 C 68 % 2.37 C
2465 12-02-2014 13:20:00 8.1 C 68 % 2.56 C
2466 12-02-2014 13:25:00 8.2 C 68 % 2.66 C
2467 12-02-2014 13:30:00 8.2 C 66 % 2.24 C
2468 12-02-2014 13:35:00 8.2 C 66 % 2.24 C
2469 12-02-2014 13:40:00 8.1 C 64 % 1.71 C
2470 12-02-2014 13:45:00 8.2 C 65 % 2.02 C
2471 12-02-2014 13:50:00 8.3 C 65 % 2.12 C
2472 12-02-2014 13:55:00 8.3 C 65 % 2.12 C
2473 12-02-2014 14:00:00 8.2 C 66 % 2.24 C
2474 12-02-2014 14:05:00 8.2 C 65 % 2.02 C
2475 12-02-2014 14:10:00 8.2 C 66 % 2.24 C
Sensor: Nr:Datum:Temp:Feuchte:Taupunkt:
Aussen-T/F 2476 12-02-2014 14:15:00 8.3 C 66 % 2.33 C
2477 12-02-2014 14:20:00 8.2 C 66 % 2.24 C
2478 12-02-2014 14:25:00 8.1 C 66 % 2.14 C
2479 12-02-2014 14:30:00 8.1 C 66 % 2.14 C
2480 12-02-2014 14:35:00 8.1 C 66 % 2.14 C
2481 12-02-2014 14:40:00 8 C 66 % 2.05 C
2482 12-02-2014 14:45:00 8 C 67 % 2.26 C
2483 12-02-2014 14:50:00 8.1 C 66 % 2.14 C
2484 12-02-2014 14:55:00 8.2 C 65 % 2.02 C
2485 12-02-2014 15:00:00 8.4 C 65 % 2.21 C
2486 12-02-2014 15:05:00 8.4 C 62 % 1.55 C
2487 12-02-2014 15:10:00 8.4 C 63 % 1.78 C
2488 12-02-2014 15:15:00 8.4 C 62 % 1.55 C
2489 12-02-2014 15:20:00 8.4 C 63 % 1.78 C
2490 12-02-2014 15:25:00 8.3 C 63 % 1.68 C
2491 12-02-2014 15:30:00 8.3 C 63 % 1.68 C
2492 12-02-2014 15:35:00 8.4 C 64 % 2 C
2493 12-02-2014 15:40:00 8.4 C 63 % 1.78 C
2494 12-02-2014 15:45:00 8.4 C 64 % 2 C
2495 12-02-2014 15:50:00 8.2 C 63 % 1.59 C
2496 12-02-2014 15:55:00 8.1 C 64 % 1.71 C
2497 12-02-2014 16:00:00 8.1 C 63 % 1.49 C
2498 12-02-2014 16:05:00 8 C 64 % 1.62 C
2499 12-02-2014 16:10:00 7.9 C 65 % 1.74 C
2500 12-02-2014 16:15:00 7.9 C 67 % 2.16 C
Sensor: Nr:Datum:Temp:Feuchte:Taupunkt:
Aussen-T/F 2501 12-02-2014 16:20:00 7.7 C 66 % 1.76 C
2502 12-02-2014 16:25:00 7.7 C 65 % 1.55 C
2503 12-02-2014 16:30:00 7.5 C 65 % 1.36 C
2504 12-02-2014 16:35:00 7.2 C 71 % 2.3 C
2505 12-02-2014 16:40:00 6.8 C 73 % 2.31 C
2506 12-02-2014 16:45:00 6.5 C 73 % 2.02 C
2507 12-02-2014 16:50:00 6.3 C 75 % 2.2 C
2508 12-02-2014 16:55:00 6.2 C 75 % 2.11 C
2509 12-02-2014 17:00:00 6.1 C 75 % 2.01 C
2510 12-02-2014 17:05:00 6 C 75 % 1.91 C
2511 12-02-2014 17:10:00 5.9 C 75 % 1.82 C
2512 12-02-2014 17:15:00 5.7 C 76 % 1.81 C
2513 12-02-2014 17:20:00 5.7 C 76 % 1.81 C
2514 12-02-2014 17:25:00 5.7 C 76 % 1.81 C
2515 12-02-2014 17:30:00 5.7 C 75 % 1.62 C
2516 12-02-2014 17:35:00 5.7 C 74 % 1.44 C
2517 12-02-2014 17:40:00 5.9 C 75 % 1.82 C
2518 12-02-2014 17:45:00 5.8 C 75 % 1.72 C
2519 12-02-2014 17:50:00 5.6 C 75 % 1.53 C
2520 12-02-2014 17:55:00 5.3 C 77 % 1.6 C
2521 12-02-2014 18:00:00 5 C 79 % 1.67 C
2522 12-02-2014 18:05:00 4.8 C 79 % 1.47 C
2523 12-02-2014 18:10:00 4.8 C 80 % 1.65 C
2524 12-02-2014 18:15:00 4.7 C 81 % 1.73 C
2525 12-02-2014 18:20:00 4.5 C 82 % 1.7 C
Sensor: Nr:Datum:Temp:Feuchte:Taupunkt:
Aussen-T/F 2526 12-02-2014 18:25:00 4.4 C 82 % 1.6 C
2527 12-02-2014 18:30:00 4.3 C 83 % 1.67 C
2528 12-02-2014 18:35:00 4.3 C 83 % 1.67 C
2529 12-02-2014 18:40:00 4.4 C 82 % 1.6 C
2530 12-02-2014 18:45:00 4.4 C 82 % 1.6 C
2531 12-02-2014 18:50:00 4.5 C 83 % 1.87 C
2532 12-02-2014 18:55:00 4.4 C 82 % 1.6 C
2533 12-02-2014 19:00:00 4.3 C 83 % 1.67 C
2534 12-02-2014 19:05:00 4.2 C 83 % 1.58 C
2535 12-02-2014 19:10:00 4.3 C 83 % 1.67 C
2536 12-02-2014 19:15:00 4.4 C 84 % 1.94 C
2537 12-02-2014 19:20:00 4.5 C 84 % 2.04 C
2538 12-02-2014 19:25:00 4.4 C 84 % 1.94 C
2539 12-02-2014 19:30:00 4.4 C 84 % 1.94 C
2540 12-02-2014 19:35:00 4.3 C 85 % 2.01 C
2541 12-02-2014 19:40:00 4.3 C 85 % 2.01 C
2542 12-02-2014 19:45:00 4.3 C 86 % 2.17 C
2543 12-02-2014 19:50:00 4.3 C 86 % 2.17 C
2544 12-02-2014 19:55:00 4.3 C 85 % 2.01 C
2545 12-02-2014 20:00:00 4.4 C 85 % 2.11 C
2546 12-02-2014 20:05:00 4.4 C 85 % 2.11 C
2547 12-02-2014 20:10:00 4.4 C 85 % 2.11 C
2548 12-02-2014 20:15:00 4.4 C 84 % 1.94 C
2549 12-02-2014 20:20:00 4.5 C 84 % 2.04 C
2550 12-02-2014 20:25:00 4.5 C 85 % 2.2 C
Sensor: Nr:Datum:Temp:Feuchte:Taupunkt:
Aussen-T/F 2551 12-02-2014 20:30:00 4.5 C 85 % 2.2 C
2552 12-02-2014 20:35:00 4.6 C 84 % 2.14 C
2553 12-02-2014 20:40:00 4.7 C 84 % 2.23 C
2554 12-02-2014 20:45:00 4.8 C 84 % 2.33 C
2555 12-02-2014 20:50:00 4.9 C 84 % 2.43 C
2556 12-02-2014 20:55:00 4.9 C 84 % 2.43 C
2557 12-02-2014 21:00:00 4.8 C 84 % 2.33 C
2558 12-02-2014 21:05:00 4.8 C 85 % 2.5 C
2559 12-02-2014 21:10:00 4.8 C 85 % 2.5 C
2560 12-02-2014 21:15:00 4.8 C 84 % 2.33 C
2561 12-02-2014 21:20:00 4.8 C 84 % 2.33 C
2562 12-02-2014 21:25:00 4.8 C 84 % 2.33 C
2563 12-02-2014 21:30:00 4.9 C 85 % 2.6 C
2564 12-02-2014 21:35:00 4.9 C 84 % 2.43 C
2565 12-02-2014 21:40:00 4.9 C 84 % 2.43 C
2566 12-02-2014 21:45:00 4.9 C 82 % 2.09 C
2567 12-02-2014 21:50:00 5.1 C 82 % 2.29 C
2568 12-02-2014 21:55:00 5.2 C 81 % 2.21 C
2569 12-02-2014 22:00:00 5.3 C 82 % 2.48 C
2570 12-02-2014 22:05:00 5.4 C 79 % 2.06 C
2571 12-02-2014 22:10:00 5.8 C 77 % 2.09 C
2572 12-02-2014 22:15:00 6.1 C 76 % 2.2 C
2573 12-02-2014 22:20:00 6.4 C 73 % 1.92 C
2574 12-02-2014 22:25:00 6.7 C 72 % 2.02 C
2575 12-02-2014 22:30:00 6.8 C 71 % 1.92 C
Sensor: Nr:Datum:Temp:Feuchte:Taupunkt:
Aussen-T/F 2576 12-02-2014 22:35:00 7 C 70 % 1.91 C
2577 12-02-2014 22:40:00 7.1 C 71 % 2.21 C
2578 12-02-2014 22:45:00 7.2 C 72 % 2.5 C
2579 12-02-2014 22:50:00 7.1 C 75 % 2.98 C
2580 12-02-2014 22:55:00 6.8 C 77 % 3.06 C
2581 12-02-2014 23:00:00 6.6 C 78 % 3.05 C
2582 12-02-2014 23:05:00 6.5 C 81 % 3.48 C
2583 12-02-2014 23:10:00 6.3 C 81 % 3.29 C
2584 12-02-2014 23:15:00 6.2 C 82 % 3.36 C
2585 12-02-2014 23:20:00 6.2 C 82 % 3.36 C
2586 12-02-2014 23:25:00 6.1 C 83 % 3.44 C
2587 12-02-2014 23:30:00 6 C 83 % 3.34 C
2588 12-02-2014 23:35:00 5.9 C 83 % 3.24 C
2589 12-02-2014 23:40:00 5.9 C 83 % 3.24 C
2590 12-02-2014 23:45:00 5.8 C 84 % 3.31 C
2591 12-02-2014 23:50:00 5.7 C 85 % 3.38 C
2592 12-02-2014 23:55:00 5.7 C 85 % 3.38 C
2593 13-02-2014 00:00:00 5.6 C 85 % 3.28 C
2594 13-02-2014 00:05:00 5.6 C 86 % 3.45 C
2595 13-02-2014 00:10:00 5.5 C 86 % 3.35 C
2596 13-02-2014 00:15:00 5.5 C 86 % 3.35 C
2597 13-02-2014 00:20:00 5.4 C 86 % 3.25 C
2598 13-02-2014 00:25:00 5.4 C 86 % 3.25 C
2599 13-02-2014 00:30:00 5.6 C 85 % 3.28 C
2600 13-02-2014 00:35:00 5.7 C 85 % 3.38 C
Sensor: Nr:Datum:Temp:Feuchte:Taupunkt:
Aussen-T/F 2601 13-02-2014 00:40:00 5.7 C 85 % 3.38 C
2602 13-02-2014 00:45:00 5.8 C 84 % 3.31 C
2603 13-02-2014 00:50:00 5.8 C 84 % 3.31 C
2604 13-02-2014 00:55:00 5.9 C 84 % 3.41 C
2605 13-02-2014 01:00:00 5.9 C 84 % 3.41 C
2606 13-02-2014 01:05:00 5.9 C 84 % 3.41 C
2607 13-02-2014 01:10:00 5.9 C 84 % 3.41 C
2608 13-02-2014 01:15:00 5.9 C 84 % 3.41 C
2609 13-02-2014 01:20:00 6 C 84 % 3.51 C
2610 13-02-2014 01:25:00 6 C 84 % 3.51 C
2611 13-02-2014 01:30:00 6.1 C 84 % 3.61 C
2612 13-02-2014 01:35:00 6.1 C 85 % 3.77 C
2613 13-02-2014 01:40:00 6.1 C 86 % 3.94 C
2614 13-02-2014 01:45:00 6 C 86 % 3.84 C
2615 13-02-2014 01:50:00 6 C 86 % 3.84 C
2616 13-02-2014 01:55:00 5.9 C 86 % 3.74 C
2617 13-02-2014 02:00:00 5.8 C 87 % 3.81 C
2618 13-02-2014 02:05:00 5.8 C 87 % 3.81 C
2619 13-02-2014 02:10:00 5.9 C 87 % 3.91 C
2620 13-02-2014 02:15:00 5.9 C 87 % 3.91 C
2621 13-02-2014 02:20:00 6 C 87 % 4 C
2622 13-02-2014 02:25:00 6 C 87 % 4 C
2623 13-02-2014 02:30:00 6.1 C 87 % 4.1 C
2624 13-02-2014 02:35:00 6 C 88 % 4.17 C
2625 13-02-2014 02:40:00 5.9 C 88 % 4.07 C
Sensor: Nr:Datum:Temp:Feuchte:Taupunkt:
Aussen-T/F 2626 13-02-2014 02:45:00 5.9 C 88 % 4.07 C
2627 13-02-2014 02:50:00 5.9 C 88 % 4.07 C
2628 13-02-2014 02:55:00 5.9 C 89 % 4.23 C
2629 13-02-2014 03:00:00 5.9 C 89 % 4.23 C
2630 13-02-2014 03:05:00 5.8 C 89 % 4.13 C
2631 13-02-2014 03:10:00 5.8 C 90 % 4.29 C
2632 13-02-2014 03:15:00 5.7 C 90 % 4.19 C
2633 13-02-2014 03:20:00 5.7 C 91 % 4.35 C
2634 13-02-2014 03:25:00 5.7 C 92 % 4.5 C
2635 13-02-2014 03:30:00 5.7 C 93 % 4.66 C
2636 13-02-2014 03:35:00 5.7 C 93 % 4.66 C
2637 13-02-2014 03:40:00 5.6 C 94 % 4.71 C
2638 13-02-2014 03:45:00 5.8 C 94 % 4.91 C
2639 13-02-2014 03:50:00 6 C 93 % 4.96 C
2640 13-02-2014 03:55:00 6.3 C 91 % 4.94 C
2641 13-02-2014 04:00:00 6.4 C 91 % 5.04 C
2642 13-02-2014 04:05:00 6.3 C 92 % 5.1 C
2643 13-02-2014 04:10:00 6.3 C 92 % 5.1 C
2644 13-02-2014 04:15:00 6.2 C 93 % 5.15 C
2645 13-02-2014 04:20:00 6.1 C 93 % 5.06 C
2646 13-02-2014 04:25:00 6.1 C 92 % 4.9 C
2647 13-02-2014 04:30:00 6.2 C 91 % 4.84 C
2648 13-02-2014 04:35:00 6.2 C 90 % 4.69 C
2649 13-02-2014 04:40:00 6.2 C 88 % 4.36 C
2650 13-02-2014 04:45:00 6.3 C 88 % 4.46 C
Sensor: Nr:Datum:Temp:Feuchte:Taupunkt:
Aussen-T/F 2651 13-02-2014 04:50:00 6.2 C 88 % 4.36 C
2652 13-02-2014 04:55:00 5.9 C 89 % 4.23 C
2653 13-02-2014 05:00:00 6.2 C 89 % 4.53 C
2654 13-02-2014 05:05:00 6.4 C 89 % 4.72 C
2655 13-02-2014 05:10:00 6.5 C 88 % 4.66 C
2656 13-02-2014 05:15:00 6.4 C 88 % 4.56 C
2657 13-02-2014 05:20:00 6.5 C 87 % 4.5 C
2658 13-02-2014 05:25:00 6.6 C 86 % 4.43 C
2659 13-02-2014 05:30:00 6.6 C 86 % 4.43 C
2660 13-02-2014 05:35:00 6.3 C 86 % 4.14 C
2661 13-02-2014 05:40:00 5.9 C 87 % 3.91 C
2662 13-02-2014 05:45:00 5.7 C 88 % 3.87 C
2663 13-02-2014 05:50:00 5.6 C 88 % 3.77 C
2664 13-02-2014 05:55:00 5.3 C 89 % 3.64 C
2665 13-02-2014 06:00:00 5.1 C 90 % 3.6 C
2666 13-02-2014 06:05:00 4.9 C 90 % 3.4 C
2667 13-02-2014 06:10:00 5.1 C 90 % 3.6 C
2668 13-02-2014 06:15:00 5.3 C 90 % 3.8 C
2669 13-02-2014 06:20:00 5.2 C 90 % 3.7 C
2670 13-02-2014 06:25:00 5.2 C 91 % 3.85 C
2671 13-02-2014 06:30:00 5.3 C 91 % 3.95 C
2672 13-02-2014 06:35:00 5.4 C 90 % 3.89 C
2673 13-02-2014 06:40:00 5.7 C 88 % 3.87 C
2674 13-02-2014 06:45:00 6.1 C 87 % 4.1 C
2675 13-02-2014 06:50:00 6.1 C 86 % 3.94 C
Sensor: Nr:Datum:Temp:Feuchte:Taupunkt:
Aussen-T/F 2676 13-02-2014 06:55:00 5.8 C 87 % 3.81 C
2677 13-02-2014 07:00:00 5.8 C 88 % 3.97 C
2678 13-02-2014 07:05:00 5.7 C 88 % 3.87 C
2679 13-02-2014 07:10:00 5.5 C 89 % 3.84 C
2680 13-02-2014 07:15:00 5.5 C 89 % 3.84 C
2681 13-02-2014 07:20:00 5.3 C 89 % 3.64 C
2682 13-02-2014 07:25:00 5.3 C 89 % 3.64 C
2683 13-02-2014 07:30:00 5.4 C 88 % 3.58 C
2684 13-02-2014 07:35:00 5.3 C 89 % 3.64 C
2685 13-02-2014 07:40:00 5.3 C 89 % 3.64 C
2686 13-02-2014 07:45:00 5.2 C 90 % 3.7 C
2687 13-02-2014 07:50:00 5.2 C 90 % 3.7 C
2688 13-02-2014 07:55:00 5.6 C 88 % 3.77 C
2689 13-02-2014 08:00:00 6 C 88 % 4.17 C
2690 13-02-2014 08:05:00 6 C 88 % 4.17 C
2691 13-02-2014 08:10:00 5.9 C 89 % 4.23 C
2692 13-02-2014 08:15:00 5.8 C 89 % 4.13 C
2693 13-02-2014 08:20:00 5.9 C 88 % 4.07 C
2694 13-02-2014 08:25:00 5.9 C 88 % 4.07 C
2695 13-02-2014 08:30:00 5.8 C 89 % 4.13 C
2696 13-02-2014 08:35:00 5.8 C 89 % 4.13 C
2697 13-02-2014 08:40:00 5.7 C 89 % 4.03 C
2698 13-02-2014 08:45:00 5.8 C 89 % 4.13 C
2699 13-02-2014 08:50:00 5.9 C 88 % 4.07 C
2700 13-02-2014 08:55:00 6.1 C 88 % 4.27 C
Sensor: Nr:Datum:Temp:Feuchte:Taupunkt:
Aussen-T/F 2701 13-02-2014 09:00:00 6.2 C 87 % 4.2 C
2702 13-02-2014 09:05:00 6.2 C 88 % 4.36 C
2703 13-02-2014 09:10:00 6.1 C 87 % 4.1 C
2704 13-02-2014 09:15:00 6.2 C 88 % 4.36 C
2705 13-02-2014 09:20:00 6.2 C 88 % 4.36 C
2706 13-02-2014 09:25:00 6.2 C 89 % 4.53 C
2707 13-02-2014 09:30:00 6.2 C 89 % 4.53 C
2708 13-02-2014 09:35:00 6.2 C 89 % 4.53 C
2709 13-02-2014 09:40:00 6.3 C 88 % 4.46 C
2710 13-02-2014 09:45:00 6.4 C 87 % 4.4 C
2711 13-02-2014 09:50:00 6.7 C 85 % 4.36 C
2712 13-02-2014 09:55:00 6.8 C 85 % 4.46 C
2713 13-02-2014 10:00:00 6.9 C 84 % 4.39 C
2714 13-02-2014 10:05:00 7.1 C 84 % 4.58 C
2715 13-02-2014 10:10:00 7.2 C 83 % 4.51 C
2716 13-02-2014 10:15:00 7.3 C 82 % 4.44 C
2717 13-02-2014 10:20:00 7.4 C 82 % 4.53 C
2718 13-02-2014 10:25:00 7.6 C 82 % 4.73 C
2719 13-02-2014 10:30:00 7.6 C 82 % 4.73 C
2720 13-02-2014 10:35:00 7.7 C 82 % 4.83 C
2721 13-02-2014 10:40:00 7.7 C 82 % 4.83 C
2722 13-02-2014 10:45:00 7.8 C 81 % 4.75 C
2723 13-02-2014 10:50:00 7.8 C 81 % 4.75 C
2724 13-02-2014 10:55:00 7.9 C 82 % 5.02 C
2725 13-02-2014 11:00:00 7.9 C 82 % 5.02 C
Sensor: Nr:Datum:Temp:Feuchte:Taupunkt:
Aussen-T/F 2726 13-02-2014 11:05:00 7.9 C 81 % 4.85 C
2727 13-02-2014 11:10:00 7.9 C 83 % 5.2 C
2728 13-02-2014 11:15:00 7.9 C 82 % 5.02 C
2729 13-02-2014 11:20:00 7.9 C 82 % 5.02 C
2730 13-02-2014 11:25:00 7.9 C 82 % 5.02 C
2731 13-02-2014 11:30:00 7.9 C 82 % 5.02 C
2732 13-02-2014 11:35:00 7.9 C 82 % 5.02 C
2733 13-02-2014 11:40:00 7.9 C 83 % 5.2 C
2734 13-02-2014 11:45:00 8 C 83 % 5.29 C
2735 13-02-2014 11:50:00 7.9 C 84 % 5.37 C
2736 13-02-2014 11:55:00 7.9 C 84 % 5.37 C
2737 13-02-2014 12:00:00 7.9 C 85 % 5.54 C
2738 13-02-2014 12:05:00 7.8 C 86 % 5.61 C
2739 13-02-2014 12:10:00 7.8 C 86 % 5.61 C
2740 13-02-2014 12:15:00 7.7 C 88 % 5.84 C
2741 13-02-2014 12:20:00 7.6 C 88 % 5.74 C
2742 13-02-2014 12:25:00 7.4 C 90 % 5.87 C
2743 13-02-2014 12:30:00 7.2 C 91 % 5.83 C
2744 13-02-2014 12:35:00 7.1 C 91 % 5.73 C
2745 13-02-2014 12:40:00 6.8 C 88 % 4.96 C
2746 13-02-2014 12:45:00 6.8 C 90 % 5.28 C
2747 13-02-2014 12:50:00 6.7 C 91 % 5.34 C
2748 13-02-2014 12:55:00 6.6 C 91 % 5.24 C
2749 13-02-2014 13:00:00 6.5 C 92 % 5.3 C
2750 13-02-2014 13:05:00 6.3 C 91 % 4.94 C
Sensor: Nr:Datum:Temp:Feuchte:Taupunkt:
Aussen-T/F 2751 13-02-2014 13:10:00 6.2 C 91 % 4.84 C
2752 13-02-2014 13:15:00 6.1 C 91 % 4.74 C
2753 13-02-2014 13:20:00 5.9 C 91 % 4.55 C
2754 13-02-2014 13:25:00 5.9 C 92 % 4.7 C
2755 13-02-2014 13:30:00 5.8 C 91 % 4.45 C
2756 13-02-2014 13:35:00 5.8 C 92 % 4.6 C
2757 13-02-2014 13:40:00 5.8 C 92 % 4.6 C
2758 13-02-2014 13:45:00 5.7 C 92 % 4.5 C
2759 13-02-2014 13:50:00 5.6 C 92 % 4.41 C
2760 13-02-2014 13:55:00 5.4 C 91 % 4.05 C
2761 13-02-2014 14:00:00 5.4 C 91 % 4.05 C
2762 13-02-2014 14:05:00 5.3 C 92 % 4.11 C
2763 13-02-2014 14:10:00 5.3 C 92 % 4.11 C
2764 13-02-2014 14:15:00 5.2 C 92 % 4.01 C
2765 13-02-2014 14:20:00 5.1 C 92 % 3.91 C
2766 13-02-2014 14:25:00 5 C 92 % 3.81 C
2767 13-02-2014 14:30:00 4.8 C 92 % 3.61 C
2768 13-02-2014 14:35:00 4.8 C 92 % 3.61 C
2769 13-02-2014 14:40:00 4.7 C 93 % 3.67 C
2770 13-02-2014 14:45:00 4.7 C 93 % 3.67 C
2771 13-02-2014 14:50:00 4.6 C 92 % 3.42 C
2772 13-02-2014 14:55:00 4.6 C 93 % 3.57 C
2773 13-02-2014 15:00:00 4.6 C 92 % 3.42 C
2774 13-02-2014 15:05:00 4.6 C 93 % 3.57 C
2775 13-02-2014 15:10:00 4.6 C 93 % 3.57 C
Sensor: Nr:Datum:Temp:Feuchte:Taupunkt:
Aussen-T/F 2776 13-02-2014 15:15:00 4.6 C 93 % 3.57 C
2777 13-02-2014 15:20:00 4.6 C 93 % 3.57 C
2778 13-02-2014 15:25:00 4.7 C 94 % 3.82 C
2779 13-02-2014 15:30:00 4.7 C 94 % 3.82 C
2780 13-02-2014 15:35:00 4.6 C 94 % 3.72 C
2781 13-02-2014 15:40:00 4.6 C 94 % 3.72 C
2782 13-02-2014 15:45:00 4.6 C 94 % 3.72 C
2783 13-02-2014 15:50:00 4.6 C 94 % 3.72 C
2784 13-02-2014 15:55:00 4.6 C 94 % 3.72 C
2785 13-02-2014 16:00:00 4.6 C 94 % 3.72 C
2786 13-02-2014 16:05:00 4.6 C 94 % 3.72 C
2787 13-02-2014 16:10:00 4.6 C 94 % 3.72 C
2788 13-02-2014 16:15:00 4.6 C 94 % 3.72 C
2789 13-02-2014 16:20:00 4.6 C 94 % 3.72 C
2790 13-02-2014 16:25:00 4.6 C 94 % 3.72 C
2791 13-02-2014 16:30:00 4.6 C 94 % 3.72 C
2792 13-02-2014 16:35:00 4.5 C 93 % 3.47 C
2793 13-02-2014 16:40:00 4.5 C 94 % 3.62 C
2794 13-02-2014 16:45:00 4.5 C 94 % 3.62 C
2795 13-02-2014 16:50:00 4.5 C 94 % 3.62 C
2796 13-02-2014 16:55:00 4.4 C 94 % 3.52 C
2797 13-02-2014 17:00:00 4.4 C 94 % 3.52 C
2798 13-02-2014 17:05:00 4.4 C 94 % 3.52 C
2799 13-02-2014 17:10:00 4.5 C 94 % 3.62 C
2800 13-02-2014 17:15:00 4.5 C 94 % 3.62 C
Sensor: Nr:Datum:Temp:Feuchte:Taupunkt:
Aussen-T/F 2801 13-02-2014 17:20:00 4.6 C 94 % 3.72 C
2802 13-02-2014 17:25:00 4.6 C 93 % 3.57 C
2803 13-02-2014 17:30:00 4.6 C 93 % 3.57 C
2804 13-02-2014 17:35:00 4.7 C 93 % 3.67 C
2805 13-02-2014 17:40:00 4.7 C 93 % 3.67 C
2806 13-02-2014 17:45:00 4.7 C 93 % 3.67 C
2807 13-02-2014 17:50:00 4.7 C 93 % 3.67 C
2808 13-02-2014 17:55:00 4.7 C 93 % 3.67 C
2809 13-02-2014 18:00:00 4.8 C 93 % 3.77 C
2810 13-02-2014 18:05:00 4.8 C 93 % 3.77 C
2811 13-02-2014 18:10:00 4.8 C 93 % 3.77 C
2812 13-02-2014 18:15:00 4.9 C 92 % 3.71 C
2813 13-02-2014 18:20:00 5 C 92 % 3.81 C
2814 13-02-2014 18:25:00 5.1 C 92 % 3.91 C
2815 13-02-2014 18:30:00 5.2 C 92 % 4.01 C
2816 13-02-2014 18:35:00 5.2 C 91 % 3.85 C
2817 13-02-2014 18:40:00 5.2 C 91 % 3.85 C
2818 13-02-2014 18:45:00 5.3 C 91 % 3.95 C
2819 13-02-2014 18:50:00 5.4 C 90 % 3.89 C
2820 13-02-2014 18:55:00 5.5 C 90 % 3.99 C
2821 13-02-2014 19:00:00 5.6 C 90 % 4.09 C
2822 13-02-2014 19:05:00 5.7 C 89 % 4.03 C
2823 13-02-2014 19:10:00 5.7 C 89 % 4.03 C
2824 13-02-2014 19:15:00 5.7 C 89 % 4.03 C
2825 13-02-2014 19:20:00 5.7 C 90 % 4.19 C
Sensor: Nr:Datum:Temp:Feuchte:Taupunkt:
Aussen-T/F 2826 13-02-2014 19:25:00 5.6 C 90 % 4.09 C
2827 13-02-2014 19:30:00 5.6 C 91 % 4.25 C
2828 13-02-2014 19:35:00 5.6 C 91 % 4.25 C
2829 13-02-2014 19:40:00 5.5 C 91 % 4.15 C
2830 13-02-2014 19:45:00 5.4 C 91 % 4.05 C
2831 13-02-2014 19:50:00 5.5 C 91 % 4.15 C
2832 13-02-2014 19:55:00 5.5 C 91 % 4.15 C
2833 13-02-2014 20:00:00 5.6 C 91 % 4.25 C
2834 13-02-2014 20:05:00 5.7 C 90 % 4.19 C
2835 13-02-2014 20:10:00 5.7 C 90 % 4.19 C
2836 13-02-2014 20:15:00 5.7 C 90 % 4.19 C
2837 13-02-2014 20:20:00 5.6 C 90 % 4.09 C
2838 13-02-2014 20:25:00 5.6 C 89 % 3.93 C
2839 13-02-2014 20:30:00 5.6 C 88 % 3.77 C
2840 13-02-2014 20:35:00 5.7 C 88 % 3.87 C
2841 13-02-2014 20:40:00 5.7 C 87 % 3.71 C
2842 13-02-2014 20:45:00 5.7 C 87 % 3.71 C
2843 13-02-2014 20:50:00 5.6 C 87 % 3.61 C
2844 13-02-2014 20:55:00 5.5 C 87 % 3.51 C
2845 13-02-2014 21:00:00 5.4 C 86 % 3.25 C
2846 13-02-2014 21:05:00 5.4 C 86 % 3.25 C
2847 13-02-2014 21:10:00 5.6 C 86 % 3.45 C
2848 13-02-2014 21:15:00 5.6 C 86 % 3.45 C
2849 13-02-2014 21:20:00 5.5 C 86 % 3.35 C
2850 13-02-2014 21:25:00 5.4 C 85 % 3.09 C
Sensor: Nr:Datum:Temp:Feuchte:Taupunkt:
Aussen-T/F 2851 13-02-2014 21:30:00 5.3 C 86 % 3.15 C
2852 13-02-2014 21:35:00 5.3 C 85 % 2.99 C
2853 13-02-2014 21:40:00 5.3 C 85 % 2.99 C
2854 13-02-2014 21:45:00 5.4 C 84 % 2.92 C
2855 13-02-2014 21:50:00 5.4 C 83 % 2.75 C
2856 13-02-2014 21:55:00 5.4 C 83 % 2.75 C
2857 13-02-2014 22:00:00 5.3 C 83 % 2.65 C
2858 13-02-2014 22:05:00 5.3 C 82 % 2.48 C
2859 13-02-2014 22:10:00 5.2 C 82 % 2.39 C
2860 13-02-2014 22:15:00 5.3 C 81 % 2.31 C
2861 13-02-2014 22:20:00 5.3 C 81 % 2.31 C
2862 13-02-2014 22:25:00 5.2 C 82 % 2.39 C
2863 13-02-2014 22:30:00 5.1 C 83 % 2.46 C
2864 13-02-2014 22:35:00 4.9 C 84 % 2.43 C
2865 13-02-2014 22:40:00 4.6 C 85 % 2.3 C
2866 13-02-2014 22:45:00 4.4 C 85 % 2.11 C
2867 13-02-2014 22:50:00 4.4 C 85 % 2.11 C
2868 13-02-2014 22:55:00 4.6 C 84 % 2.14 C
2869 13-02-2014 23:00:00 4.7 C 83 % 2.07 C
2870 13-02-2014 23:05:00 4.8 C 83 % 2.16 C
2871 13-02-2014 23:10:00 4.8 C 83 % 2.16 C
2872 13-02-2014 23:15:00 4.7 C 84 % 2.23 C
2873 13-02-2014 23:20:00 4.5 C 85 % 2.2 C
2874 13-02-2014 23:25:00 4.3 C 86 % 2.17 C
2875 13-02-2014 23:30:00 4.3 C 85 % 2.01 C
Sensor: Nr:Datum:Temp:Feuchte:Taupunkt:
Aussen-T/F 2876 13-02-2014 23:35:00 4.3 C 86 % 2.17 C
2877 13-02-2014 23:40:00 4.1 C 86 % 1.97 C
2878 13-02-2014 23:45:00 4.1 C 86 % 1.97 C
2879 13-02-2014 23:50:00 4.2 C 86 % 2.07 C
2880 13-02-2014 23:55:00 4.3 C 85 % 2.01 C
2881 14-02-2014 00:00:00 4.6 C 84 % 2.14 C
2882 14-02-2014 00:05:00 4.7 C 84 % 2.23 C
2883 14-02-2014 00:10:00 4.8 C 84 % 2.33 C
2884 14-02-2014 00:15:00 4.8 C 85 % 2.5 C
2885 14-02-2014 00:20:00 4.6 C 86 % 2.47 C
2886 14-02-2014 00:25:00 4.4 C 85 % 2.11 C
2887 14-02-2014 00:30:00 4.2 C 86 % 2.07 C
2888 14-02-2014 00:35:00 4.2 C 86 % 2.07 C
2889 14-02-2014 00:40:00 4.2 C 87 % 2.23 C
2890 14-02-2014 00:45:00 4.3 C 86 % 2.17 C
2891 14-02-2014 00:50:00 4.4 C 86 % 2.27 C
2892 14-02-2014 00:55:00 4.3 C 86 % 2.17 C
2893 14-02-2014 01:00:00 4.3 C 86 % 2.17 C
2894 14-02-2014 01:05:00 4.3 C 86 % 2.17 C
2895 14-02-2014 01:10:00 4.3 C 86 % 2.17 C
2896 14-02-2014 01:15:00 4.4 C 86 % 2.27 C
2897 14-02-2014 01:20:00 4.4 C 86 % 2.27 C
2898 14-02-2014 01:25:00 4.4 C 86 % 2.27 C
2899 14-02-2014 01:30:00 4.3 C 86 % 2.17 C
2900 14-02-2014 01:35:00 4.2 C 86 % 2.07 C
Sensor: Nr:Datum:Temp:Feuchte:Taupunkt:
Aussen-T/F 2901 14-02-2014 01:40:00 4.2 C 86 % 2.07 C
2902 14-02-2014 01:45:00 4.4 C 85 % 2.11 C
2903 14-02-2014 01:50:00 4.5 C 85 % 2.2 C
2904 14-02-2014 01:55:00 4.7 C 84 % 2.23 C
2905 14-02-2014 02:00:00 4.7 C 84 % 2.23 C
2906 14-02-2014 02:05:00 4.8 C 84 % 2.33 C
2907 14-02-2014 02:10:00 4.7 C 84 % 2.23 C
2908 14-02-2014 02:15:00 4.7 C 84 % 2.23 C
2909 14-02-2014 02:20:00 4.8 C 83 % 2.16 C
2910 14-02-2014 02:25:00 4.8 C 83 % 2.16 C
2911 14-02-2014 02:30:00 4.9 C 84 % 2.43 C
2912 14-02-2014 02:35:00 5 C 83 % 2.36 C
2913 14-02-2014 02:40:00 5.1 C 83 % 2.46 C
2914 14-02-2014 02:45:00 5.1 C 82 % 2.29 C
2915 14-02-2014 02:50:00 5.2 C 82 % 2.39 C
2916 14-02-2014 02:55:00 5.2 C 82 % 2.39 C
2917 14-02-2014 03:00:00 5.1 C 82 % 2.29 C
2918 14-02-2014 03:05:00 5 C 83 % 2.36 C
2919 14-02-2014 03:10:00 4.9 C 83 % 2.26 C
2920 14-02-2014 03:15:00 4.9 C 83 % 2.26 C
2921 14-02-2014 03:20:00 4.9 C 83 % 2.26 C
2922 14-02-2014 03:25:00 4.9 C 83 % 2.26 C
2923 14-02-2014 03:30:00 4.9 C 83 % 2.26 C
2924 14-02-2014 03:35:00 5 C 82 % 2.19 C
2925 14-02-2014 03:40:00 5.1 C 82 % 2.29 C
Sensor: Nr:Datum:Temp:Feuchte:Taupunkt:
Aussen-T/F 2926 14-02-2014 03:45:00 5 C 82 % 2.19 C
2927 14-02-2014 03:50:00 5.1 C 82 % 2.29 C
2928 14-02-2014 03:55:00 5 C 81 % 2.02 C
2929 14-02-2014 04:00:00 5 C 81 % 2.02 C
2930 14-02-2014 04:05:00 4.9 C 81 % 1.92 C
2931 14-02-2014 04:10:00 4.9 C 82 % 2.09 C
2932 14-02-2014 04:15:00 4.8 C 83 % 2.16 C
2933 14-02-2014 04:20:00 4.7 C 82 % 1.9 C
2934 14-02-2014 04:25:00 4.7 C 83 % 2.07 C
2935 14-02-2014 04:30:00 4.6 C 83 % 1.97 C
2936 14-02-2014 04:35:00 4.6 C 83 % 1.97 C
2937 14-02-2014 04:40:00 4.6 C 82 % 1.8 C
2938 14-02-2014 04:45:00 4.6 C 82 % 1.8 C
2939 14-02-2014 04:50:00 4.5 C 83 % 1.87 C
2940 14-02-2014 04:55:00 4.4 C 83 % 1.77 C
2941 14-02-2014 05:00:00 4.2 C 84 % 1.74 C
2942 14-02-2014 05:05:00 4.2 C 84 % 1.74 C
2943 14-02-2014 05:10:00 4.2 C 84 % 1.74 C
2944 14-02-2014 05:15:00 4.3 C 84 % 1.84 C
2945 14-02-2014 05:20:00 4.4 C 83 % 1.77 C
2946 14-02-2014 05:25:00 4.3 C 83 % 1.67 C
2947 14-02-2014 05:30:00 4.3 C 83 % 1.67 C
2948 14-02-2014 05:35:00 4.2 C 84 % 1.74 C
2949 14-02-2014 05:40:00 4.2 C 84 % 1.74 C
2950 14-02-2014 05:45:00 4.1 C 84 % 1.65 C
Sensor: Nr:Datum:Temp:Feuchte:Taupunkt:
Aussen-T/F 2951 14-02-2014 05:50:00 4 C 85 % 1.71 C
2952 14-02-2014 05:55:00 3.9 C 85 % 1.61 C
2953 14-02-2014 06:00:00 3.8 C 86 % 1.68 C
2954 14-02-2014 06:05:00 3.9 C 85 % 1.61 C
2955 14-02-2014 06:10:00 3.9 C 85 % 1.61 C
2956 14-02-2014 06:15:00 3.9 C 85 % 1.61 C
2957 14-02-2014 06:20:00 4 C 85 % 1.71 C
2958 14-02-2014 06:25:00 4 C 85 % 1.71 C
2959 14-02-2014 06:30:00 3.9 C 84 % 1.45 C
2960 14-02-2014 06:35:00 4 C 84 % 1.55 C
2961 14-02-2014 06:40:00 4.1 C 83 % 1.48 C
2962 14-02-2014 06:45:00 4.1 C 83 % 1.48 C
2963 14-02-2014 06:50:00 3.9 C 84 % 1.45 C
2964 14-02-2014 06:55:00 3.6 C 86 % 1.48 C
2965 14-02-2014 07:00:00 3.3 C 87 % 1.35 C
2966 14-02-2014 07:05:00 3 C 88 % 1.21 C
2967 14-02-2014 07:10:00 2.9 C 89 % 1.27 C
2968 14-02-2014 07:15:00 2.7 C 89 % 1.07 C
2969 14-02-2014 07:20:00 2.6 C 90 % 1.13 C
2970 14-02-2014 07:25:00 2.6 C 90 % 1.13 C
2971 14-02-2014 07:30:00 2.7 C 90 % 1.23 C
2972 14-02-2014 07:35:00 2.8 C 90 % 1.33 C
2973 14-02-2014 07:40:00 2.8 C 90 % 1.33 C
2974 14-02-2014 07:45:00 2.8 C 91 % 1.48 C
2975 14-02-2014 07:50:00 2.8 C 92 % 1.63 C
Sensor: Nr:Datum:Temp:Feuchte:Taupunkt:
Aussen-T/F 2976 14-02-2014 07:55:00 2.9 C 92 % 1.73 C
2977 14-02-2014 08:00:00 3 C 92 % 1.83 C
2978 14-02-2014 08:05:00 3.2 C 91 % 1.88 C
2979 14-02-2014 08:10:00 3.3 C 91 % 1.98 C
2980 14-02-2014 08:15:00 3.3 C 91 % 1.98 C
2981 14-02-2014 08:20:00 3.4 C 91 % 2.07 C
2982 14-02-2014 08:25:00 3.6 C 91 % 2.27 C
2983 14-02-2014 08:30:00 3.7 C 90 % 2.22 C
2984 14-02-2014 08:35:00 3.8 C 90 % 2.31 C
2985 14-02-2014 08:40:00 3.9 C 90 % 2.41 C
2986 14-02-2014 08:45:00 4 C 89 % 2.36 C
2987 14-02-2014 08:50:00 4.2 C 89 % 2.55 C
2988 14-02-2014 08:55:00 4.3 C 88 % 2.49 C
2989 14-02-2014 09:00:00 4.5 C 87 % 2.53 C
2990 14-02-2014 09:05:00 4.7 C 87 % 2.73 C
2991 14-02-2014 09:10:00 4.8 C 86 % 2.66 C
2992 14-02-2014 09:15:00 4.9 C 85 % 2.6 C
2993 14-02-2014 09:20:00 5.1 C 85 % 2.79 C
2994 14-02-2014 09:25:00 5.2 C 85 % 2.89 C
2995 14-02-2014 09:30:00 5.3 C 84 % 2.82 C
2996 14-02-2014 09:35:00 5.4 C 83 % 2.75 C
2997 14-02-2014 09:40:00 5.5 C 83 % 2.85 C
2998 14-02-2014 09:45:00 5.6 C 83 % 2.95 C
2999 14-02-2014 09:50:00 5.6 C 82 % 2.78 C
3000 14-02-2014 09:55:00 5.7 C 82 % 2.87 C
Sensor: Nr:Datum:Temp:Feuchte:Taupunkt:
Aussen-T/F 3001 14-02-2014 10:00:00 5.7 C 82 % 2.87 C
3002 14-02-2014 10:05:00 5.7 C 82 % 2.87 C
3003 14-02-2014 10:10:00 5.7 C 81 % 2.7 C
3004 14-02-2014 10:15:00 5.8 C 81 % 2.8 C
3005 14-02-2014 10:20:00 5.8 C 82 % 2.97 C
3006 14-02-2014 10:25:00 5.8 C 83 % 3.14 C
3007 14-02-2014 10:30:00 5.9 C 82 % 3.07 C
3008 14-02-2014 10:35:00 5.9 C 82 % 3.07 C
3009 14-02-2014 10:40:00 6 C 81 % 2.99 C
3010 14-02-2014 10:45:00 6.1 C 81 % 3.09 C
3011 14-02-2014 10:50:00 6.1 C 81 % 3.09 C
3012 14-02-2014 10:55:00 6.2 C 82 % 3.36 C
3013 14-02-2014 11:00:00 6.3 C 82 % 3.46 C
3014 14-02-2014 11:05:00 6.3 C 81 % 3.29 C
3015 14-02-2014 11:10:00 6.4 C 81 % 3.38 C
3016 14-02-2014 11:15:00 6.4 C 80 % 3.21 C
3017 14-02-2014 11:20:00 6.6 C 80 % 3.4 C
3018 14-02-2014 11:25:00 6.6 C 79 % 3.23 C
3019 14-02-2014 11:30:00 6.7 C 79 % 3.32 C
3020 14-02-2014 11:35:00 6.7 C 79 % 3.32 C
3021 14-02-2014 11:40:00 6.7 C 80 % 3.5 C
3022 14-02-2014 11:45:00 6.8 C 79 % 3.42 C
3023 14-02-2014 11:50:00 7 C 80 % 3.79 C
3024 14-02-2014 11:55:00 7.2 C 79 % 3.81 C
3025 14-02-2014 12:00:00 7.3 C 78 % 3.73 C
Sensor: Nr:Datum:Temp:Feuchte:Taupunkt:
Aussen-T/F 3026 14-02-2014 12:05:00 7.4 C 78 % 3.82 C
3027 14-02-2014 12:10:00 7.5 C 77 % 3.74 C
3028 14-02-2014 12:15:00 7.6 C 78 % 4.02 C
3029 14-02-2014 12:20:00 7.7 C 77 % 3.93 C
3030 14-02-2014 12:25:00 7.8 C 76 % 3.84 C
3031 14-02-2014 12:30:00 7.8 C 76 % 3.84 C
3032 14-02-2014 12:35:00 7.9 C 76 % 3.94 C
3033 14-02-2014 12:40:00 8.1 C 78 % 4.5 C
3034 14-02-2014 12:45:00 8.1 C 76 % 4.13 C
3035 14-02-2014 12:50:00 8.1 C 76 % 4.13 C
3036 14-02-2014 12:55:00 8.1 C 77 % 4.32 C
3037 14-02-2014 13:00:00 8.1 C 77 % 4.32 C
3038 14-02-2014 13:05:00 8.1 C 75 % 3.94 C
3039 14-02-2014 13:10:00 8.1 C 75 % 3.94 C
3040 14-02-2014 13:15:00 8.1 C 77 % 4.32 C
3041 14-02-2014 13:20:00 8.1 C 76 % 4.13 C
3042 14-02-2014 13:25:00 8.2 C 76 % 4.23 C
3043 14-02-2014 13:30:00 8.2 C 75 % 4.04 C
3044 14-02-2014 13:35:00 8.2 C 76 % 4.23 C
3045 14-02-2014 13:40:00 8.2 C 76 % 4.23 C
3046 14-02-2014 13:45:00 8.3 C 75 % 4.14 C
3047 14-02-2014 13:50:00 8.2 C 76 % 4.23 C
3048 14-02-2014 13:55:00 8.2 C 76 % 4.23 C
3049 14-02-2014 14:00:00 8.1 C 76 % 4.13 C
3050 14-02-2014 14:05:00 8.1 C 77 % 4.32 C
Sensor: Nr:Datum:Temp:Feuchte:Taupunkt:
Aussen-T/F 3051 14-02-2014 14:10:00 8.1 C 78 % 4.5 C
3052 14-02-2014 14:15:00 8.1 C 77 % 4.32 C
3053 14-02-2014 14:20:00 8.1 C 76 % 4.13 C
3054 14-02-2014 14:25:00 8.2 C 77 % 4.42 C
3055 14-02-2014 14:30:00 8.2 C 76 % 4.23 C
3056 14-02-2014 14:35:00 8.2 C 76 % 4.23 C
3057 14-02-2014 14:40:00 8.3 C 78 % 4.7 C
3058 14-02-2014 14:45:00 8.3 C 76 % 4.33 C
3059 14-02-2014 14:50:00 8.3 C 76 % 4.33 C
3060 14-02-2014 14:55:00 8.3 C 76 % 4.33 C
3061 14-02-2014 15:00:00 8.2 C 77 % 4.42 C
3062 14-02-2014 15:05:00 8.2 C 78 % 4.6 C
3063 14-02-2014 15:10:00 8.2 C 77 % 4.42 C
3064 14-02-2014 15:15:00 8.2 C 77 % 4.42 C
3065 14-02-2014 15:20:00 8.2 C 78 % 4.6 C
3066 14-02-2014 15:25:00 8.3 C 77 % 4.51 C
3067 14-02-2014 15:30:00 8.3 C 78 % 4.7 C
3068 14-02-2014 15:35:00 8.4 C 78 % 4.79 C
3069 14-02-2014 15:40:00 8.4 C 78 % 4.79 C
3070 14-02-2014 15:45:00 8.4 C 78 % 4.79 C
3071 14-02-2014 15:50:00 8.4 C 78 % 4.79 C
3072 14-02-2014 15:55:00 8.4 C 77 % 4.61 C
3073 14-02-2014 16:00:00 8.4 C 77 % 4.61 C
3074 14-02-2014 16:05:00 8.4 C 78 % 4.79 C
3075 14-02-2014 16:10:00 8.4 C 77 % 4.61 C
Sensor: Nr:Datum:Temp:Feuchte:Taupunkt:
Aussen-T/F 3076 14-02-2014 16:15:00 8.4 C 78 % 4.79 C
3077 14-02-2014 16:20:00 8.3 C 78 % 4.7 C
3078 14-02-2014 16:25:00 8.1 C 82 % 5.22 C
3079 14-02-2014 16:30:00 7.8 C 83 % 5.1 C
3080 14-02-2014 16:35:00 7.7 C 85 % 5.34 C
3081 14-02-2014 16:40:00 7.4 C 87 % 5.38 C
3082 14-02-2014 16:45:00 7.2 C 88 % 5.35 C
3083 14-02-2014 16:50:00 7.1 C 90 % 5.57 C
3084 14-02-2014 16:55:00 6.8 C 91 % 5.44 C
3085 14-02-2014 17:00:00 6.7 C 92 % 5.49 C
3086 14-02-2014 17:05:00 6.5 C 92 % 5.3 C
3087 14-02-2014 17:10:00 6.4 C 93 % 5.35 C
3088 14-02-2014 17:15:00 6.4 C 93 % 5.35 C
3089 14-02-2014 17:20:00 6.3 C 93 % 5.25 C
3090 14-02-2014 17:25:00 6.2 C 92 % 5 C
3091 14-02-2014 17:30:00 6.2 C 92 % 5 C
3092 14-02-2014 17:35:00 6.1 C 91 % 4.74 C
3093 14-02-2014 17:40:00 6.1 C 91 % 4.74 C
3094 14-02-2014 17:45:00 6.1 C 91 % 4.74 C
3095 14-02-2014 17:50:00 6.1 C 90 % 4.59 C
3096 14-02-2014 17:55:00 6 C 90 % 4.49 C
3097 14-02-2014 18:00:00 5.9 C 91 % 4.55 C
3098 14-02-2014 18:05:00 5.9 C 90 % 4.39 C
3099 14-02-2014 18:10:00 5.9 C 91 % 4.55 C
3100 14-02-2014 18:15:00 5.9 C 90 % 4.39 C
Sensor: Nr:Datum:Temp:Feuchte:Taupunkt:
Aussen-T/F 3101 14-02-2014 18:20:00 5.9 C 91 % 4.55 C
3102 14-02-2014 18:25:00 5.8 C 90 % 4.29 C
3103 14-02-2014 18:30:00 5.9 C 90 % 4.39 C
3104 14-02-2014 18:35:00 5.9 C 90 % 4.39 C
3105 14-02-2014 18:40:00 5.9 C 90 % 4.39 C
3106 14-02-2014 18:45:00 5.9 C 90 % 4.39 C
3107 14-02-2014 18:50:00 5.9 C 90 % 4.39 C
3108 14-02-2014 18:55:00 5.9 C 90 % 4.39 C
3109 14-02-2014 19:00:00 5.8 C 90 % 4.29 C
3110 14-02-2014 19:05:00 5.8 C 91 % 4.45 C
3111 14-02-2014 19:10:00 5.8 C 91 % 4.45 C
3112 14-02-2014 19:15:00 5.7 C 92 % 4.5 C
3113 14-02-2014 19:20:00 5.6 C 92 % 4.41 C
3114 14-02-2014 19:25:00 5.6 C 93 % 4.56 C
3115 14-02-2014 19:30:00 5.5 C 93 % 4.46 C
3116 14-02-2014 19:35:00 5.4 C 94 % 4.51 C
3117 14-02-2014 19:40:00 5.4 C 94 % 4.51 C
3118 14-02-2014 19:45:00 5.4 C 94 % 4.51 C
3119 14-02-2014 19:50:00 5.4 C 94 % 4.51 C
3120 14-02-2014 19:55:00 5.4 C 94 % 4.51 C
3121 14-02-2014 20:00:00 5.4 C 94 % 4.51 C
3122 14-02-2014 20:05:00 5.4 C 94 % 4.51 C
3123 14-02-2014 20:10:00 5.4 C 94 % 4.51 C
3124 14-02-2014 20:15:00 5.3 C 94 % 4.41 C
3125 14-02-2014 20:20:00 5.2 C 94 % 4.32 C
Sensor: Nr:Datum:Temp:Feuchte:Taupunkt:
Aussen-T/F 3126 14-02-2014 20:25:00 5.1 C 94 % 4.22 C
3127 14-02-2014 20:30:00 5 C 94 % 4.12 C
3128 14-02-2014 20:35:00 5 C 95 % 4.27 C
3129 14-02-2014 20:40:00 4.9 C 95 % 4.17 C
3130 14-02-2014 20:45:00 4.8 C 95 % 4.07 C
3131 14-02-2014 20:50:00 4.8 C 95 % 4.07 C
3132 14-02-2014 20:55:00 4.8 C 95 % 4.07 C
3133 14-02-2014 21:00:00 4.8 C 95 % 4.07 C
3134 14-02-2014 21:05:00 4.8 C 95 % 4.07 C
3135 14-02-2014 21:10:00 4.9 C 95 % 4.17 C
3136 14-02-2014 21:15:00 5 C 95 % 4.27 C
3137 14-02-2014 21:20:00 5.1 C 95 % 4.37 C
3138 14-02-2014 21:25:00 5.2 C 95 % 4.47 C
3139 14-02-2014 21:30:00 5.2 C 95 % 4.47 C
3140 14-02-2014 21:35:00 5.2 C 95 % 4.47 C
3141 14-02-2014 21:40:00 5.2 C 95 % 4.47 C
3142 14-02-2014 21:45:00 5.2 C 95 % 4.47 C
3143 14-02-2014 21:50:00 5.2 C 96 % 4.62 C
3144 14-02-2014 21:55:00 5.3 C 96 % 4.72 C
3145 14-02-2014 22:00:00 5.4 C 96 % 4.81 C
3146 14-02-2014 22:05:00 5.4 C 96 % 4.81 C
3147 14-02-2014 22:10:00 5.6 C 96 % 5.01 C
3148 14-02-2014 22:15:00 5.7 C 96 % 5.11 C
3149 14-02-2014 22:20:00 5.8 C 96 % 5.21 C
3150 14-02-2014 22:25:00 5.9 C 95 % 5.16 C
Sensor: Nr:Datum:Temp:Feuchte:Taupunkt:
Aussen-T/F 3151 14-02-2014 22:30:00 6.1 C 94 % 5.21 C
3152 14-02-2014 22:35:00 6.2 C 94 % 5.31 C
3153 14-02-2014 22:40:00 6.2 C 94 % 5.31 C
3154 14-02-2014 22:45:00 6.1 C 94 % 5.21 C
3155 14-02-2014 22:50:00 6.1 C 94 % 5.21 C
3156 14-02-2014 22:55:00 6.1 C 94 % 5.21 C
3157 14-02-2014 23:00:00 6 C 94 % 5.11 C
3158 14-02-2014 23:05:00 5.9 C 94 % 5.01 C
3159 14-02-2014 23:10:00 5.8 C 94 % 4.91 C
3160 14-02-2014 23:15:00 5.8 C 94 % 4.91 C
3161 14-02-2014 23:20:00 5.7 C 94 % 4.81 C
3162 14-02-2014 23:25:00 5.7 C 94 % 4.81 C
3163 14-02-2014 23:30:00 5.6 C 95 % 4.86 C
3164 14-02-2014 23:35:00 5.6 C 95 % 4.86 C
3165 14-02-2014 23:40:00 5.6 C 95 % 4.86 C
3166 14-02-2014 23:45:00 5.7 C 95 % 4.96 C
3167 14-02-2014 23:50:00 5.8 C 95 % 5.06 C
3168 14-02-2014 23:55:00 5.8 C 94 % 4.91 C
3169 15-02-2014 00:00:00 5.8 C 94 % 4.91 C
3170 15-02-2014 00:05:00 5.8 C 94 % 4.91 C
3171 15-02-2014 00:10:00 5.9 C 94 % 5.01 C
3172 15-02-2014 00:15:00 5.9 C 94 % 5.01 C
3173 15-02-2014 00:20:00 5.8 C 94 % 4.91 C
3174 15-02-2014 00:25:00 5.8 C 94 % 4.91 C
3175 15-02-2014 00:30:00 5.7 C 94 % 4.81 C
Sensor: Nr:Datum:Temp:Feuchte:Taupunkt:
Aussen-T/F 3176 15-02-2014 00:35:00 5.7 C 94 % 4.81 C
3177 15-02-2014 00:40:00 5.7 C 94 % 4.81 C
3178 15-02-2014 00:45:00 5.7 C 94 % 4.81 C
3179 15-02-2014 00:50:00 5.7 C 94 % 4.81 C
3180 15-02-2014 00:55:00 5.7 C 94 % 4.81 C
3181 15-02-2014 01:00:00 5.6 C 94 % 4.71 C
3182 15-02-2014 01:05:00 5.7 C 95 % 4.96 C
3183 15-02-2014 01:10:00 5.9 C 95 % 5.16 C
3184 15-02-2014 01:15:00 6.2 C 94 % 5.31 C
3185 15-02-2014 01:20:00 6.4 C 93 % 5.35 C
3186 15-02-2014 01:25:00 6.6 C 93 % 5.55 C
3187 15-02-2014 01:30:00 6.7 C 92 % 5.49 C
3188 15-02-2014 01:35:00 6.8 C 92 % 5.59 C
3189 15-02-2014 01:40:00 6.8 C 92 % 5.59 C
3190 15-02-2014 01:45:00 6.8 C 93 % 5.75 C
3191 15-02-2014 01:50:00 6.9 C 92 % 5.69 C
3192 15-02-2014 01:55:00 6.9 C 92 % 5.69 C
3193 15-02-2014 02:00:00 7.2 C 92 % 5.99 C
3194 15-02-2014 02:05:00 7.4 C 91 % 6.03 C
3195 15-02-2014 02:10:00 7.5 C 91 % 6.13 C
3196 15-02-2014 02:15:00 7.5 C 91 % 6.13 C
3197 15-02-2014 02:20:00 7.4 C 91 % 6.03 C
3198 15-02-2014 02:25:00 7.5 C 92 % 6.29 C
3199 15-02-2014 02:30:00 7.6 C 92 % 6.39 C
3200 15-02-2014 02:35:00 7.8 C 91 % 6.43 C
Sensor: Nr:Datum:Temp:Feuchte:Taupunkt:
Aussen-T/F 3201 15-02-2014 02:40:00 8.2 C 89 % 6.5 C
3202 15-02-2014 02:45:00 8.3 C 89 % 6.6 C
3203 15-02-2014 02:50:00 8.3 C 89 % 6.6 C
3204 15-02-2014 02:55:00 8.3 C 90 % 6.76 C
3205 15-02-2014 03:00:00 8.3 C 89 % 6.6 C
3206 15-02-2014 03:05:00 8.4 C 88 % 6.53 C
3207 15-02-2014 03:10:00 8.4 C 88 % 6.53 C
3208 15-02-2014 03:15:00 8.2 C 87 % 6.17 C
3209 15-02-2014 03:20:00 8 C 88 % 6.14 C
3210 15-02-2014 03:25:00 7.8 C 89 % 6.1 C
3211 15-02-2014 03:30:00 7.7 C 89 % 6 C
3212 15-02-2014 03:35:00 7.4 C 90 % 5.87 C
3213 15-02-2014 03:40:00 7.4 C 90 % 5.87 C
3214 15-02-2014 03:45:00 7.3 C 90 % 5.77 C
3215 15-02-2014 03:50:00 7.3 C 90 % 5.77 C
3216 15-02-2014 03:55:00 7.2 C 91 % 5.83 C
3217 15-02-2014 04:00:00 7.3 C 91 % 5.93 C
3218 15-02-2014 04:05:00 7.4 C 91 % 6.03 C
3219 15-02-2014 04:10:00 7.5 C 90 % 5.97 C
3220 15-02-2014 04:15:00 7.4 C 90 % 5.87 C
3221 15-02-2014 04:20:00 7.3 C 91 % 5.93 C
3222 15-02-2014 04:25:00 7.3 C 91 % 5.93 C
3223 15-02-2014 04:30:00 7.4 C 91 % 6.03 C
3224 15-02-2014 04:35:00 7.4 C 91 % 6.03 C
3225 15-02-2014 04:40:00 7.4 C 92 % 6.19 C
Sensor: Nr:Datum:Temp:Feuchte:Taupunkt:
Aussen-T/F 3226 15-02-2014 04:45:00 7.8 C 91 % 6.43 C
3227 15-02-2014 04:50:00 7.9 C 90 % 6.36 C
3228 15-02-2014 04:55:00 7.9 C 90 % 6.36 C
3229 15-02-2014 05:00:00 7.9 C 90 % 6.36 C
3230 15-02-2014 05:05:00 8 C 90 % 6.46 C
3231 15-02-2014 05:10:00 8.1 C 91 % 6.72 C
3232 15-02-2014 05:15:00 8.1 C 91 % 6.72 C
3233 15-02-2014 05:20:00 8.1 C 91 % 6.72 C
3234 15-02-2014 05:25:00 8.2 C 91 % 6.82 C
3235 15-02-2014 05:30:00 8.4 C 90 % 6.86 C
3236 15-02-2014 05:35:00 8.8 C 89 % 7.09 C
3237 15-02-2014 05:40:00 9 C 88 % 7.12 C
3238 15-02-2014 05:45:00 8.9 C 89 % 7.19 C
3239 15-02-2014 05:50:00 8.8 C 90 % 7.25 C
3240 15-02-2014 05:55:00 8.7 C 91 % 7.32 C
3241 15-02-2014 06:00:00 8.8 C 90 % 7.25 C
3242 15-02-2014 06:05:00 9.1 C 89 % 7.39 C
3243 15-02-2014 06:10:00 8.9 C 89 % 7.19 C
3244 15-02-2014 06:15:00 8.8 C 90 % 7.25 C
3245 15-02-2014 06:20:00 8.9 C 90 % 7.35 C
3246 15-02-2014 06:25:00 9.4 C 88 % 7.52 C
3247 15-02-2014 06:30:00 9.9 C 86 % 7.67 C
3248 15-02-2014 06:35:00 10 C 86 % 7.77 C
3249 15-02-2014 06:40:00 9.9 C 85 % 7.5 C
3250 15-02-2014 06:45:00 10.4 C 82 % 7.46 C
Sensor: Nr:Datum:Temp:Feuchte:Taupunkt:
Aussen-T/F 3251 15-02-2014 06:50:00 10.5 C 81 % 7.38 C
3252 15-02-2014 06:55:00 10.1 C 83 % 7.35 C
3253 15-02-2014 07:00:00 10.3 C 82 % 7.37 C
3254 15-02-2014 07:05:00 10.3 C 82 % 7.37 C
3255 15-02-2014 07:10:00 10.5 C 81 % 7.38 C
3256 15-02-2014 07:15:00 10.5 C 83 % 7.74 C
3257 15-02-2014 07:20:00 10.4 C 83 % 7.64 C
3258 15-02-2014 07:25:00 10.4 C 81 % 7.28 C
3259 15-02-2014 07:30:00 10.8 C 81 % 7.67 C
3260 15-02-2014 07:35:00 11.1 C 78 % 7.41 C
3261 15-02-2014 07:40:00 11.5 C 74 % 7.03 C
3262 15-02-2014 07:45:00 11.6 C 74 % 7.13 C
3263 15-02-2014 07:50:00 11.6 C 72 % 6.73 C
3264 15-02-2014 07:55:00 11.6 C 72 % 6.73 C
3265 15-02-2014 08:00:00 11.3 C 73 % 6.64 C
3266 15-02-2014 08:05:00 11.1 C 74 % 6.65 C
3267 15-02-2014 08:10:00 11.1 C 75 % 6.84 C
3268 15-02-2014 08:15:00 11.3 C 74 % 6.84 C
3269 15-02-2014 08:20:00 11.4 C 73 % 6.74 C
3270 15-02-2014 08:25:00 11.4 C 73 % 6.74 C
3271 15-02-2014 08:30:00 11.4 C 73 % 6.74 C
3272 15-02-2014 08:35:00 11.4 C 73 % 6.74 C
3273 15-02-2014 08:40:00 11.3 C 73 % 6.64 C
3274 15-02-2014 08:45:00 11.4 C 72 % 6.54 C
3275 15-02-2014 08:50:00 11.4 C 72 % 6.54 C
Sensor: Nr:Datum:Temp:Feuchte:Taupunkt:
Aussen-T/F 3276 15-02-2014 08:55:00 11.6 C 71 % 6.53 C
3277 15-02-2014 09:00:00 11.6 C 71 % 6.53 C
3278 15-02-2014 09:05:00 11.7 C 71 % 6.62 C
3279 15-02-2014 09:10:00 11.7 C 72 % 6.83 C
3280 15-02-2014 09:15:00 11.7 C 71 % 6.62 C
3281 15-02-2014 09:20:00 11.8 C 70 % 6.51 C
3282 15-02-2014 09:25:00 11.8 C 70 % 6.51 C
3283 15-02-2014 09:30:00 11.8 C 70 % 6.51 C
3284 15-02-2014 09:35:00 11.8 C 69 % 6.31 C
3285 15-02-2014 09:40:00 11.9 C 69 % 6.4 C
3286 15-02-2014 09:45:00 11.9 C 70 % 6.61 C
3287 15-02-2014 09:50:00 11.9 C 68 % 6.19 C
3288 15-02-2014 09:55:00 11.9 C 68 % 6.19 C
3289 15-02-2014 10:00:00 12 C 68 % 6.29 C
3290 15-02-2014 10:05:00 12 C 69 % 6.5 C
3291 15-02-2014 10:10:00 12 C 69 % 6.5 C
3292 15-02-2014 10:15:00 12 C 69 % 6.5 C
3293 15-02-2014 10:20:00 12 C 69 % 6.5 C
3294 15-02-2014 10:25:00 12 C 69 % 6.5 C
3295 15-02-2014 10:30:00 12 C 69 % 6.5 C
3296 15-02-2014 10:50:00 11.9 C 68 % 6.19 C
3297 15-02-2014 10:55:00 12.1 C 67 % 6.17 C
3298 15-02-2014 11:00:00 12.1 C 66 % 5.95 C
3299 15-02-2014 11:15:00 12.2 C 67 % 6.26 C
3300 15-02-2014 11:20:00 12.2 C 67 % 6.26 C
Sensor: Nr:Datum:Temp:Feuchte:Taupunkt:
Aussen-T/F 3301 15-02-2014 11:25:00 12.2 C 67 % 6.26 C
3302 15-02-2014 11:30:00 12.2 C 66 % 6.04 C
3303 15-02-2014 11:35:00 12.3 C 66 % 6.14 C
3304 15-02-2014 11:40:00 12.2 C 66 % 6.04 C
3305 15-02-2014 11:45:00 12.3 C 66 % 6.14 C
3306 15-02-2014 11:50:00 12.3 C 67 % 6.36 C
3307 15-02-2014 11:55:00 12.3 C 66 % 6.14 C
3308 15-02-2014 12:00:00 12.2 C 65 % 5.82 C
3309 15-02-2014 12:05:00 12.1 C 65 % 5.73 C
3310 15-02-2014 12:10:00 12.1 C 66 % 5.95 C
3311 15-02-2014 12:15:00 12.2 C 65 % 5.82 C
3312 15-02-2014 12:20:00 12.1 C 66 % 5.95 C
3313 15-02-2014 12:25:00 12.1 C 65 % 5.73 C
3314 15-02-2014 12:30:00 12.2 C 66 % 6.04 C
3315 15-02-2014 12:35:00 12.2 C 65 % 5.82 C
3316 15-02-2014 12:40:00 12.2 C 65 % 5.82 C
3317 15-02-2014 12:45:00 12.2 C 65 % 5.82 C
3318 15-02-2014 12:50:00 12.2 C 65 % 5.82 C
3319 15-02-2014 12:55:00 12.2 C 65 % 5.82 C
3320 15-02-2014 13:00:00 12.2 C 65 % 5.82 C
3321 15-02-2014 13:05:00 12.2 C 65 % 5.82 C
3322 15-02-2014 13:10:00 12.2 C 66 % 6.04 C
3323 15-02-2014 13:15:00 12.1 C 66 % 5.95 C
3324 15-02-2014 13:20:00 12.1 C 67 % 6.17 C
3325 15-02-2014 13:25:00 12.1 C 67 % 6.17 C
Sensor: Nr:Datum:Temp:Feuchte:Taupunkt:
Aussen-T/F 3326 15-02-2014 13:30:00 12.2 C 67 % 6.26 C
3327 15-02-2014 13:35:00 12.1 C 68 % 6.38 C
3328 15-02-2014 13:40:00 12.1 C 68 % 6.38 C
3329 15-02-2014 13:45:00 12.1 C 68 % 6.38 C
3330 15-02-2014 13:50:00 12.1 C 68 % 6.38 C
3331 15-02-2014 13:55:00 12.1 C 68 % 6.38 C
3332 15-02-2014 14:00:00 12.2 C 68 % 6.48 C
3333 15-02-2014 14:05:00 12.3 C 68 % 6.57 C
3334 15-02-2014 14:10:00 12.3 C 68 % 6.57 C
3335 15-02-2014 14:15:00 12.3 C 69 % 6.78 C
3336 15-02-2014 14:20:00 12.3 C 69 % 6.78 C
3337 15-02-2014 14:25:00 12.3 C 69 % 6.78 C
3338 15-02-2014 14:30:00 12.4 C 68 % 6.67 C
3339 15-02-2014 14:35:00 12.3 C 69 % 6.78 C
3340 15-02-2014 14:40:00 12.4 C 69 % 6.88 C
3341 15-02-2014 14:45:00 12.4 C 69 % 6.88 C
3342 15-02-2014 14:50:00 12.3 C 68 % 6.57 C
3343 15-02-2014 14:55:00 12.2 C 69 % 6.69 C
3344 15-02-2014 15:00:00 12.2 C 69 % 6.69 C
3345 15-02-2014 15:05:00 12.2 C 69 % 6.69 C
3346 15-02-2014 15:10:00 12.1 C 69 % 6.59 C
3347 15-02-2014 15:15:00 12.1 C 69 % 6.59 C
3348 15-02-2014 15:20:00 12 C 69 % 6.5 C
3349 15-02-2014 15:25:00 11.9 C 68 % 6.19 C
3350 15-02-2014 15:30:00 11.9 C 67 % 5.98 C
Sensor: Nr:Datum:Temp:Feuchte:Taupunkt:
Aussen-T/F 3351 15-02-2014 15:35:00 11.9 C 68 % 6.19 C
3352 15-02-2014 15:40:00 11.8 C 67 % 5.88 C
3353 15-02-2014 15:45:00 11.8 C 68 % 6.09 C
3354 15-02-2014 15:50:00 11.7 C 68 % 6 C
3355 15-02-2014 15:55:00 11.7 C 69 % 6.21 C
3356 15-02-2014 16:00:00 11.6 C 69 % 6.11 C
3357 15-02-2014 16:00:00 11.6 C 69 % 6.11 C
3358 15-02-2014 16:05:00 11.6 C 69 % 6.11 C
3359 15-02-2014 16:10:00 11.4 C 69 % 5.92 C
3360 15-02-2014 16:15:00 11.4 C 69 % 5.92 C
3361 15-02-2014 16:20:00 11.3 C 69 % 5.83 C
3362 15-02-2014 16:25:00 11.3 C 70 % 6.03 C
3363 15-02-2014 16:30:00 11.3 C 70 % 6.03 C
3364 15-02-2014 16:35:00 11.2 C 70 % 5.94 C
3365 15-02-2014 16:40:00 11.2 C 70 % 5.94 C
3366 15-02-2014 16:45:00 11.1 C 70 % 5.84 C
3367 15-02-2014 16:50:00 11.1 C 70 % 5.84 C
3368 15-02-2014 16:55:00 11 C 70 % 5.75 C
3369 15-02-2014 17:00:00 11 C 71 % 5.95 C
3370 15-02-2014 17:05:00 10.9 C 71 % 5.86 C
3371 15-02-2014 17:10:00 10.8 C 71 % 5.76 C
3372 15-02-2014 17:15:00 10.8 C 71 % 5.76 C
3373 15-02-2014 17:20:00 10.7 C 71 % 5.66 C
3374 15-02-2014 17:25:00 10.7 C 72 % 5.87 C
3375 15-02-2014 17:30:00 10.6 C 72 % 5.77 C
Sensor: Nr:Datum:Temp:Feuchte:Taupunkt:
Aussen-T/F 3376 15-02-2014 17:35:00 10.5 C 72 % 5.67 C
3377 15-02-2014 17:40:00 10.4 C 73 % 5.78 C
3378 15-02-2014 17:45:00 10.3 C 73 % 5.68 C
3379 15-02-2014 17:50:00 10.2 C 73 % 5.58 C
3380 15-02-2014 17:55:00 10.2 C 74 % 5.78 C
3381 15-02-2014 18:00:00 10.2 C 73 % 5.58 C
3382 15-02-2014 18:05:00 10.1 C 74 % 5.68 C
3383 15-02-2014 18:10:00 10.1 C 74 % 5.68 C
3384 15-02-2014 18:15:00 10 C 74 % 5.59 C
3385 15-02-2014 18:20:00 10.1 C 74 % 5.68 C
3386 15-02-2014 18:25:00 10 C 74 % 5.59 C
3387 15-02-2014 18:30:00 9.9 C 74 % 5.49 C
3388 15-02-2014 18:35:00 9.9 C 75 % 5.68 C
3389 15-02-2014 18:40:00 9.9 C 75 % 5.68 C
3390 15-02-2014 18:45:00 9.8 C 75 % 5.59 C
3391 15-02-2014 18:50:00 9.8 C 75 % 5.59 C
3392 15-02-2014 18:55:00 9.8 C 75 % 5.59 C
3393 15-02-2014 19:00:00 9.8 C 75 % 5.59 C
3394 15-02-2014 19:05:00 9.8 C 75 % 5.59 C
3395 15-02-2014 19:10:00 9.8 C 76 % 5.78 C
3396 15-02-2014 19:15:00 9.8 C 78 % 6.15 C
3397 15-02-2014 19:20:00 9.5 C 81 % 6.41 C
3398 15-02-2014 19:25:00 9.3 C 84 % 6.74 C
3399 15-02-2014 19:30:00 9 C 84 % 6.45 C
3400 15-02-2014 19:35:00 8.8 C 85 % 6.42 C
Sensor: Nr:Datum:Temp:Feuchte:Taupunkt:
Aussen-T/F 3401 15-02-2014 19:40:00 8.8 C 85 % 6.42 C
3402 15-02-2014 19:45:00 8.7 C 87 % 6.66 C
3403 15-02-2014 19:50:00 8.4 C 89 % 6.7 C
3404 15-02-2014 19:55:00 8.3 C 90 % 6.76 C
3405 15-02-2014 20:00:00 8.1 C 91 % 6.72 C
3406 15-02-2014 20:05:00 7.9 C 92 % 6.68 C
3407 15-02-2014 20:10:00 7.8 C 92 % 6.58 C
3408 15-02-2014 20:15:00 7.7 C 93 % 6.64 C
3409 15-02-2014 20:20:00 7.6 C 93 % 6.54 C
3410 15-02-2014 20:25:00 7.4 C 93 % 6.34 C
3411 15-02-2014 20:30:00 7.3 C 93 % 6.25 C
3412 15-02-2014 20:35:00 7.3 C 93 % 6.25 C
3413 15-02-2014 20:40:00 7.3 C 93 % 6.25 C
3414 15-02-2014 20:45:00 7.2 C 93 % 6.15 C
3415 15-02-2014 20:50:00 7.2 C 93 % 6.15 C
3416 15-02-2014 20:55:00 7.2 C 93 % 6.15 C
3417 15-02-2014 21:00:00 7.3 C 92 % 6.09 C
3418 15-02-2014 21:05:00 7.3 C 92 % 6.09 C
3419 15-02-2014 21:10:00 7.4 C 92 % 6.19 C
3420 15-02-2014 21:15:00 7.6 C 91 % 6.23 C
3421 15-02-2014 21:20:00 7.7 C 90 % 6.17 C
3422 15-02-2014 21:25:00 7.8 C 88 % 5.94 C
3423 15-02-2014 21:30:00 8 C 88 % 6.14 C
3424 15-02-2014 21:35:00 8 C 88 % 6.14 C
3425 15-02-2014 21:40:00 8.1 C 87 % 6.07 C
Sensor: Nr:Datum:Temp:Feuchte:Taupunkt:
Aussen-T/F 3426 15-02-2014 21:45:00 8.1 C 86 % 5.9 C
3427 15-02-2014 21:50:00 8.2 C 87 % 6.17 C
3428 15-02-2014 21:55:00 8.3 C 85 % 5.93 C
3429 15-02-2014 22:00:00 8.4 C 84 % 5.86 C
3430 15-02-2014 22:05:00 8.5 C 84 % 5.96 C
3431 15-02-2014 22:10:00 8.6 C 84 % 6.05 C
3432 15-02-2014 22:15:00 8.5 C 83 % 5.78 C
3433 15-02-2014 22:20:00 8.6 C 83 % 5.88 C
3434 15-02-2014 22:25:00 8.7 C 81 % 5.63 C
3435 15-02-2014 22:30:00 8.7 C 81 % 5.63 C
3436 15-02-2014 22:35:00 8.7 C 82 % 5.8 C
3437 15-02-2014 22:40:00 8.7 C 81 % 5.63 C
3438 15-02-2014 22:45:00 8.7 C 81 % 5.63 C
3439 15-02-2014 22:50:00 8.8 C 80 % 5.55 C
3440 15-02-2014 22:55:00 8.8 C 80 % 5.55 C
3441 15-02-2014 23:00:00 8.8 C 80 % 5.55 C
3442 15-02-2014 23:05:00 8.7 C 80 % 5.45 C
3443 15-02-2014 23:10:00 8.7 C 80 % 5.45 C
3444 15-02-2014 23:15:00 8.7 C 80 % 5.45 C
3445 15-02-2014 23:20:00 8.8 C 79 % 5.36 C
3446 15-02-2014 23:25:00 8.8 C 79 % 5.36 C
3447 15-02-2014 23:30:00 8.8 C 78 % 5.18 C
3448 15-02-2014 23:35:00 8.9 C 78 % 5.28 C
3449 15-02-2014 23:40:00 8.9 C 77 % 5.09 C
3450 15-02-2014 23:45:00 8.9 C 77 % 5.09 C
Sensor: Nr:Datum:Temp:Feuchte:Taupunkt:
Aussen-T/F 3451 15-02-2014 23:50:00 8.9 C 77 % 5.09 C
3452 15-02-2014 23:55:00 8.8 C 78 % 5.18 C
3453 16-02-2014 00:00:00 8.7 C 79 % 5.27 C
3454 16-02-2014 00:05:00 8.5 C 79 % 5.07 C
3455 16-02-2014 00:10:00 8.4 C 80 % 5.16 C
3456 16-02-2014 00:15:00 8.4 C 80 % 5.16 C
3457 16-02-2014 00:20:00 8.3 C 80 % 5.06 C
3458 16-02-2014 00:25:00 8.3 C 80 % 5.06 C
3459 16-02-2014 00:30:00 8.3 C 80 % 5.06 C
3460 16-02-2014 00:35:00 8.4 C 80 % 5.16 C
3461 16-02-2014 00:40:00 8.4 C 80 % 5.16 C
3462 16-02-2014 00:45:00 8.4 C 80 % 5.16 C
3463 16-02-2014 00:50:00 8.4 C 79 % 4.98 C
3464 16-02-2014 00:55:00 8.4 C 79 % 4.98 C
3465 16-02-2014 01:00:00 8.6 C 78 % 4.99 C
3466 16-02-2014 01:05:00 8.6 C 78 % 4.99 C
3467 16-02-2014 01:10:00 8.6 C 77 % 4.8 C
3468 16-02-2014 01:15:00 8.6 C 77 % 4.8 C
3469 16-02-2014 01:20:00 8.5 C 77 % 4.71 C
3470 16-02-2014 01:25:00 8.4 C 77 % 4.61 C
3471 16-02-2014 01:30:00 8.4 C 78 % 4.79 C
3472 16-02-2014 01:35:00 8.4 C 78 % 4.79 C
3473 16-02-2014 01:40:00 8.4 C 78 % 4.79 C
3474 16-02-2014 01:45:00 8.3 C 79 % 4.88 C
3475 16-02-2014 01:50:00 8.3 C 79 % 4.88 C
Sensor: Nr:Datum:Temp:Feuchte:Taupunkt:
Aussen-T/F 3476 16-02-2014 01:55:00 8.3 C 79 % 4.88 C
3477 16-02-2014 02:00:00 8.4 C 78 % 4.79 C
3478 16-02-2014 02:05:00 8.4 C 78 % 4.79 C
3479 16-02-2014 02:10:00 8.4 C 78 % 4.79 C
3480 16-02-2014 02:15:00 8.3 C 78 % 4.7 C
3481 16-02-2014 02:20:00 8.3 C 78 % 4.7 C
3482 16-02-2014 02:25:00 8.3 C 78 % 4.7 C
3483 16-02-2014 02:30:00 8.2 C 78 % 4.6 C
3484 16-02-2014 02:35:00 8.2 C 78 % 4.6 C
3485 16-02-2014 02:40:00 8.2 C 79 % 4.78 C
3486 16-02-2014 02:45:00 8.2 C 78 % 4.6 C
3487 16-02-2014 02:50:00 8.2 C 78 % 4.6 C
3488 16-02-2014 02:55:00 8.2 C 78 % 4.6 C
3489 16-02-2014 03:00:00 8.2 C 77 % 4.42 C
3490 16-02-2014 03:05:00 8.2 C 77 % 4.42 C
3491 16-02-2014 03:10:00 7.9 C 78 % 4.31 C
3492 16-02-2014 03:15:00 7.9 C 78 % 4.31 C
3493 16-02-2014 03:20:00 7.8 C 78 % 4.21 C
3494 16-02-2014 03:25:00 7.7 C 79 % 4.3 C
3495 16-02-2014 03:30:00 7.7 C 79 % 4.3 C
3496 16-02-2014 03:35:00 7.8 C 78 % 4.21 C
3497 16-02-2014 03:40:00 7.9 C 78 % 4.31 C
3498 16-02-2014 03:45:00 8.1 C 77 % 4.32 C
3499 16-02-2014 03:50:00 8.2 C 77 % 4.42 C
3500 16-02-2014 03:55:00 8.1 C 77 % 4.32 C
Sensor: Nr:Datum:Temp:Feuchte:Taupunkt:
Aussen-T/F 3501 16-02-2014 04:00:00 8.1 C 77 % 4.32 C
3502 16-02-2014 04:05:00 8.1 C 76 % 4.13 C
3503 16-02-2014 04:10:00 8.1 C 76 % 4.13 C
3504 16-02-2014 04:15:00 8.1 C 75 % 3.94 C
3505 16-02-2014 04:20:00 8.2 C 75 % 4.04 C
3506 16-02-2014 04:25:00 8.2 C 75 % 4.04 C
3507 16-02-2014 04:30:00 8.2 C 75 % 4.04 C
3508 16-02-2014 04:35:00 8.1 C 75 % 3.94 C
3509 16-02-2014 04:40:00 8.1 C 76 % 4.13 C
3510 16-02-2014 04:45:00 8.1 C 75 % 3.94 C
3511 16-02-2014 04:50:00 8.1 C 76 % 4.13 C
3512 16-02-2014 04:55:00 8.1 C 76 % 4.13 C
3513 16-02-2014 05:00:00 7.9 C 77 % 4.12 C
3514 16-02-2014 05:05:00 7.8 C 78 % 4.21 C
3515 16-02-2014 05:10:00 7.6 C 79 % 4.2 C
3516 16-02-2014 05:15:00 7.6 C 79 % 4.2 C
3517 16-02-2014 05:20:00 7.8 C 77 % 4.03 C
3518 16-02-2014 05:25:00 7.8 C 77 % 4.03 C
3519 16-02-2014 05:30:00 7.8 C 77 % 4.03 C
3520 16-02-2014 05:35:00 7.8 C 77 % 4.03 C
3521 16-02-2014 05:40:00 7.8 C 77 % 4.03 C
3522 16-02-2014 05:45:00 7.8 C 77 % 4.03 C
3523 16-02-2014 05:50:00 7.8 C 77 % 4.03 C
3524 16-02-2014 05:55:00 7.8 C 77 % 4.03 C
3525 16-02-2014 06:00:00 7.9 C 77 % 4.12 C
Sensor: Nr:Datum:Temp:Feuchte:Taupunkt:
Aussen-T/F 3526 16-02-2014 06:05:00 7.8 C 77 % 4.03 C
3527 16-02-2014 06:10:00 7.8 C 78 % 4.21 C
3528 16-02-2014 06:15:00 7.7 C 79 % 4.3 C
3529 16-02-2014 06:20:00 7.7 C 79 % 4.3 C
3530 16-02-2014 06:25:00 7.6 C 79 % 4.2 C
3531 16-02-2014 06:30:00 7.6 C 79 % 4.2 C
3532 16-02-2014 06:35:00 7.6 C 79 % 4.2 C
3533 16-02-2014 06:40:00 7.6 C 79 % 4.2 C
3534 16-02-2014 06:45:00 7.6 C 79 % 4.2 C
3535 16-02-2014 06:50:00 7.7 C 79 % 4.3 C
3536 16-02-2014 06:55:00 7.7 C 79 % 4.3 C
3537 16-02-2014 07:00:00 7.7 C 79 % 4.3 C
3538 16-02-2014 07:05:00 7.7 C 79 % 4.3 C
3539 16-02-2014 07:10:00 7.7 C 79 % 4.3 C
3540 16-02-2014 07:15:00 7.7 C 79 % 4.3 C
3541 16-02-2014 07:20:00 7.6 C 79 % 4.2 C
3542 16-02-2014 07:25:00 7.6 C 79 % 4.2 C
3543 16-02-2014 07:30:00 7.6 C 80 % 4.38 C
3544 16-02-2014 07:35:00 7.6 C 80 % 4.38 C
3545 16-02-2014 07:40:00 7.5 C 81 % 4.46 C
3546 16-02-2014 07:45:00 7.4 C 81 % 4.36 C
3547 16-02-2014 07:50:00 7.4 C 81 % 4.36 C
3548 16-02-2014 07:55:00 7.4 C 81 % 4.36 C
3549 16-02-2014 08:00:00 7.4 C 81 % 4.36 C
3550 16-02-2014 08:05:00 7.3 C 81 % 4.26 C
Sensor: Nr:Datum:Temp:Feuchte:Taupunkt:
Aussen-T/F 3551 16-02-2014 08:10:00 7.4 C 81 % 4.36 C
3552 16-02-2014 08:15:00 7.4 C 80 % 4.18 C
3553 16-02-2014 08:20:00 7.4 C 80 % 4.18 C
3554 16-02-2014 08:25:00 7.4 C 80 % 4.18 C
3555 16-02-2014 08:30:00 7.4 C 80 % 4.18 C
3556 16-02-2014 08:35:00 7.4 C 80 % 4.18 C
3557 16-02-2014 08:40:00 7.3 C 80 % 4.09 C
3558 16-02-2014 08:45:00 7.3 C 80 % 4.09 C
3559 16-02-2014 08:50:00 7.3 C 81 % 4.26 C
3560 16-02-2014 08:55:00 7.3 C 80 % 4.09 C
3561 16-02-2014 09:00:00 7.3 C 81 % 4.26 C
3562 16-02-2014 09:05:00 7.2 C 83 % 4.51 C
3563 16-02-2014 09:10:00 7.2 C 84 % 4.68 C
3564 16-02-2014 09:15:00 7.2 C 84 % 4.68 C
3565 16-02-2014 09:20:00 7.2 C 84 % 4.68 C
3566 16-02-2014 09:25:00 7.4 C 82 % 4.53 C
3567 16-02-2014 09:30:00 7.5 C 82 % 4.63 C
3568 16-02-2014 09:35:00 7.6 C 81 % 4.55 C
3569 16-02-2014 09:40:00 7.7 C 80 % 4.47 C
3570 16-02-2014 09:45:00 7.8 C 80 % 4.57 C
3571 16-02-2014 09:50:00 7.9 C 79 % 4.49 C
3572 16-02-2014 09:55:00 7.9 C 79 % 4.49 C
3573 16-02-2014 10:00:00 7.9 C 79 % 4.49 C
3574 16-02-2014 10:05:00 8.1 C 79 % 4.68 C
3575 16-02-2014 10:10:00 8.1 C 79 % 4.68 C
Sensor: Nr:Datum:Temp:Feuchte:Taupunkt:
Aussen-T/F 3576 16-02-2014 10:15:00 8 C 80 % 4.77 C
3577 16-02-2014 10:20:00 7.9 C 81 % 4.85 C
3578 16-02-2014 10:25:00 7.9 C 81 % 4.85 C
3579 16-02-2014 10:30:00 7.9 C 80 % 4.67 C
3580 16-02-2014 10:35:00 8 C 79 % 4.59 C
3581 16-02-2014 10:40:00 8 C 79 % 4.59 C
3582 16-02-2014 10:45:00 8 C 79 % 4.59 C
3583 16-02-2014 10:50:00 8.1 C 79 % 4.68 C
3584 16-02-2014 10:55:00 8.2 C 78 % 4.6 C
3585 16-02-2014 11:00:00 8.3 C 78 % 4.7 C
3586 16-02-2014 11:05:00 8.4 C 77 % 4.61 C
3587 16-02-2014 11:10:00 8.4 C 77 % 4.61 C
3588 16-02-2014 11:15:00 8.6 C 76 % 4.62 C
3589 16-02-2014 11:20:00 8.6 C 77 % 4.8 C
3590 16-02-2014 11:25:00 8.7 C 76 % 4.71 C
3591 16-02-2014 11:30:00 8.6 C 76 % 4.62 C
3592 16-02-2014 11:35:00 8.7 C 77 % 4.9 C
3593 16-02-2014 11:40:00 8.7 C 77 % 4.9 C
3594 16-02-2014 11:45:00 8.7 C 77 % 4.9 C
3595 16-02-2014 11:50:00 8.6 C 77 % 4.8 C
3596 16-02-2014 11:55:00 8.5 C 78 % 4.89 C
3597 16-02-2014 12:00:00 8.4 C 79 % 4.98 C
3598 16-02-2014 12:05:00 8.4 C 79 % 4.98 C
3599 16-02-2014 12:10:00 8.5 C 80 % 5.25 C
3600 16-02-2014 12:15:00 8.7 C 79 % 5.27 C
Sensor: Nr:Datum:Temp:Feuchte:Taupunkt:
Aussen-T/F 3601 16-02-2014 12:20:00 8.8 C 77 % 5 C
3602 16-02-2014 12:25:00 9 C 77 % 5.19 C
3603 16-02-2014 12:30:00 8.9 C 75 % 4.72 C
3604 16-02-2014 12:35:00 8.7 C 79 % 5.27 C
3605 16-02-2014 12:40:00 8.3 C 83 % 5.59 C
3606 16-02-2014 12:45:00 8 C 85 % 5.64 C
3607 16-02-2014 12:50:00 7.9 C 85 % 5.54 C
3608 16-02-2014 12:55:00 7.9 C 86 % 5.71 C
3609 16-02-2014 13:00:00 8 C 86 % 5.81 C
3610 16-02-2014 13:05:00 8.2 C 85 % 5.83 C
3611 16-02-2014 13:10:00 8.4 C 82 % 5.51 C
3612 16-02-2014 13:15:00 8.6 C 80 % 5.35 C
3613 16-02-2014 13:20:00 8.7 C 79 % 5.27 C
3614 16-02-2014 13:25:00 8.8 C 78 % 5.18 C
3615 16-02-2014 13:30:00 8.9 C 78 % 5.28 C
3616 16-02-2014 13:35:00 8.9 C 78 % 5.28 C
3617 16-02-2014 13:40:00 8.9 C 78 % 5.28 C
3618 16-02-2014 13:45:00 8.9 C 78 % 5.28 C
3619 16-02-2014 13:50:00 8.9 C 77 % 5.09 C
3620 16-02-2014 13:55:00 9 C 77 % 5.19 C
3621 16-02-2014 14:00:00 9.2 C 77 % 5.38 C
3622 16-02-2014 14:05:00 9.4 C 75 % 5.2 C
3623 16-02-2014 14:10:00 9.4 C 75 % 5.2 C
3624 16-02-2014 14:15:00 9.3 C 75 % 5.1 C
3625 16-02-2014 14:20:00 9.3 C 75 % 5.1 C
Sensor: Nr:Datum:Temp:Feuchte:Taupunkt:
Aussen-T/F 3626 16-02-2014 14:25:00 9.3 C 76 % 5.29 C
3627 16-02-2014 14:30:00 9.3 C 74 % 4.91 C
3628 16-02-2014 14:35:00 9.1 C 75 % 4.91 C
3629 16-02-2014 14:40:00 9 C 75 % 4.81 C
3630 16-02-2014 14:45:00 9 C 76 % 5 C
3631 16-02-2014 14:50:00 9.1 C 76 % 5.1 C
3632 16-02-2014 14:55:00 9.2 C 76 % 5.2 C
3633 16-02-2014 15:00:00 9.2 C 75 % 5.01 C
3634 16-02-2014 15:05:00 9.2 C 74 % 4.81 C
3635 16-02-2014 15:10:00 9.3 C 74 % 4.91 C
3636 16-02-2014 15:15:00 9.4 C 73 % 4.81 C
3637 16-02-2014 15:20:00 9.4 C 73 % 4.81 C
3638 16-02-2014 15:25:00 9.4 C 73 % 4.81 C
3639 16-02-2014 15:30:00 9.3 C 72 % 4.52 C
3640 16-02-2014 15:35:00 9.3 C 72 % 4.52 C
3641 16-02-2014 15:40:00 9.3 C 72 % 4.52 C
3642 16-02-2014 15:45:00 9.3 C 73 % 4.72 C
3643 16-02-2014 15:50:00 9.4 C 73 % 4.81 C
3644 16-02-2014 15:55:00 9.4 C 73 % 4.81 C
3645 16-02-2014 16:00:00 9.5 C 73 % 4.91 C
3646 16-02-2014 16:05:00 9.6 C 72 % 4.81 C
3647 16-02-2014 16:10:00 9.6 C 73 % 5.01 C
3648 16-02-2014 16:15:00 9.7 C 72 % 4.9 C
3649 16-02-2014 16:20:00 9.7 C 72 % 4.9 C
3650 16-02-2014 16:25:00 9.7 C 72 % 4.9 C
Sensor: Nr:Datum:Temp:Feuchte:Taupunkt:
Aussen-T/F 3651 16-02-2014 16:30:00 9.7 C 72 % 4.9 C
3652 16-02-2014 16:35:00 9.7 C 72 % 4.9 C
3653 16-02-2014 16:40:00 9.6 C 72 % 4.81 C
3654 16-02-2014 16:45:00 9.6 C 71 % 4.61 C
3655 16-02-2014 16:50:00 9.6 C 71 % 4.61 C
3656 16-02-2014 16:55:00 9.5 C 71 % 4.51 C
3657 16-02-2014 17:00:00 9.4 C 71 % 4.42 C
3658 16-02-2014 17:05:00 9.4 C 71 % 4.42 C
3659 16-02-2014 17:10:00 9.3 C 70 % 4.12 C
3660 16-02-2014 17:15:00 9.3 C 71 % 4.32 C
3661 16-02-2014 17:20:00 9.3 C 71 % 4.32 C
3662 16-02-2014 17:25:00 9.2 C 70 % 4.02 C
3663 16-02-2014 17:30:00 9.1 C 72 % 4.33 C
3664 16-02-2014 17:35:00 8.8 C 72 % 4.04 C
3665 16-02-2014 17:40:00 8.6 C 75 % 4.43 C
3666 16-02-2014 17:45:00 8.2 C 77 % 4.42 C
3667 16-02-2014 17:50:00 7.7 C 79 % 4.3 C
3668 16-02-2014 17:55:00 7.3 C 80 % 4.09 C
3669 16-02-2014 18:00:00 7.1 C 82 % 4.24 C
3670 16-02-2014 18:05:00 6.8 C 83 % 4.12 C
3671 16-02-2014 18:10:00 6.6 C 83 % 3.92 C
3672 16-02-2014 18:15:00 6.4 C 85 % 4.07 C
3673 16-02-2014 18:20:00 6.3 C 85 % 3.97 C
3674 16-02-2014 18:25:00 6.2 C 85 % 3.87 C
3675 16-02-2014 18:30:00 6.1 C 85 % 3.77 C
Sensor: Nr:Datum:Temp:Feuchte:Taupunkt:
Aussen-T/F 3676 16-02-2014 18:35:00 6.1 C 86 % 3.94 C
3677 16-02-2014 18:40:00 5.9 C 86 % 3.74 C
3678 16-02-2014 18:45:00 5.7 C 87 % 3.71 C
3679 16-02-2014 18:50:00 5.6 C 87 % 3.61 C
3680 16-02-2014 18:55:00 5.5 C 88 % 3.67 C
3681 16-02-2014 19:00:00 5.4 C 88 % 3.58 C
3682 16-02-2014 19:05:00 5.3 C 89 % 3.64 C
3683 16-02-2014 19:10:00 5.2 C 89 % 3.54 C
3684 16-02-2014 19:15:00 5.2 C 89 % 3.54 C
3685 16-02-2014 19:20:00 5.2 C 89 % 3.54 C
3686 16-02-2014 19:25:00 5.4 C 88 % 3.58 C
3687 16-02-2014 19:30:00 5.4 C 88 % 3.58 C
3688 16-02-2014 19:35:00 5.3 C 88 % 3.48 C
3689 16-02-2014 19:40:00 5.2 C 88 % 3.38 C
3690 16-02-2014 19:45:00 5.2 C 88 % 3.38 C
3691 16-02-2014 19:50:00 5.1 C 88 % 3.28 C
3692 16-02-2014 19:55:00 5 C 89 % 3.34 C
3693 16-02-2014 20:00:00 4.9 C 89 % 3.24 C
3694 16-02-2014 20:05:00 4.8 C 89 % 3.14 C
3695 16-02-2014 20:10:00 4.7 C 89 % 3.05 C
3696 16-02-2014 20:15:00 4.7 C 90 % 3.2 C
3697 16-02-2014 20:20:00 4.7 C 90 % 3.2 C
3698 16-02-2014 20:25:00 4.6 C 90 % 3.1 C
3699 16-02-2014 20:30:00 4.5 C 90 % 3.01 C
3700 16-02-2014 20:35:00 4.4 C 90 % 2.91 C
Sensor: Nr:Datum:Temp:Feuchte:Taupunkt:
Aussen-T/F 3701 16-02-2014 20:40:00 4.3 C 90 % 2.81 C
3702 16-02-2014 20:45:00 4.2 C 91 % 2.87 C
3703 16-02-2014 20:50:00 4.1 C 91 % 2.77 C
3704 16-02-2014 20:55:00 4.1 C 91 % 2.77 C
3705 16-02-2014 21:00:00 4 C 91 % 2.67 C
3706 16-02-2014 21:05:00 3.9 C 92 % 2.72 C
3707 16-02-2014 21:10:00 3.9 C 92 % 2.72 C
3708 16-02-2014 21:15:00 3.8 C 92 % 2.62 C
3709 16-02-2014 21:20:00 3.9 C 92 % 2.72 C
3710 16-02-2014 21:25:00 3.9 C 92 % 2.72 C
3711 16-02-2014 21:30:00 3.9 C 92 % 2.72 C
3712 16-02-2014 21:35:00 3.9 C 92 % 2.72 C
3713 16-02-2014 21:40:00 3.8 C 92 % 2.62 C
3714 16-02-2014 21:45:00 3.8 C 92 % 2.62 C
3715 16-02-2014 21:50:00 3.8 C 92 % 2.62 C
3716 16-02-2014 21:55:00 3.8 C 92 % 2.62 C
3717 16-02-2014 22:00:00 3.8 C 92 % 2.62 C
3718 16-02-2014 22:05:00 3.8 C 92 % 2.62 C
3719 16-02-2014 22:10:00 3.8 C 91 % 2.47 C
3720 16-02-2014 22:15:00 3.8 C 91 % 2.47 C
3721 16-02-2014 22:20:00 3.9 C 90 % 2.41 C
3722 16-02-2014 22:25:00 3.8 C 90 % 2.31 C
3723 16-02-2014 22:30:00 3.8 C 90 % 2.31 C
3724 16-02-2014 22:35:00 3.9 C 90 % 2.41 C
3725 16-02-2014 22:40:00 3.8 C 90 % 2.31 C
Sensor: Nr:Datum:Temp:Feuchte:Taupunkt:
Aussen-T/F 3726 16-02-2014 22:45:00 3.8 C 90 % 2.31 C
3727 16-02-2014 22:50:00 3.8 C 90 % 2.31 C
3728 16-02-2014 22:55:00 3.8 C 90 % 2.31 C
3729 16-02-2014 23:00:00 3.8 C 90 % 2.31 C
3730 16-02-2014 23:05:00 3.7 C 90 % 2.22 C
3731 16-02-2014 23:10:00 3.5 C 90 % 2.02 C
3732 16-02-2014 23:15:00 3.4 C 91 % 2.07 C
3733 16-02-2014 23:20:00 3.3 C 91 % 1.98 C
3734 16-02-2014 23:25:00 3.3 C 91 % 1.98 C
3735 16-02-2014 23:30:00 3.3 C 91 % 1.98 C
3736 16-02-2014 23:35:00 3.3 C 91 % 1.98 C
3737 16-02-2014 23:40:00 3.3 C 91 % 1.98 C
3738 16-02-2014 23:45:00 3.2 C 91 % 1.88 C
3739 16-02-2014 23:50:00 3.1 C 92 % 1.93 C
3740 16-02-2014 23:55:00 3 C 92 % 1.83 C
3741 17-02-2014 00:00:00 3 C 92 % 1.83 C
3742 17-02-2014 00:05:00 3 C 93 % 1.98 C
3743 17-02-2014 00:10:00 3.1 C 93 % 2.08 C
3744 17-02-2014 00:15:00 3.1 C 92 % 1.93 C
3745 17-02-2014 00:20:00 3.1 C 92 % 1.93 C
3746 17-02-2014 00:25:00 3.1 C 92 % 1.93 C
3747 17-02-2014 00:30:00 2.9 C 92 % 1.73 C
3748 17-02-2014 00:35:00 2.8 C 91 % 1.48 C
3749 17-02-2014 00:40:00 2.6 C 92 % 1.43 C
3750 17-02-2014 00:45:00 2.4 C 92 % 1.24 C
Sensor: Nr:Datum:Temp:Feuchte:Taupunkt:
Aussen-T/F 3751 17-02-2014 00:50:00 2.2 C 92 % 1.04 C
3752 17-02-2014 00:55:00 2 C 92 % 0.84 C
3753 17-02-2014 01:00:00 1.9 C 93 % 0.89 C
3754 17-02-2014 01:05:00 1.8 C 93 % 0.79 C
3755 17-02-2014 01:10:00 1.8 C 94 % 0.94 C
3756 17-02-2014 01:15:00 1.8 C 94 % 0.94 C
3757 17-02-2014 01:20:00 1.8 C 94 % 0.94 C
3758 17-02-2014 01:25:00 1.8 C 94 % 0.94 C
3759 17-02-2014 01:30:00 1.7 C 94 % 0.84 C
3760 17-02-2014 01:35:00 1.6 C 94 % 0.74 C
3761 17-02-2014 01:40:00 1.6 C 94 % 0.74 C
3762 17-02-2014 01:45:00 1.5 C 94 % 0.64 C
3763 17-02-2014 01:50:00 1.5 C 94 % 0.64 C
3764 17-02-2014 01:55:00 1.5 C 95 % 0.79 C
3765 17-02-2014 02:00:00 1.5 C 95 % 0.79 C
3766 17-02-2014 02:05:00 1.4 C 95 % 0.69 C
3767 17-02-2014 02:10:00 1.4 C 95 % 0.69 C
3768 17-02-2014 02:15:00 1.3 C 95 % 0.59 C
3769 17-02-2014 02:20:00 1.3 C 95 % 0.59 C
3770 17-02-2014 02:25:00 1.3 C 95 % 0.59 C
3771 17-02-2014 02:30:00 1.2 C 95 % 0.49 C
3772 17-02-2014 02:35:00 1.2 C 95 % 0.49 C
3773 17-02-2014 02:40:00 1.2 C 95 % 0.49 C
3774 17-02-2014 02:45:00 1.1 C 95 % 0.39 C
3775 17-02-2014 02:50:00 1.1 C 95 % 0.39 C
Sensor: Nr:Datum:Temp:Feuchte:Taupunkt:
Aussen-T/F 3776 17-02-2014 02:55:00 0.9 C 95 % 0.19 C
3777 17-02-2014 03:00:00 0.8 C 95 % 0.09 C
3778 17-02-2014 03:05:00 0.7 C 95 % -0.01 C
3779 17-02-2014 03:10:00 0.7 C 95 % -0.01 C
3780 17-02-2014 03:15:00 0.7 C 95 % -0.01 C
3781 17-02-2014 03:20:00 0.7 C 95 % -0.01 C
3782 17-02-2014 03:25:00 0.6 C 95 % -0.11 C
3783 17-02-2014 03:30:00 0.6 C 95 % -0.11 C
3784 17-02-2014 03:35:00 0.5 C 95 % -0.21 C
3785 17-02-2014 03:40:00 0.4 C 95 % -0.31 C
3786 17-02-2014 03:45:00 0.4 C 95 % -0.31 C
3787 17-02-2014 03:50:00 0.3 C 96 % -0.26 C
3788 17-02-2014 03:55:00 0.3 C 96 % -0.26 C
3789 17-02-2014 04:00:00 0.3 C 96 % -0.26 C
3790 17-02-2014 04:05:00 0.2 C 96 % -0.36 C
3791 17-02-2014 04:10:00 0.2 C 96 % -0.36 C
3792 17-02-2014 04:15:00 0.2 C 96 % -0.36 C
3793 17-02-2014 04:20:00 0.2 C 96 % -0.36 C
3794 17-02-2014 04:25:00 0.2 C 96 % -0.36 C
3795 17-02-2014 04:30:00 0.2 C 96 % -0.36 C
3796 17-02-2014 04:35:00 0.1 C 96 % -0.46 C
3797 17-02-2014 04:40:00 0.1 C 96 % -0.46 C
3798 17-02-2014 04:45:00 0.1 C 96 % -0.46 C
3799 17-02-2014 04:50:00 0.1 C 96 % -0.46 C
3800 17-02-2014 04:55:00 0.1 C 96 % -0.46 C
Sensor: Nr:Datum:Temp:Feuchte:Taupunkt:
Aussen-T/F 3801 17-02-2014 05:00:00 0.1 C 96 % -0.46 C
3802 17-02-2014 05:05:00 0.1 C 96 % -0.46 C
3803 17-02-2014 05:10:00 0 C 96 % -0.56 C
3804 17-02-2014 05:15:00 0 C 96 % -0.56 C
3805 17-02-2014 05:20:00 0 C 96 % -0.56 C
3806 17-02-2014 05:25:00 -0.1 C 96 % -0.66 C
3807 17-02-2014 05:30:00 -0.1 C 96 % -0.66 C
3808 17-02-2014 05:35:00 -0.1 C 96 % -0.66 C
3809 17-02-2014 05:40:00 -0.2 C 96 % -0.76 C
3810 17-02-2014 05:45:00 -0.1 C 96 % -0.66 C
3811 17-02-2014 05:50:00 -0.1 C 96 % -0.66 C
3812 17-02-2014 05:55:00 0 C 96 % -0.56 C
3813 17-02-2014 06:00:00 0.1 C 97 % -0.32 C
3814 17-02-2014 06:05:00 0.2 C 96 % -0.36 C
3815 17-02-2014 06:10:00 0.2 C 96 % -0.36 C
3816 17-02-2014 06:15:00 0.1 C 96 % -0.46 C
3817 17-02-2014 06:20:00 0.2 C 96 % -0.36 C
3818 17-02-2014 06:25:00 0.1 C 96 % -0.46 C
3819 17-02-2014 06:30:00 0.1 C 96 % -0.46 C
3820 17-02-2014 06:35:00 0 C 97 % -0.42 C
3821 17-02-2014 06:40:00 0.1 C 97 % -0.32 C
3822 17-02-2014 06:45:00 0.1 C 97 % -0.32 C
3823 17-02-2014 06:50:00 0.2 C 97 % -0.22 C
3824 17-02-2014 06:55:00 0.2 C 97 % -0.22 C
3825 17-02-2014 07:00:00 0.2 C 97 % -0.22 C
Sensor: Nr:Datum:Temp:Feuchte:Taupunkt:
Aussen-T/F 3826 17-02-2014 07:05:00 0.2 C 97 % -0.22 C
3827 17-02-2014 07:10:00 0.3 C 97 % -0.12 C
3828 17-02-2014 07:15:00 0.3 C 97 % -0.12 C
3829 17-02-2014 07:20:00 0.3 C 97 % -0.12 C
3830 17-02-2014 07:25:00 0.4 C 97 % -0.02 C
3831 17-02-2014 07:30:00 0.6 C 97 % 0.18 C
3832 17-02-2014 07:35:00 0.6 C 97 % 0.18 C
3833 17-02-2014 07:40:00 0.7 C 97 % 0.28 C
3834 17-02-2014 07:45:00 0.7 C 97 % 0.28 C
3835 17-02-2014 07:50:00 0.8 C 97 % 0.38 C
3836 17-02-2014 07:55:00 0.8 C 97 % 0.38 C
3837 17-02-2014 08:00:00 0.9 C 97 % 0.48 C
3838 17-02-2014 08:05:00 0.9 C 97 % 0.48 C
3839 17-02-2014 08:10:00 1 C 97 % 0.58 C
3840 17-02-2014 08:15:00 1.1 C 97 % 0.68 C
3841 17-02-2014 08:20:00 1.1 C 97 % 0.68 C
3842 17-02-2014 08:25:00 1.2 C 97 % 0.78 C
3843 17-02-2014 08:30:00 1.3 C 97 % 0.88 C
3844 17-02-2014 08:35:00 1.3 C 97 % 0.88 C
3845 17-02-2014 08:40:00 1.3 C 97 % 0.88 C
3846 17-02-2014 08:45:00 1.5 C 97 % 1.08 C
3847 17-02-2014 08:50:00 1.7 C 97 % 1.28 C
3848 17-02-2014 08:55:00 1.7 C 97 % 1.28 C
3849 17-02-2014 09:00:00 1.8 C 97 % 1.38 C
3850 17-02-2014 09:05:00 1.8 C 97 % 1.38 C
Sensor: Nr:Datum:Temp:Feuchte:Taupunkt:
Aussen-T/F 3851 17-02-2014 09:10:00 1.9 C 97 % 1.48 C
3852 17-02-2014 09:15:00 1.9 C 97 % 1.48 C
3853 17-02-2014 09:20:00 2.1 C 97 % 1.67 C
3854 17-02-2014 09:25:00 2.2 C 97 % 1.77 C
3855 17-02-2014 09:30:00 2.3 C 97 % 1.87 C
3856 17-02-2014 09:35:00 2.4 C 97 % 1.97 C
3857 17-02-2014 09:40:00 2.5 C 97 % 2.07 C
3858 17-02-2014 09:45:00 2.6 C 97 % 2.17 C
3859 17-02-2014 09:50:00 2.7 C 97 % 2.27 C
3860 17-02-2014 09:55:00 2.7 C 97 % 2.27 C
3861 17-02-2014 10:00:00 2.8 C 97 % 2.37 C
3862 17-02-2014 10:05:00 2.8 C 97 % 2.37 C
3863 17-02-2014 10:10:00 2.9 C 97 % 2.47 C
3864 17-02-2014 10:15:00 3.1 C 97 % 2.67 C
3865 17-02-2014 10:20:00 3.3 C 97 % 2.87 C
3866 17-02-2014 10:25:00 3.5 C 97 % 3.07 C
3867 17-02-2014 10:30:00 3.6 C 97 % 3.17 C
3868 17-02-2014 10:35:00 3.8 C 97 % 3.37 C
3869 17-02-2014 10:40:00 3.9 C 96 % 3.32 C
3870 17-02-2014 10:45:00 4.1 C 96 % 3.52 C
3871 17-02-2014 10:50:00 4.2 C 96 % 3.62 C
3872 17-02-2014 10:55:00 4.2 C 95 % 3.47 C
3873 17-02-2014 11:00:00 4.3 C 95 % 3.57 C
3874 17-02-2014 11:05:00 4.3 C 95 % 3.57 C
3875 17-02-2014 11:10:00 4.4 C 94 % 3.52 C
Sensor: Nr:Datum:Temp:Feuchte:Taupunkt:
Aussen-T/F 3876 17-02-2014 11:15:00 4.6 C 94 % 3.72 C
3877 17-02-2014 11:20:00 4.7 C 94 % 3.82 C
3878 17-02-2014 11:25:00 4.9 C 94 % 4.02 C
3879 17-02-2014 11:30:00 5.1 C 94 % 4.22 C
3880 17-02-2014 11:35:00 5.2 C 94 % 4.32 C
3881 17-02-2014 11:40:00 5.4 C 93 % 4.36 C
3882 17-02-2014 11:45:00 5.5 C 93 % 4.46 C
3883 17-02-2014 11:50:00 5.7 C 92 % 4.5 C
3884 17-02-2014 11:55:00 5.8 C 92 % 4.6 C
3885 17-02-2014 12:00:00 6.1 C 91 % 4.74 C
3886 17-02-2014 12:05:00 6.4 C 91 % 5.04 C
3887 17-02-2014 12:10:00 6.7 C 89 % 5.02 C
3888 17-02-2014 12:15:00 6.8 C 89 % 5.12 C
3889 17-02-2014 12:20:00 6.9 C 88 % 5.05 C
3890 17-02-2014 12:25:00 7 C 88 % 5.15 C
3891 17-02-2014 12:30:00 7.1 C 87 % 5.09 C
3892 17-02-2014 12:35:00 7.1 C 87 % 5.09 C
3893 17-02-2014 12:40:00 7.2 C 87 % 5.19 C
3894 17-02-2014 12:45:00 7.2 C 87 % 5.19 C
3895 17-02-2014 12:50:00 7.3 C 86 % 5.12 C
3896 17-02-2014 12:55:00 7.4 C 86 % 5.22 C
3897 17-02-2014 13:00:00 7.4 C 86 % 5.22 C
3898 17-02-2014 13:05:00 7.4 C 85 % 5.05 C
3899 17-02-2014 13:10:00 7.4 C 85 % 5.05 C
3900 17-02-2014 13:15:00 7.4 C 84 % 4.88 C
Sensor: Nr:Datum:Temp:Feuchte:Taupunkt:
Aussen-T/F 3901 17-02-2014 13:20:00 7.4 C 84 % 4.88 C
3902 17-02-2014 13:25:00 7.6 C 83 % 4.9 C
3903